Provisional Data: Sugar Run near Sugar Run, PA


Please select a monitoring station.
Please select start date.
Please select start date.

Toggle Unit: C/F Toggle Unit: C/F
Sample Time Temperature (C) Temperature (F) Specific Conductivity (mS/cm) pH   Turbidity (NTU+) DO (mg/L)
9/14/2021 8:35:00 AM -99999.99 -179968 -99999.99 -99999.99 -99999.99 -99999.99
9/14/2021 8:40:00 AM -99999.99 -179968 -99999.99 -99999.99 -99999.99 -99999.99
9/14/2021 8:45:00 AM 21.17 70.106 0.001 6.69 10.35 7.43
9/14/2021 9:50:00 AM 21.65 70.97 0.002 6.44 9.2 7.39
9/14/2021 9:55:00 AM 21.71 71.078 0.002 6.43 9.26 7.37
9/14/2021 10:00:00 AM 21.78 71.204 0.001 6.44 9.01 7.29
9/14/2021 10:05:00 AM 21.85 71.33 0.001 6.51 8.75 7.28
9/14/2021 10:10:00 AM 21.84 71.312 0.001 6.46 8.35 7.29
9/14/2021 10:15:00 AM 21.83 71.294 0.001 6.83 8.12 7.29
9/14/2021 10:20:00 AM 21.83 71.294 0.001 6.75 7.9 7.3
9/14/2021 10:25:00 AM 21.83 71.294 0.001 6.63 7.68 7.3
9/14/2021 10:30:00 AM 21.83 71.294 0.001 6.75 7.5 7.3
9/14/2021 10:35:00 AM 21.83 71.294 0.001 6.7 7.37 7.3
9/14/2021 10:40:00 AM 21.84 71.312 0.001 6.63 7.25 7.31
9/14/2021 10:45:00 AM 21.85 71.33 0.001 6.76 7.12 7.31
9/14/2021 10:50:00 AM 21.86 71.348 0.001 6.87 7.06 7.31
9/14/2021 10:55:00 AM 21.87 71.366 0.001 7.09 6.91 7.31
9/14/2021 11:00:00 AM 21.88 71.384 0.001 7.11 6.83 7.32
9/14/2021 11:05:00 AM 21.89 71.402 0.001 7.38 6.74 7.32
9/14/2021 11:10:00 AM 21.9 71.42 0.001 7.5 6.63 7.32
9/14/2021 11:15:00 AM 21.91 71.438 0.001 7.45 6.54 7.33
9/14/2021 11:20:00 AM 21.92 71.456 0.001 7.86 6.41 7.33
9/14/2021 11:25:00 AM 21.93 71.474 0.001 8.49 6.37 7.34
9/14/2021 11:30:00 AM 21.94 71.492 0.001 8.43 6.25 7.34
9/14/2021 11:35:00 AM 21.95 71.51 0.001 8.2 6.18 7.34
9/14/2021 11:40:00 AM 21.96 71.528 0 8.26 6.09 7.34
9/14/2021 11:45:00 AM 21.97 71.546 0 8.8 6.02 7.35
9/14/2021 11:50:00 AM 21.98 71.564 0 9.05 5.93 7.35
9/14/2021 11:55:00 AM 21.99 71.582 0 9.07 5.86 7.36
9/14/2021 12:00:00 PM 22 71.6 0 8.71 5.77 7.36
9/14/2021 12:05:00 PM 22.01 71.618 0 8.65 5.68 7.37
9/14/2021 12:10:00 PM 22.02 71.636 0 8.48 5.63 7.37
9/14/2021 12:15:00 PM 22.03 71.654 0 8.21 5.54 7.38
9/14/2021 12:20:00 PM 22.04 71.672 0 7.83 5.44 7.38
9/14/2021 12:25:00 PM 22.04 71.672 0 7.69 5.4 7.39
9/14/2021 12:30:00 PM 22.05 71.69 0 7.77 5.3 7.4
9/14/2021 12:35:00 PM 22.05 71.69 0.002 7.6 5.19 7.4
9/14/2021 12:40:00 PM 22.05 71.69 0.002 7.47 5.11 7.41
9/14/2021 12:45:00 PM 22.05 71.69 0.002 7.45 5.04 7.42
9/14/2021 12:50:00 PM 22.05 71.69 0.002 7.31 4.93 7.42
9/14/2021 12:55:00 PM 22.05 71.69 0.002 7.49 4.88 7.43
9/14/2021 1:00:00 PM 22.05 71.69 0.002 7.57 4.79 7.44
9/14/2021 1:05:00 PM 22.05 71.69 0.002 7.32 4.71 7.45
9/14/2021 1:10:00 PM 22.06 71.708 0.002 7.27 4.64 7.46
9/14/2021 1:15:00 PM 22.06 71.708 0.002 7.32 4.56 7.46
9/14/2021 1:20:00 PM 22.07 71.726 0.002 7.31 4.5 7.47
9/14/2021 1:25:00 PM 22.07 71.726 0.002 7.26 4.43 7.48
9/14/2021 1:30:00 PM 22.08 71.744 0.002 7.28 4.37 7.48
9/14/2021 1:35:00 PM 22.08 71.744 0.002 7.3 4.29 7.49
9/14/2021 1:40:00 PM 22.08 71.744 0.002 7.28 4.22 7.5
9/14/2021 1:45:00 PM 22.08 71.744 0.002 7.29 4.16 7.51
9/14/2021 1:50:00 PM 22.08 71.744 0.002 7.13 4.12 7.52
9/14/2021 1:55:00 PM 22.08 71.744 0.002 7.3 4.05 7.52
9/14/2021 2:00:00 PM 22.08 71.744 0.002 7.1 4.01 7.53
9/14/2021 2:05:00 PM 22.08 71.744 0.002 7.15 3.93 7.54
9/14/2021 2:10:00 PM 22.09 71.762 0.002 7.1 3.91 7.54
9/14/2021 2:15:00 PM 22.1 71.78 0.002 7.13 3.89 7.55
9/14/2021 2:20:00 PM 22.1 71.78 0.002 7.32 3.84 7.56
9/14/2021 2:25:00 PM 22.11 71.798 0.002 7.22 3.81 7.56
9/14/2021 2:30:00 PM 22.11 71.798 0.001 7.14 3.79 7.57
9/14/2021 2:35:00 PM 22.11 71.798 0.001 7.09 3.76 7.58
9/14/2021 2:40:00 PM 22.12 71.816 0.001 6.94 3.71 7.59
9/14/2021 2:45:00 PM 22.11 71.798 0.001 6.9 3.7 7.59
9/14/2021 2:50:00 PM 22.11 71.798 0.001 6.89 3.69 7.6
9/14/2021 2:55:00 PM 22.11 71.798 0.001 6.91 3.61 7.61
9/14/2021 3:00:00 PM 22.11 71.798 0.001 6.83 3.62 7.61
9/14/2021 3:05:00 PM 22.11 71.798 0.001 6.83 3.57 7.62
9/14/2021 3:10:00 PM 22.11 71.798 0.001 6.59 3.52 7.63
9/14/2021 3:15:00 PM 22.11 71.798 0.001 6.6 3.52 7.64
9/14/2021 3:20:00 PM 22.11 71.798 0.001 6.85 3.49 7.65
9/14/2021 3:25:00 PM 22.11 71.798 0.001 6.85 3.47 7.65
9/14/2021 3:30:00 PM 22.11 71.798 0.001 6.82 3.46 7.66
9/14/2021 3:35:00 PM 22.12 71.816 0.001 6.8 3.4 7.67
9/14/2021 3:40:00 PM 22.12 71.816 0.001 6.81 3.39 7.67
9/14/2021 3:45:00 PM 22.12 71.816 0.001 6.78 3.38 7.68
9/14/2021 3:50:00 PM 22.12 71.816 0.001 6.84 3.34 7.69
9/20/2021 11:50:00 AM -99999.99 -179968 -99999.99 -99999.99 -99999.99 -99999.99
9/20/2021 11:55:00 AM -99999.99 -179968 -99999.99 -99999.99 -99999.99 -99999.99
9/20/2021 12:00:00 PM -99999.99 -179968 -99999.99 -99999.99 -99999.99 -99999.99
9/20/2021 12:05:00 PM -99999.99 -179968 -99999.99 -99999.99 -99999.99 -99999.99
9/20/2021 12:10:00 PM -99999.99 -179968 -99999.99 -99999.99 -99999.99 -99999.99
9/20/2021 12:15:00 PM -99999.99 -179968 -99999.99 -99999.99 -99999.99 -99999.99
9/20/2021 12:20:00 PM -99999.99 -179968 -99999.99 -99999.99 -99999.99 -99999.99
9/20/2021 12:25:00 PM -99999.99 -179968 -99999.99 -99999.99 -99999.99 -99999.99
9/20/2021 12:30:00 PM -99999.99 -179968 -99999.99 -99999.99 -99999.99 -99999.99
9/20/2021 12:35:00 PM -99999.99 -179968 -99999.99 -99999.99 -99999.99 -99999.99
9/20/2021 12:40:00 PM -99999.99 -179968 -99999.99 -99999.99 -99999.99 -99999.99
9/20/2021 12:45:00 PM -99999.99 -179968 -99999.99 -99999.99 -99999.99 -99999.99
9/20/2021 12:50:00 PM -99999.99 -179968 -99999.99 -99999.99 -99999.99 -99999.99
9/20/2021 12:55:00 PM -99999.99 -179968 -99999.99 -99999.99 -99999.99 -99999.99
9/20/2021 1:00:00 PM -99999.99 -179968 -99999.99 -99999.99 -99999.99 -99999.99
9/20/2021 1:05:00 PM -99999.99 -179968 -99999.99 -99999.99 -99999.99 -99999.99
9/20/2021 1:10:00 PM -99999.99 -179968 -99999.99 -99999.99 -99999.99 -99999.99
9/20/2021 1:15:00 PM -99999.99 -179968 -99999.99 -99999.99 -99999.99 -99999.99
9/20/2021 1:20:00 PM -99999.99 -179968 -99999.99 -99999.99 -99999.99 -99999.99
9/20/2021 1:25:00 PM -99999.99 -179968 -99999.99 -99999.99 -99999.99 -99999.99
9/20/2021 1:30:00 PM -99999.99 -179968 -99999.99 -99999.99 -99999.99 -99999.99
9/20/2021 1:35:00 PM -99999.99 -179968 -99999.99 -99999.99 -99999.99 -99999.99
9/20/2021 1:40:00 PM -99999.99 -179968 -99999.99 -99999.99 -99999.99 -99999.99
9/20/2021 1:45:00 PM -99999.99 -179968 -99999.99 -99999.99 -99999.99 -99999.99
9/20/2021 1:50:00 PM -99999.99 -179968 -99999.99 -99999.99 -99999.99 -99999.99
9/20/2021 1:55:00 PM -99999.99 -179968 -99999.99 -99999.99 -99999.99 -99999.99
9/20/2021 2:00:00 PM -99999.99 -179968 -99999.99 -99999.99 -99999.99 -99999.99
9/20/2021 2:05:00 PM -99999.99 -179968 -99999.99 -99999.99 -99999.99 -99999.99
9/20/2021 2:10:00 PM -99999.99 -179968 -99999.99 -99999.99 -99999.99 -99999.99
9/20/2021 2:15:00 PM -99999.99 -179968 -99999.99 -99999.99 -99999.99 -99999.99
9/20/2021 2:20:00 PM -99999.99 -179968 -99999.99 -99999.99 -99999.99 -99999.99
9/20/2021 2:25:00 PM -99999.99 -179968 -99999.99 -99999.99 -99999.99 -99999.99
9/20/2021 2:30:00 PM -99999.99 -179968 -99999.99 -99999.99 -99999.99 -99999.99
9/20/2021 2:35:00 PM -99999.99 -179968 -99999.99 -99999.99 -99999.99 -99999.99
9/20/2021 2:40:00 PM -99999.99 -179968 -99999.99 -99999.99 -99999.99 -99999.99
9/20/2021 2:45:00 PM -99999.99 -179968 -99999.99 -99999.99 -99999.99 -99999.99
9/20/2021 2:50:00 PM -99999.99 -179968 -99999.99 -99999.99 -99999.99 -99999.99
9/20/2021 2:55:00 PM -99999.99 -179968 -99999.99 -99999.99 -99999.99 -99999.99
9/20/2021 3:00:00 PM -99999.99 -179968 -99999.99 -99999.99 -99999.99 -99999.99
9/20/2021 3:05:00 PM -99999.99 -179968 -99999.99 -99999.99 -99999.99 -99999.99
9/20/2021 3:10:00 PM -99999.99 -179968 -99999.99 -99999.99 -99999.99 -99999.99
9/20/2021 3:15:00 PM -99999.99 -179968 -99999.99 -99999.99 -99999.99 -99999.99
9/20/2021 3:20:00 PM -99999.99 -179968 -99999.99 -99999.99 -99999.99 -99999.99
9/20/2021 3:25:00 PM -99999.99 -179968 -99999.99 -99999.99 -99999.99 -99999.99
9/20/2021 3:30:00 PM -99999.99 -179968 -99999.99 -99999.99 -99999.99 -99999.99
9/20/2021 3:35:00 PM -99999.99 -179968 -99999.99 -99999.99 -99999.99 -99999.99
9/20/2021 3:40:00 PM -99999.99 -179968 -99999.99 -99999.99 -99999.99 -99999.99
9/20/2021 3:45:00 PM -99999.99 -179968 -99999.99 -99999.99 -99999.99 -99999.99
9/20/2021 3:50:00 PM -99999.99 -179968 -99999.99 -99999.99 -99999.99 -99999.99
9/20/2021 3:55:00 PM -99999.99 -179968 -99999.99 -99999.99 -99999.99 -99999.99
9/20/2021 4:00:00 PM -99999.99 -179968 -99999.99 -99999.99 -99999.99 -99999.99
9/20/2021 4:05:00 PM -99999.99 -179968 -99999.99 -99999.99 -99999.99 -99999.99
9/20/2021 4:10:00 PM -99999.99 -179968 -99999.99 -99999.99 -99999.99 -99999.99
9/20/2021 4:15:00 PM -99999.99 -179968 -99999.99 -99999.99 -99999.99 -99999.99
9/20/2021 4:20:00 PM -99999.99 -179968 -99999.99 -99999.99 -99999.99 -99999.99
9/20/2021 4:25:00 PM -99999.99 -179968 -99999.99 -99999.99 -99999.99 -99999.99
9/20/2021 4:30:00 PM -99999.99 -179968 -99999.99 -99999.99 -99999.99 -99999.99
9/20/2021 4:35:00 PM -99999.99 -179968 -99999.99 -99999.99 -99999.99 -99999.99
9/20/2021 4:40:00 PM -99999.99 -179968 -99999.99 -99999.99 -99999.99 -99999.99
9/20/2021 4:45:00 PM -99999.99 -179968 -99999.99 -99999.99 -99999.99 -99999.99
9/20/2021 4:50:00 PM -99999.99 -179968 -99999.99 -99999.99 -99999.99 -99999.99
9/20/2021 4:55:00 PM -99999.99 -179968 -99999.99 -99999.99 -99999.99 -99999.99
9/20/2021 5:00:00 PM -99999.99 -179968 -99999.99 -99999.99 -99999.99 -99999.99
9/20/2021 5:05:00 PM -99999.99 -179968 -99999.99 -99999.99 -99999.99 -99999.99
9/20/2021 5:10:00 PM -99999.99 -179968 -99999.99 -99999.99 -99999.99 -99999.99
9/20/2021 5:15:00 PM -99999.99 -179968 -99999.99 -99999.99 -99999.99 -99999.99
9/20/2021 5:20:00 PM -99999.99 -179968 -99999.99 -99999.99 -99999.99 -99999.99
9/20/2021 5:25:00 PM -99999.99 -179968 -99999.99 -99999.99 -99999.99 -99999.99
9/20/2021 5:30:00 PM -99999.99 -179968 -99999.99 -99999.99 -99999.99 -99999.99
9/20/2021 5:35:00 PM -99999.99 -179968 -99999.99 -99999.99 -99999.99 -99999.99
9/20/2021 5:40:00 PM -99999.99 -179968 -99999.99 -99999.99 -99999.99 -99999.99
9/20/2021 5:45:00 PM -99999.99 -179968 -99999.99 -99999.99 -99999.99 -99999.99
9/20/2021 5:50:00 PM -99999.99 -179968 -99999.99 -99999.99 -99999.99 -99999.99
9/20/2021 5:55:00 PM -99999.99 -179968 -99999.99 -99999.99 -99999.99 -99999.99
9/20/2021 6:00:00 PM -99999.99 -179968 -99999.99 -99999.99 -99999.99 -99999.99
9/20/2021 6:05:00 PM -99999.99 -179968 -99999.99 -99999.99 -99999.99 -99999.99
9/20/2021 6:10:00 PM -99999.99 -179968 -99999.99 -99999.99 -99999.99 -99999.99
9/20/2021 6:15:00 PM -99999.99 -179968 -99999.99 -99999.99 -99999.99 -99999.99
9/20/2021 6:20:00 PM -99999.99 -179968 -99999.99 -99999.99 -99999.99 -99999.99
9/20/2021 6:25:00 PM -99999.99 -179968 -99999.99 -99999.99 -99999.99 -99999.99
9/20/2021 6:30:00 PM -99999.99 -179968 -99999.99 -99999.99 -99999.99 -99999.99
9/20/2021 6:35:00 PM -99999.99 -179968 -99999.99 -99999.99 -99999.99 -99999.99
9/20/2021 6:40:00 PM -99999.99 -179968 -99999.99 -99999.99 -99999.99 -99999.99
9/20/2021 6:45:00 PM -99999.99 -179968 -99999.99 -99999.99 -99999.99 -99999.99
9/20/2021 6:50:00 PM -99999.99 -179968 -99999.99 -99999.99 -99999.99 -99999.99
9/20/2021 6:55:00 PM -99999.99 -179968 -99999.99 -99999.99 -99999.99 -99999.99
9/20/2021 7:00:00 PM -99999.99 -179968 -99999.99 -99999.99 -99999.99 -99999.99
9/20/2021 7:05:00 PM -99999.99 -179968 -99999.99 -99999.99 -99999.99 -99999.99
9/20/2021 7:10:00 PM -99999.99 -179968 -99999.99 -99999.99 -99999.99 -99999.99
9/20/2021 7:15:00 PM -99999.99 -179968 -99999.99 -99999.99 -99999.99 -99999.99
9/20/2021 7:20:00 PM -99999.99 -179968 -99999.99 -99999.99 -99999.99 -99999.99
9/20/2021 7:25:00 PM -99999.99 -179968 -99999.99 -99999.99 -99999.99 -99999.99
9/20/2021 7:30:00 PM -99999.99 -179968 -99999.99 -99999.99 -99999.99 -99999.99
9/20/2021 7:35:00 PM -99999.99 -179968 -99999.99 -99999.99 -99999.99 -99999.99
9/20/2021 7:40:00 PM -99999.99 -179968 -99999.99 -99999.99 -99999.99 -99999.99
9/20/2021 7:45:00 PM -99999.99 -179968 -99999.99 -99999.99 -99999.99 -99999.99
9/20/2021 7:50:00 PM -99999.99 -179968 -99999.99 -99999.99 -99999.99 -99999.99
9/20/2021 7:55:00 PM -99999.99 -179968 -99999.99 -99999.99 -99999.99 -99999.99
9/20/2021 8:00:00 PM -99999.99 -179968 -99999.99 -99999.99 -99999.99 -99999.99
9/20/2021 8:05:00 PM -99999.99 -179968 -99999.99 -99999.99 -99999.99 -99999.99
9/20/2021 8:10:00 PM -99999.99 -179968 -99999.99 -99999.99 -99999.99 -99999.99
9/20/2021 8:15:00 PM -99999.99 -179968 -99999.99 -99999.99 -99999.99 -99999.99
9/20/2021 8:20:00 PM -99999.99 -179968 -99999.99 -99999.99 -99999.99 -99999.99
9/20/2021 8:25:00 PM -99999.99 -179968 -99999.99 -99999.99 -99999.99 -99999.99
9/20/2021 8:30:00 PM -99999.99 -179968 -99999.99 -99999.99 -99999.99 -99999.99
9/20/2021 8:35:00 PM -99999.99 -179968 -99999.99 -99999.99 -99999.99 -99999.99
9/20/2021 8:40:00 PM -99999.99 -179968 -99999.99 -99999.99 -99999.99 -99999.99
9/20/2021 8:45:00 PM -99999.99 -179968 -99999.99 -99999.99 -99999.99 -99999.99
9/20/2021 8:50:00 PM -99999.99 -179968 -99999.99 -99999.99 -99999.99 -99999.99
9/20/2021 8:55:00 PM -99999.99 -179968 -99999.99 -99999.99 -99999.99 -99999.99
9/20/2021 9:00:00 PM -99999.99 -179968 -99999.99 -99999.99 -99999.99 -99999.99
9/20/2021 9:05:00 PM -99999.99 -179968 -99999.99 -99999.99 -99999.99 -99999.99
9/20/2021 9:10:00 PM -99999.99 -179968 -99999.99 -99999.99 -99999.99 -99999.99
9/20/2021 9:15:00 PM -99999.99 -179968 -99999.99 -99999.99 -99999.99 -99999.99
9/20/2021 9:20:00 PM -99999.99 -179968 -99999.99 -99999.99 -99999.99 -99999.99
9/20/2021 9:25:00 PM -99999.99 -179968 -99999.99 -99999.99 -99999.99 -99999.99
9/20/2021 9:30:00 PM -99999.99 -179968 -99999.99 -99999.99 -99999.99 -99999.99
9/20/2021 9:35:00 PM -99999.99 -179968 -99999.99 -99999.99 -99999.99 -99999.99
9/20/2021 9:40:00 PM -99999.99 -179968 -99999.99 -99999.99 -99999.99 -99999.99
9/20/2021 9:45:00 PM -99999.99 -179968 -99999.99 -99999.99 -99999.99 -99999.99
9/20/2021 9:50:00 PM -99999.99 -179968 -99999.99 -99999.99 -99999.99 -99999.99
9/20/2021 9:55:00 PM -99999.99 -179968 -99999.99 -99999.99 -99999.99 -99999.99
9/20/2021 10:00:00 PM -99999.99 -179968 -99999.99 -99999.99 -99999.99 -99999.99
9/20/2021 10:05:00 PM -99999.99 -179968 -99999.99 -99999.99 -99999.99 -99999.99
9/20/2021 10:10:00 PM -99999.99 -179968 -99999.99 -99999.99 -99999.99 -99999.99
9/20/2021 10:15:00 PM -99999.99 -179968 -99999.99 -99999.99 -99999.99 -99999.99
9/20/2021 10:20:00 PM -99999.99 -179968 -99999.99 -99999.99 -99999.99 -99999.99
9/20/2021 10:25:00 PM -99999.99 -179968 -99999.99 -99999.99 -99999.99 -99999.99
9/20/2021 10:30:00 PM -99999.99 -179968 -99999.99 -99999.99 -99999.99 -99999.99
9/20/2021 10:35:00 PM -99999.99 -179968 -99999.99 -99999.99 -99999.99 -99999.99
9/20/2021 10:40:00 PM -99999.99 -179968 -99999.99 -99999.99 -99999.99 -99999.99
9/20/2021 10:45:00 PM -99999.99 -179968 -99999.99 -99999.99 -99999.99 -99999.99
9/20/2021 10:50:00 PM -99999.99 -179968 -99999.99 -99999.99 -99999.99 -99999.99
9/20/2021 10:55:00 PM -99999.99 -179968 -99999.99 -99999.99 -99999.99 -99999.99
9/20/2021 11:00:00 PM -99999.99 -179968 -99999.99 -99999.99 -99999.99 -99999.99
9/20/2021 11:05:00 PM -99999.99 -179968 -99999.99 -99999.99 -99999.99 -99999.99
9/20/2021 11:10:00 PM -99999.99 -179968 -99999.99 -99999.99 -99999.99 -99999.99
9/20/2021 11:15:00 PM -99999.99 -179968 -99999.99 -99999.99 -99999.99 -99999.99
9/20/2021 11:20:00 PM -99999.99 -179968 -99999.99 -99999.99 -99999.99 -99999.99
9/20/2021 11:25:00 PM -99999.99 -179968 -99999.99 -99999.99 -99999.99 -99999.99
9/20/2021 11:30:00 PM -99999.99 -179968 -99999.99 -99999.99 -99999.99 -99999.99
9/20/2021 11:35:00 PM -99999.99 -179968 -99999.99 -99999.99 -99999.99 -99999.99
9/20/2021 11:40:00 PM -99999.99 -179968 -99999.99 -99999.99 -99999.99 -99999.99
9/20/2021 11:45:00 PM -99999.99 -179968 -99999.99 -99999.99 -99999.99 -99999.99
9/20/2021 11:50:00 PM -99999.99 -179968 -99999.99 -99999.99 -99999.99 -99999.99
9/20/2021 11:55:00 PM -99999.99 -179968 -99999.99 -99999.99 -99999.99 -99999.99
9/21/2021 12:00:00 AM -99999.99 -179968 -99999.99 -99999.99 -99999.99 -99999.99
9/21/2021 12:05:00 AM -99999.99 -179968 -99999.99 -99999.99 -99999.99 -99999.99
9/21/2021 12:10:00 AM -99999.99 -179968 -99999.99 -99999.99 -99999.99 -99999.99
9/21/2021 12:15:00 AM -99999.99 -179968 -99999.99 -99999.99 -99999.99 -99999.99
9/21/2021 12:20:00 AM -99999.99 -179968 -99999.99 -99999.99 -99999.99 -99999.99
9/21/2021 12:25:00 AM -99999.99 -179968 -99999.99 -99999.99 -99999.99 -99999.99
9/21/2021 12:30:00 AM -99999.99 -179968 -99999.99 -99999.99 -99999.99 -99999.99
9/21/2021 12:35:00 AM -99999.99 -179968 -99999.99 -99999.99 -99999.99 -99999.99
9/21/2021 12:40:00 AM -99999.99 -179968 -99999.99 -99999.99 -99999.99 -99999.99
9/21/2021 12:45:00 AM -99999.99 -179968 -99999.99 -99999.99 -99999.99 -99999.99
9/21/2021 12:50:00 AM -99999.99 -179968 -99999.99 -99999.99 -99999.99 -99999.99
9/21/2021 12:55:00 AM -99999.99 -179968 -99999.99 -99999.99 -99999.99 -99999.99
9/21/2021 1:00:00 AM -99999.99 -179968 -99999.99 -99999.99 -99999.99 -99999.99
9/21/2021 1:05:00 AM -99999.99 -179968 -99999.99 -99999.99 -99999.99 -99999.99
9/21/2021 1:10:00 AM -99999.99 -179968 -99999.99 -99999.99 -99999.99 -99999.99
9/21/2021 1:15:00 AM -99999.99 -179968 -99999.99 -99999.99 -99999.99 -99999.99
9/21/2021 1:20:00 AM -99999.99 -179968 -99999.99 -99999.99 -99999.99 -99999.99
9/21/2021 1:25:00 AM -99999.99 -179968 -99999.99 -99999.99 -99999.99 -99999.99
9/21/2021 1:30:00 AM -99999.99 -179968 -99999.99 -99999.99 -99999.99 -99999.99
9/21/2021 1:35:00 AM -99999.99 -179968 -99999.99 -99999.99 -99999.99 -99999.99
9/21/2021 1:40:00 AM -99999.99 -179968 -99999.99 -99999.99 -99999.99 -99999.99
9/21/2021 1:45:00 AM -99999.99 -179968 -99999.99 -99999.99 -99999.99 -99999.99
9/21/2021 1:50:00 AM -99999.99 -179968 -99999.99 -99999.99 -99999.99 -99999.99
9/21/2021 1:55:00 AM -99999.99 -179968 -99999.99 -99999.99 -99999.99 -99999.99
9/21/2021 2:00:00 AM -99999.99 -179968 -99999.99 -99999.99 -99999.99 -99999.99
9/21/2021 2:05:00 AM -99999.99 -179968 -99999.99 -99999.99 -99999.99 -99999.99
9/21/2021 2:10:00 AM -99999.99 -179968 -99999.99 -99999.99 -99999.99 -99999.99
9/21/2021 2:15:00 AM -99999.99 -179968 -99999.99 -99999.99 -99999.99 -99999.99
9/21/2021 2:20:00 AM -99999.99 -179968 -99999.99 -99999.99 -99999.99 -99999.99
9/21/2021 2:25:00 AM -99999.99 -179968 -99999.99 -99999.99 -99999.99 -99999.99
9/21/2021 2:30:00 AM -99999.99 -179968 -99999.99 -99999.99 -99999.99 -99999.99
9/21/2021 2:35:00 AM -99999.99 -179968 -99999.99 -99999.99 -99999.99 -99999.99
9/21/2021 2:40:00 AM -99999.99 -179968 -99999.99 -99999.99 -99999.99 -99999.99
9/21/2021 2:45:00 AM -99999.99 -179968 -99999.99 -99999.99 -99999.99 -99999.99
9/21/2021 2:50:00 AM -99999.99 -179968 -99999.99 -99999.99 -99999.99 -99999.99
9/21/2021 2:55:00 AM -99999.99 -179968 -99999.99 -99999.99 -99999.99 -99999.99
9/21/2021 3:00:00 AM -99999.99 -179968 -99999.99 -99999.99 -99999.99 -99999.99
9/21/2021 3:05:00 AM -99999.99 -179968 -99999.99 -99999.99 -99999.99 -99999.99
9/21/2021 3:10:00 AM -99999.99 -179968 -99999.99 -99999.99 -99999.99 -99999.99
9/21/2021 3:15:00 AM -99999.99 -179968 -99999.99 -99999.99 -99999.99 -99999.99
9/21/2021 3:20:00 AM -99999.99 -179968 -99999.99 -99999.99 -99999.99 -99999.99
9/21/2021 3:25:00 AM -99999.99 -179968 -99999.99 -99999.99 -99999.99 -99999.99
9/21/2021 3:30:00 AM -99999.99 -179968 -99999.99 -99999.99 -99999.99 -99999.99
9/21/2021 3:35:00 AM -99999.99 -179968 -99999.99 -99999.99 -99999.99 -99999.99
9/21/2021 3:40:00 AM -99999.99 -179968 -99999.99 -99999.99 -99999.99 -99999.99
9/21/2021 3:45:00 AM -99999.99 -179968 -99999.99 -99999.99 -99999.99 -99999.99
9/21/2021 3:50:00 AM -99999.99 -179968 -99999.99 -99999.99 -99999.99 -99999.99
9/21/2021 3:55:00 AM -99999.99 -179968 -99999.99 -99999.99 -99999.99 -99999.99
9/21/2021 4:00:00 AM -99999.99 -179968 -99999.99 -99999.99 -99999.99 -99999.99
9/21/2021 4:05:00 AM -99999.99 -179968 -99999.99 -99999.99 -99999.99 -99999.99
9/21/2021 4:10:00 AM -99999.99 -179968 -99999.99 -99999.99 -99999.99 -99999.99
9/21/2021 4:15:00 AM -99999.99 -179968 -99999.99 -99999.99 -99999.99 -99999.99
9/21/2021 4:20:00 AM -99999.99 -179968 -99999.99 -99999.99 -99999.99 -99999.99
9/21/2021 4:25:00 AM -99999.99 -179968 -99999.99 -99999.99 -99999.99 -99999.99
9/21/2021 4:30:00 AM -99999.99 -179968 -99999.99 -99999.99 -99999.99 -99999.99
9/21/2021 4:35:00 AM -99999.99 -179968 -99999.99 -99999.99 -99999.99 -99999.99
9/21/2021 4:40:00 AM -99999.99 -179968 -99999.99 -99999.99 -99999.99 -99999.99
9/21/2021 4:45:00 AM -99999.99 -179968 -99999.99 -99999.99 -99999.99 -99999.99
9/21/2021 4:50:00 AM -99999.99 -179968 -99999.99 -99999.99 -99999.99 -99999.99
9/21/2021 4:55:00 AM -99999.99 -179968 -99999.99 -99999.99 -99999.99 -99999.99
9/21/2021 5:00:00 AM -99999.99 -179968 -99999.99 -99999.99 -99999.99 -99999.99
9/21/2021 5:05:00 AM -99999.99 -179968 -99999.99 -99999.99 -99999.99 -99999.99
9/21/2021 5:10:00 AM -99999.99 -179968 -99999.99 -99999.99 -99999.99 -99999.99
9/21/2021 5:15:00 AM -99999.99 -179968 -99999.99 -99999.99 -99999.99 -99999.99
9/21/2021 5:20:00 AM -99999.99 -179968 -99999.99 -99999.99 -99999.99 -99999.99
9/21/2021 5:25:00 AM -99999.99 -179968 -99999.99 -99999.99 -99999.99 -99999.99
9/21/2021 5:30:00 AM -99999.99 -179968 -99999.99 -99999.99 -99999.99 -99999.99
9/21/2021 5:35:00 AM -99999.99 -179968 -99999.99 -99999.99 -99999.99 -99999.99
9/21/2021 5:40:00 AM -99999.99 -179968 -99999.99 -99999.99 -99999.99 -99999.99
9/21/2021 5:45:00 AM -99999.99 -179968 -99999.99 -99999.99 -99999.99 -99999.99
9/21/2021 5:50:00 AM -99999.99 -179968 -99999.99 -99999.99 -99999.99 -99999.99
9/21/2021 5:55:00 AM -99999.99 -179968 -99999.99 -99999.99 -99999.99 -99999.99
9/21/2021 6:00:00 AM -99999.99 -179968 -99999.99 -99999.99 -99999.99 -99999.99
9/21/2021 6:05:00 AM -99999.99 -179968 -99999.99 -99999.99 -99999.99 -99999.99
9/21/2021 6:10:00 AM -99999.99 -179968 -99999.99 -99999.99 -99999.99 -99999.99
9/21/2021 6:15:00 AM -99999.99 -179968 -99999.99 -99999.99 -99999.99 -99999.99
9/21/2021 6:20:00 AM -99999.99 -179968 -99999.99 -99999.99 -99999.99 -99999.99
9/21/2021 6:25:00 AM -99999.99 -179968 -99999.99 -99999.99 -99999.99 -99999.99
9/21/2021 6:30:00 AM -99999.99 -179968 -99999.99 -99999.99 -99999.99 -99999.99
9/21/2021 6:35:00 AM -99999.99 -179968 -99999.99 -99999.99 -99999.99 -99999.99
9/21/2021 6:40:00 AM -99999.99 -179968 -99999.99 -99999.99 -99999.99 -99999.99
9/21/2021 6:45:00 AM -99999.99 -179968 -99999.99 -99999.99 -99999.99 -99999.99
9/21/2021 6:50:00 AM -99999.99 -179968 -99999.99 -99999.99 -99999.99 -99999.99
9/21/2021 6:55:00 AM -99999.99 -179968 -99999.99 -99999.99 -99999.99 -99999.99
9/21/2021 7:00:00 AM -99999.99 -179968 -99999.99 -99999.99 -99999.99 -99999.99
9/21/2021 7:05:00 AM -99999.99 -179968 -99999.99 -99999.99 -99999.99 -99999.99
9/21/2021 7:10:00 AM -99999.99 -179968 -99999.99 -99999.99 -99999.99 -99999.99
9/21/2021 7:15:00 AM -99999.99 -179968 -99999.99 -99999.99 -99999.99 -99999.99
9/21/2021 7:20:00 AM -99999.99 -179968 -99999.99 -99999.99 -99999.99 -99999.99
9/21/2021 7:25:00 AM -99999.99 -179968 -99999.99 -99999.99 -99999.99 -99999.99
9/21/2021 7:30:00 AM -99999.99 -179968 -99999.99 -99999.99 -99999.99 -99999.99
9/21/2021 7:35:00 AM -99999.99 -179968 -99999.99 -99999.99 -99999.99 -99999.99
9/21/2021 7:40:00 AM -99999.99 -179968 -99999.99 -99999.99 -99999.99 -99999.99
9/21/2021 7:45:00 AM -99999.99 -179968 -99999.99 -99999.99 -99999.99 -99999.99
9/21/2021 7:50:00 AM -99999.99 -179968 -99999.99 -99999.99 -99999.99 -99999.99
9/21/2021 7:55:00 AM -99999.99 -179968 -99999.99 -99999.99 -99999.99 -99999.99
9/21/2021 8:00:00 AM -99999.99 -179968 -99999.99 -99999.99 -99999.99 -99999.99
9/21/2021 8:05:00 AM -99999.99 -179968 -99999.99 -99999.99 -99999.99 -99999.99
9/21/2021 8:10:00 AM -99999.99 -179968 -99999.99 -99999.99 -99999.99 -99999.99
9/21/2021 8:15:00 AM -99999.99 -179968 -99999.99 -99999.99 -99999.99 -99999.99
9/21/2021 8:20:00 AM -99999.99 -179968 -99999.99 -99999.99 -99999.99 -99999.99
9/21/2021 8:25:00 AM -99999.99 -179968 -99999.99 -99999.99 -99999.99 -99999.99
9/21/2021 8:30:00 AM -99999.99 -179968 -99999.99 -99999.99 -99999.99 -99999.99
9/21/2021 8:35:00 AM -99999.99 -179968 -99999.99 -99999.99 -99999.99 -99999.99
9/21/2021 8:40:00 AM -99999.99 -179968 -99999.99 -99999.99 -99999.99 -99999.99
9/21/2021 8:45:00 AM -99999.99 -179968 -99999.99 -99999.99 -99999.99 -99999.99
9/21/2021 8:50:00 AM -99999.99 -179968 -99999.99 -99999.99 -99999.99 -99999.99
9/21/2021 8:55:00 AM -99999.99 -179968 -99999.99 -99999.99 -99999.99 -99999.99
9/21/2021 9:00:00 AM -99999.99 -179968 -99999.99 -99999.99 -99999.99 -99999.99
9/21/2021 9:05:00 AM -99999.99 -179968 -99999.99 -99999.99 -99999.99 -99999.99
9/21/2021 9:10:00 AM -99999.99 -179968 -99999.99 -99999.99 -99999.99 -99999.99
9/21/2021 9:15:00 AM -99999.99 -179968 -99999.99 -99999.99 -99999.99 -99999.99
9/21/2021 9:20:00 AM -99999.99 -179968 -99999.99 -99999.99 -99999.99 -99999.99
9/21/2021 9:25:00 AM -99999.99 -179968 -99999.99 -99999.99 -99999.99 -99999.99
9/21/2021 9:30:00 AM -99999.99 -179968 -99999.99 -99999.99 -99999.99 -99999.99
9/21/2021 9:35:00 AM -99999.99 -179968 -99999.99 -99999.99 -99999.99 -99999.99
9/21/2021 9:40:00 AM -99999.99 -179968 -99999.99 -99999.99 -99999.99 -99999.99
9/21/2021 9:45:00 AM -99999.99 -179968 -99999.99 -99999.99 -99999.99 -99999.99
9/21/2021 9:50:00 AM -99999.99 -179968 -99999.99 -99999.99 -99999.99 -99999.99
9/21/2021 9:55:00 AM -99999.99 -179968 -99999.99 -99999.99 -99999.99 -99999.99
9/21/2021 10:00:00 AM -99999.99 -179968 -99999.99 -99999.99 -99999.99 -99999.99
9/21/2021 10:05:00 AM -99999.99 -179968 -99999.99 -99999.99 -99999.99 -99999.99
9/21/2021 10:10:00 AM -99999.99 -179968 -99999.99 -99999.99 -99999.99 -99999.99
9/21/2021 10:15:00 AM -99999.99 -179968 -99999.99 -99999.99 -99999.99 -99999.99
9/21/2021 10:20:00 AM -99999.99 -179968 -99999.99 -99999.99 -99999.99 -99999.99
9/21/2021 10:25:00 AM -99999.99 -179968 -99999.99 -99999.99 -99999.99 -99999.99
9/21/2021 10:30:00 AM -99999.99 -179968 -99999.99 -99999.99 -99999.99 -99999.99
9/21/2021 10:35:00 AM -99999.99 -179968 -99999.99 -99999.99 -99999.99 -99999.99
9/21/2021 10:40:00 AM -99999.99 -179968 -99999.99 -99999.99 -99999.99 -99999.99
9/21/2021 10:45:00 AM -99999.99 -179968 -99999.99 -99999.99 -99999.99 -99999.99
9/21/2021 10:50:00 AM -99999.99 -179968 -99999.99 -99999.99 -99999.99 -99999.99
9/21/2021 10:55:00 AM -99999.99 -179968 -99999.99 -99999.99 -99999.99 -99999.99
9/21/2021 11:00:00 AM -99999.99 -179968 -99999.99 -99999.99 -99999.99 -99999.99
9/21/2021 11:05:00 AM -99999.99 -179968 -99999.99 -99999.99 -99999.99 -99999.99
9/21/2021 11:10:00 AM -99999.99 -179968 -99999.99 -99999.99 -99999.99 -99999.99
9/21/2021 11:15:00 AM -99999.99 -179968 -99999.99 -99999.99 -99999.99 -99999.99
9/21/2021 11:20:00 AM -99999.99 -179968 -99999.99 -99999.99 -99999.99 -99999.99
9/21/2021 11:25:00 AM -99999.99 -179968 -99999.99 -99999.99 -99999.99 -99999.99
9/21/2021 11:30:00 AM -99999.99 -179968 -99999.99 -99999.99 -99999.99 -99999.99
9/21/2021 11:35:00 AM -99999.99 -179968 -99999.99 -99999.99 -99999.99 -99999.99
9/21/2021 11:40:00 AM -99999.99 -179968 -99999.99 -99999.99 -99999.99 -99999.99
9/21/2021 11:45:00 AM -99999.99 -179968 -99999.99 -99999.99 -99999.99 -99999.99
9/21/2021 11:50:00 AM -99999.99 -179968 -99999.99 -99999.99 -99999.99 -99999.99
9/21/2021 11:55:00 AM -99999.99 -179968 -99999.99 -99999.99 -99999.99 -99999.99
9/21/2021 12:00:00 PM -99999.99 -179968 -99999.99 -99999.99 -99999.99 -99999.99
9/21/2021 12:05:00 PM -99999.99 -179968 -99999.99 -99999.99 -99999.99 -99999.99
9/21/2021 12:10:00 PM -99999.99 -179968 -99999.99 -99999.99 -99999.99 -99999.99
9/21/2021 12:15:00 PM -99999.99 -179968 -99999.99 -99999.99 -99999.99 -99999.99
9/21/2021 12:20:00 PM -99999.99 -179968 -99999.99 -99999.99 -99999.99 -99999.99
9/21/2021 12:25:00 PM -99999.99 -179968 -99999.99 -99999.99 -99999.99 -99999.99
9/21/2021 12:30:00 PM -99999.99 -179968 -99999.99 -99999.99 -99999.99 -99999.99
9/21/2021 12:35:00 PM -99999.99 -179968 -99999.99 -99999.99 -99999.99 -99999.99
9/21/2021 12:40:00 PM -99999.99 -179968 -99999.99 -99999.99 -99999.99 -99999.99
9/21/2021 12:45:00 PM -99999.99 -179968 -99999.99 -99999.99 -99999.99 -99999.99
9/21/2021 12:50:00 PM -99999.99 -179968 -99999.99 -99999.99 -99999.99 -99999.99
9/21/2021 12:55:00 PM -99999.99 -179968 -99999.99 -99999.99 -99999.99 -99999.99
9/21/2021 1:00:00 PM -99999.99 -179968 -99999.99 -99999.99 -99999.99 -99999.99
9/21/2021 1:05:00 PM -99999.99 -179968 -99999.99 -99999.99 -99999.99 -99999.99
9/21/2021 1:10:00 PM -99999.99 -179968 -99999.99 -99999.99 -99999.99 -99999.99
9/21/2021 1:15:00 PM -99999.99 -179968 -99999.99 -99999.99 -99999.99 -99999.99
9/21/2021 1:20:00 PM -99999.99 -179968 -99999.99 -99999.99 -99999.99 -99999.99
9/21/2021 1:25:00 PM -99999.99 -179968 -99999.99 -99999.99 -99999.99 -99999.99
9/21/2021 1:30:00 PM -99999.99 -179968 -99999.99 -99999.99 -99999.99 -99999.99
9/21/2021 1:35:00 PM -99999.99 -179968 -99999.99 -99999.99 -99999.99 -99999.99
9/21/2021 1:40:00 PM -99999.99 -179968 -99999.99 -99999.99 -99999.99 -99999.99
9/21/2021 1:45:00 PM -99999.99 -179968 -99999.99 -99999.99 -99999.99 -99999.99
9/21/2021 1:50:00 PM -99999.99 -179968 -99999.99 -99999.99 -99999.99 -99999.99
9/21/2021 1:55:00 PM -99999.99 -179968 -99999.99 -99999.99 -99999.99 -99999.99
9/21/2021 2:00:00 PM -99999.99 -179968 -99999.99 -99999.99 -99999.99 -99999.99
9/21/2021 2:05:00 PM -99999.99 -179968 -99999.99 -99999.99 -99999.99 -99999.99
9/21/2021 2:10:00 PM -99999.99 -179968 -99999.99 -99999.99 -99999.99 -99999.99
9/21/2021 2:15:00 PM -99999.99 -179968 -99999.99 -99999.99 -99999.99 -99999.99
9/21/2021 2:20:00 PM -99999.99 -179968 -99999.99 -99999.99 -99999.99 -99999.99
9/21/2021 2:25:00 PM -99999.99 -179968 -99999.99 -99999.99 -99999.99 -99999.99
9/21/2021 2:30:00 PM -99999.99 -179968 -99999.99 -99999.99 -99999.99 -99999.99
9/21/2021 2:35:00 PM -99999.99 -179968 -99999.99 -99999.99 -99999.99 -99999.99
9/21/2021 2:40:00 PM -99999.99 -179968 -99999.99 -99999.99 -99999.99 -99999.99
9/21/2021 2:45:00 PM -99999.99 -179968 -99999.99 -99999.99 -99999.99 -99999.99
9/21/2021 2:50:00 PM -99999.99 -179968 -99999.99 -99999.99 -99999.99 -99999.99
9/21/2021 2:55:00 PM -99999.99 -179968 -99999.99 -99999.99 -99999.99 -99999.99
9/21/2021 3:00:00 PM -99999.99 -179968 -99999.99 -99999.99 -99999.99 -99999.99
9/21/2021 3:05:00 PM -99999.99 -179968 -99999.99 -99999.99 -99999.99 -99999.99
9/21/2021 3:10:00 PM -99999.99 -179968 -99999.99 -99999.99 -99999.99 -99999.99
9/21/2021 3:15:00 PM -99999.99 -179968 -99999.99 -99999.99 -99999.99 -99999.99
9/21/2021 3:20:00 PM -99999.99 -179968 -99999.99 -99999.99 -99999.99 -99999.99
9/21/2021 3:25:00 PM -99999.99 -179968 -99999.99 -99999.99 -99999.99 -99999.99
9/21/2021 3:30:00 PM -99999.99 -179968 -99999.99 -99999.99 -99999.99 -99999.99
9/21/2021 3:35:00 PM -99999.99 -179968 -99999.99 -99999.99 -99999.99 -99999.99
9/21/2021 3:40:00 PM -99999.99 -179968 -99999.99 -99999.99 -99999.99 -99999.99
9/21/2021 3:45:00 PM -99999.99 -179968 -99999.99 -99999.99 -99999.99 -99999.99
9/21/2021 3:50:00 PM -99999.99 -179968 -99999.99 -99999.99 -99999.99 -99999.99
9/21/2021 3:55:00 PM -99999.99 -179968 -99999.99 -99999.99 -99999.99 -99999.99
9/21/2021 4:00:00 PM -99999.99 -179968 -99999.99 -99999.99 -99999.99 -99999.99
9/21/2021 4:05:00 PM -99999.99 -179968 -99999.99 -99999.99 -99999.99 -99999.99
9/21/2021 4:10:00 PM -99999.99 -179968 -99999.99 -99999.99 -99999.99 -99999.99
9/21/2021 4:15:00 PM -99999.99 -179968 -99999.99 -99999.99 -99999.99 -99999.99
9/21/2021 4:20:00 PM -99999.99 -179968 -99999.99 -99999.99 -99999.99 -99999.99
9/21/2021 4:25:00 PM -99999.99 -179968 -99999.99 -99999.99 -99999.99 -99999.99
9/21/2021 4:30:00 PM -99999.99 -179968 -99999.99 -99999.99 -99999.99 -99999.99
9/21/2021 4:35:00 PM -99999.99 -179968 -99999.99 -99999.99 -99999.99 -99999.99
9/21/2021 4:40:00 PM -99999.99 -179968 -99999.99 -99999.99 -99999.99 -99999.99
9/21/2021 4:45:00 PM -99999.99 -179968 -99999.99 -99999.99 -99999.99 -99999.99
9/21/2021 4:50:00 PM -99999.99 -179968 -99999.99 -99999.99 -99999.99 -99999.99
9/21/2021 4:55:00 PM -99999.99 -179968 -99999.99 -99999.99 -99999.99 -99999.99
9/21/2021 5:00:00 PM -99999.99 -179968 -99999.99 -99999.99 -99999.99 -99999.99
9/21/2021 5:05:00 PM -99999.99 -179968 -99999.99 -99999.99 -99999.99 -99999.99
9/21/2021 5:10:00 PM -99999.99 -179968 -99999.99 -99999.99 -99999.99 -99999.99
9/21/2021 5:15:00 PM -99999.99 -179968 -99999.99 -99999.99 -99999.99 -99999.99
9/21/2021 5:20:00 PM -99999.99 -179968 -99999.99 -99999.99 -99999.99 -99999.99
9/21/2021 5:25:00 PM -99999.99 -179968 -99999.99 -99999.99 -99999.99 -99999.99
9/21/2021 5:30:00 PM -99999.99 -179968 -99999.99 -99999.99 -99999.99 -99999.99
9/21/2021 5:35:00 PM -99999.99 -179968 -99999.99 -99999.99 -99999.99 -99999.99
9/21/2021 5:40:00 PM -99999.99 -179968 -99999.99 -99999.99 -99999.99 -99999.99
9/21/2021 5:45:00 PM -99999.99 -179968 -99999.99 -99999.99 -99999.99 -99999.99
9/21/2021 5:50:00 PM -99999.99 -179968 -99999.99 -99999.99 -99999.99 -99999.99
9/21/2021 5:55:00 PM -99999.99 -179968 -99999.99 -99999.99 -99999.99 -99999.99
9/21/2021 6:00:00 PM -99999.99 -179968 -99999.99 -99999.99 -99999.99 -99999.99
9/21/2021 6:05:00 PM -99999.99 -179968 -99999.99 -99999.99 -99999.99 -99999.99
9/21/2021 6:10:00 PM -99999.99 -179968 -99999.99 -99999.99 -99999.99 -99999.99
9/21/2021 6:15:00 PM -99999.99 -179968 -99999.99 -99999.99 -99999.99 -99999.99
9/21/2021 6:20:00 PM -99999.99 -179968 -99999.99 -99999.99 -99999.99 -99999.99
9/21/2021 6:25:00 PM -99999.99 -179968 -99999.99 -99999.99 -99999.99 -99999.99
9/21/2021 6:30:00 PM -99999.99 -179968 -99999.99 -99999.99 -99999.99 -99999.99
9/21/2021 6:35:00 PM -99999.99 -179968 -99999.99 -99999.99 -99999.99 -99999.99
9/21/2021 6:40:00 PM -99999.99 -179968 -99999.99 -99999.99 -99999.99 -99999.99
9/21/2021 6:45:00 PM -99999.99 -179968 -99999.99 -99999.99 -99999.99 -99999.99
9/21/2021 6:50:00 PM -99999.99 -179968 -99999.99 -99999.99 -99999.99 -99999.99
9/21/2021 6:55:00 PM -99999.99 -179968 -99999.99 -99999.99 -99999.99 -99999.99
9/21/2021 7:00:00 PM -99999.99 -179968 -99999.99 -99999.99 -99999.99 -99999.99
9/21/2021 7:05:00 PM -99999.99 -179968 -99999.99 -99999.99 -99999.99 -99999.99
9/21/2021 7:10:00 PM -99999.99 -179968 -99999.99 -99999.99 -99999.99 -99999.99
9/21/2021 7:15:00 PM -99999.99 -179968 -99999.99 -99999.99 -99999.99 -99999.99
9/21/2021 7:20:00 PM -99999.99 -179968 -99999.99 -99999.99 -99999.99 -99999.99
9/21/2021 7:25:00 PM -99999.99 -179968 -99999.99 -99999.99 -99999.99 -99999.99
9/21/2021 7:30:00 PM -99999.99 -179968 -99999.99 -99999.99 -99999.99 -99999.99
9/21/2021 7:35:00 PM -99999.99 -179968 -99999.99 -99999.99 -99999.99 -99999.99
9/21/2021 7:40:00 PM -99999.99 -179968 -99999.99 -99999.99 -99999.99 -99999.99
9/21/2021 7:45:00 PM -99999.99 -179968 -99999.99 -99999.99 -99999.99 -99999.99
9/21/2021 7:50:00 PM -99999.99 -179968 -99999.99 -99999.99 -99999.99 -99999.99
9/21/2021 7:55:00 PM -99999.99 -179968 -99999.99 -99999.99 -99999.99 -99999.99
9/21/2021 8:00:00 PM -99999.99 -179968 -99999.99 -99999.99 -99999.99 -99999.99
9/21/2021 8:05:00 PM -99999.99 -179968 -99999.99 -99999.99 -99999.99 -99999.99
9/21/2021 8:10:00 PM -99999.99 -179968 -99999.99 -99999.99 -99999.99 -99999.99
9/21/2021 8:15:00 PM -99999.99 -179968 -99999.99 -99999.99 -99999.99 -99999.99
9/21/2021 8:20:00 PM -99999.99 -179968 -99999.99 -99999.99 -99999.99 -99999.99
9/21/2021 8:25:00 PM -99999.99 -179968 -99999.99 -99999.99 -99999.99 -99999.99
9/21/2021 8:30:00 PM -99999.99 -179968 -99999.99 -99999.99 -99999.99 -99999.99
9/21/2021 8:35:00 PM -99999.99 -179968 -99999.99 -99999.99 -99999.99 -99999.99
9/21/2021 8:40:00 PM -99999.99 -179968 -99999.99 -99999.99 -99999.99 -99999.99
9/21/2021 8:45:00 PM -99999.99 -179968 -99999.99 -99999.99 -99999.99 -99999.99
9/21/2021 8:50:00 PM -99999.99 -179968 -99999.99 -99999.99 -99999.99 -99999.99
9/21/2021 8:55:00 PM -99999.99 -179968 -99999.99 -99999.99 -99999.99 -99999.99
9/21/2021 9:00:00 PM -99999.99 -179968 -99999.99 -99999.99 -99999.99 -99999.99
9/21/2021 9:05:00 PM -99999.99 -179968 -99999.99 -99999.99 -99999.99 -99999.99
9/21/2021 9:10:00 PM -99999.99 -179968 -99999.99 -99999.99 -99999.99 -99999.99
9/21/2021 9:15:00 PM -99999.99 -179968 -99999.99 -99999.99 -99999.99 -99999.99
9/21/2021 9:20:00 PM -99999.99 -179968 -99999.99 -99999.99 -99999.99 -99999.99
9/21/2021 9:25:00 PM -99999.99 -179968 -99999.99 -99999.99 -99999.99 -99999.99
9/21/2021 9:30:00 PM -99999.99 -179968 -99999.99 -99999.99 -99999.99 -99999.99
9/21/2021 9:35:00 PM -99999.99 -179968 -99999.99 -99999.99 -99999.99 -99999.99
9/21/2021 9:40:00 PM -99999.99 -179968 -99999.99 -99999.99 -99999.99 -99999.99
9/21/2021 9:45:00 PM -99999.99 -179968 -99999.99 -99999.99 -99999.99 -99999.99
9/21/2021 9:50:00 PM -99999.99 -179968 -99999.99 -99999.99 -99999.99 -99999.99
9/21/2021 9:55:00 PM -99999.99 -179968 -99999.99 -99999.99 -99999.99 -99999.99
9/21/2021 10:00:00 PM -99999.99 -179968 -99999.99 -99999.99 -99999.99 -99999.99
9/21/2021 10:05:00 PM -99999.99 -179968 -99999.99 -99999.99 -99999.99 -99999.99
9/21/2021 10:10:00 PM -99999.99 -179968 -99999.99 -99999.99 -99999.99 -99999.99
9/21/2021 10:15:00 PM -99999.99 -179968 -99999.99 -99999.99 -99999.99 -99999.99
9/21/2021 10:20:00 PM -99999.99 -179968 -99999.99 -99999.99 -99999.99 -99999.99
9/21/2021 10:25:00 PM -99999.99 -179968 -99999.99 -99999.99 -99999.99 -99999.99
9/21/2021 10:30:00 PM -99999.99 -179968 -99999.99 -99999.99 -99999.99 -99999.99
9/21/2021 10:35:00 PM -99999.99 -179968 -99999.99 -99999.99 -99999.99 -99999.99
9/21/2021 10:40:00 PM -99999.99 -179968 -99999.99 -99999.99 -99999.99 -99999.99
9/21/2021 10:45:00 PM -99999.99 -179968 -99999.99 -99999.99 -99999.99 -99999.99
9/21/2021 10:50:00 PM -99999.99 -179968 -99999.99 -99999.99 -99999.99 -99999.99
9/21/2021 10:55:00 PM -99999.99 -179968 -99999.99 -99999.99 -99999.99 -99999.99
9/21/2021 11:00:00 PM -99999.99 -179968 -99999.99 -99999.99 -99999.99 -99999.99
9/21/2021 11:05:00 PM -99999.99 -179968 -99999.99 -99999.99 -99999.99 -99999.99
9/21/2021 11:10:00 PM -99999.99 -179968 -99999.99 -99999.99 -99999.99 -99999.99
9/21/2021 11:15:00 PM -99999.99 -179968 -99999.99 -99999.99 -99999.99 -99999.99
9/21/2021 11:20:00 PM -99999.99 -179968 -99999.99 -99999.99 -99999.99 -99999.99
9/21/2021 11:25:00 PM -99999.99 -179968 -99999.99 -99999.99 -99999.99 -99999.99
9/21/2021 11:30:00 PM -99999.99 -179968 -99999.99 -99999.99 -99999.99 -99999.99
9/21/2021 11:35:00 PM -99999.99 -179968 -99999.99 -99999.99 -99999.99 -99999.99
9/21/2021 11:40:00 PM -99999.99 -179968 -99999.99 -99999.99 -99999.99 -99999.99
9/21/2021 11:45:00 PM -99999.99 -179968 -99999.99 -99999.99 -99999.99 -99999.99
9/21/2021 11:50:00 PM -99999.99 -179968 -99999.99 -99999.99 -99999.99 -99999.99
9/21/2021 11:55:00 PM -99999.99 -179968 -99999.99 -99999.99 -99999.99 -99999.99
9/22/2021 12:00:00 AM -99999.99 -179968 -99999.99 -99999.99 -99999.99 -99999.99
9/22/2021 12:05:00 AM -99999.99 -179968 -99999.99 -99999.99 -99999.99 -99999.99
9/22/2021 12:10:00 AM -99999.99 -179968 -99999.99 -99999.99 -99999.99 -99999.99
9/22/2021 12:15:00 AM -99999.99 -179968 -99999.99 -99999.99 -99999.99 -99999.99
9/22/2021 12:20:00 AM -99999.99 -179968 -99999.99 -99999.99 -99999.99 -99999.99
9/22/2021 12:25:00 AM -99999.99 -179968 -99999.99 -99999.99 -99999.99 -99999.99
9/22/2021 12:30:00 AM -99999.99 -179968 -99999.99 -99999.99 -99999.99 -99999.99
9/22/2021 12:35:00 AM -99999.99 -179968 -99999.99 -99999.99 -99999.99 -99999.99
9/22/2021 12:40:00 AM -99999.99 -179968 -99999.99 -99999.99 -99999.99 -99999.99
9/22/2021 12:45:00 AM -99999.99 -179968 -99999.99 -99999.99 -99999.99 -99999.99
9/22/2021 12:50:00 AM -99999.99 -179968 -99999.99 -99999.99 -99999.99 -99999.99
9/22/2021 12:55:00 AM -99999.99 -179968 -99999.99 -99999.99 -99999.99 -99999.99
9/22/2021 1:00:00 AM -99999.99 -179968 -99999.99 -99999.99 -99999.99 -99999.99
9/22/2021 1:05:00 AM -99999.99 -179968 -99999.99 -99999.99 -99999.99 -99999.99
9/22/2021 1:10:00 AM -99999.99 -179968 -99999.99 -99999.99 -99999.99 -99999.99
9/22/2021 1:15:00 AM -99999.99 -179968 -99999.99 -99999.99 -99999.99 -99999.99
9/22/2021 1:20:00 AM -99999.99 -179968 -99999.99 -99999.99 -99999.99 -99999.99
9/22/2021 1:25:00 AM -99999.99 -179968 -99999.99 -99999.99 -99999.99 -99999.99
9/22/2021 1:30:00 AM -99999.99 -179968 -99999.99 -99999.99 -99999.99 -99999.99
9/22/2021 1:35:00 AM -99999.99 -179968 -99999.99 -99999.99 -99999.99 -99999.99
9/22/2021 1:40:00 AM -99999.99 -179968 -99999.99 -99999.99 -99999.99 -99999.99
9/22/2021 1:45:00 AM -99999.99 -179968 -99999.99 -99999.99 -99999.99 -99999.99
9/22/2021 1:50:00 AM -99999.99 -179968 -99999.99 -99999.99 -99999.99 -99999.99
9/22/2021 1:55:00 AM -99999.99 -179968 -99999.99 -99999.99 -99999.99 -99999.99
9/22/2021 2:00:00 AM -99999.99 -179968 -99999.99 -99999.99 -99999.99 -99999.99
9/22/2021 2:05:00 AM -99999.99 -179968 -99999.99 -99999.99 -99999.99 -99999.99
9/22/2021 2:10:00 AM -99999.99 -179968 -99999.99 -99999.99 -99999.99 -99999.99
9/22/2021 2:15:00 AM -99999.99 -179968 -99999.99 -99999.99 -99999.99 -99999.99
9/22/2021 2:20:00 AM -99999.99 -179968 -99999.99 -99999.99 -99999.99 -99999.99
9/22/2021 2:25:00 AM -99999.99 -179968 -99999.99 -99999.99 -99999.99 -99999.99
9/22/2021 2:30:00 AM -99999.99 -179968 -99999.99 -99999.99 -99999.99 -99999.99
9/22/2021 2:35:00 AM -99999.99 -179968 -99999.99 -99999.99 -99999.99 -99999.99
9/22/2021 2:40:00 AM -99999.99 -179968 -99999.99 -99999.99 -99999.99 -99999.99
9/22/2021 2:45:00 AM -99999.99 -179968 -99999.99 -99999.99 -99999.99 -99999.99
9/22/2021 2:50:00 AM -99999.99 -179968 -99999.99 -99999.99 -99999.99 -99999.99
9/22/2021 2:55:00 AM -99999.99 -179968 -99999.99 -99999.99 -99999.99 -99999.99
9/22/2021 3:00:00 AM -99999.99 -179968 -99999.99 -99999.99 -99999.99 -99999.99
9/22/2021 3:05:00 AM -99999.99 -179968 -99999.99 -99999.99 -99999.99 -99999.99
9/22/2021 3:10:00 AM -99999.99 -179968 -99999.99 -99999.99 -99999.99 -99999.99
9/22/2021 3:15:00 AM -99999.99 -179968 -99999.99 -99999.99 -99999.99 -99999.99
9/22/2021 3:20:00 AM -99999.99 -179968 -99999.99 -99999.99 -99999.99 -99999.99
9/22/2021 3:25:00 AM -99999.99 -179968 -99999.99 -99999.99 -99999.99 -99999.99
9/22/2021 3:30:00 AM -99999.99 -179968 -99999.99 -99999.99 -99999.99 -99999.99
9/22/2021 3:35:00 AM -99999.99 -179968 -99999.99 -99999.99 -99999.99 -99999.99
9/22/2021 3:40:00 AM -99999.99 -179968 -99999.99 -99999.99 -99999.99 -99999.99
9/22/2021 3:45:00 AM -99999.99 -179968 -99999.99 -99999.99 -99999.99 -99999.99
9/22/2021 3:50:00 AM -99999.99 -179968 -99999.99 -99999.99 -99999.99 -99999.99
9/22/2021 3:55:00 AM -99999.99 -179968 -99999.99 -99999.99 -99999.99 -99999.99
9/22/2021 4:00:00 AM -99999.99 -179968 -99999.99 -99999.99 -99999.99 -99999.99
9/22/2021 4:05:00 AM -99999.99 -179968 -99999.99 -99999.99 -99999.99 -99999.99
9/22/2021 4:10:00 AM -99999.99 -179968 -99999.99 -99999.99 -99999.99 -99999.99
9/22/2021 4:15:00 AM -99999.99 -179968 -99999.99 -99999.99 -99999.99 -99999.99
9/22/2021 4:20:00 AM -99999.99 -179968 -99999.99 -99999.99 -99999.99 -99999.99
9/22/2021 4:25:00 AM -99999.99 -179968 -99999.99 -99999.99 -99999.99 -99999.99
9/22/2021 4:30:00 AM -99999.99 -179968 -99999.99 -99999.99 -99999.99 -99999.99
9/22/2021 4:35:00 AM -99999.99 -179968 -99999.99 -99999.99 -99999.99 -99999.99
9/22/2021 4:40:00 AM -99999.99 -179968 -99999.99 -99999.99 -99999.99 -99999.99
9/22/2021 4:45:00 AM -99999.99 -179968 -99999.99 -99999.99 -99999.99 -99999.99
9/22/2021 4:50:00 AM -99999.99 -179968 -99999.99 -99999.99 -99999.99 -99999.99
9/22/2021 4:55:00 AM -99999.99 -179968 -99999.99 -99999.99 -99999.99 -99999.99
9/22/2021 5:00:00 AM -99999.99 -179968 -99999.99 -99999.99 -99999.99 -99999.99
9/22/2021 5:05:00 AM -99999.99 -179968 -99999.99 -99999.99 -99999.99 -99999.99
9/22/2021 5:10:00 AM -99999.99 -179968 -99999.99 -99999.99 -99999.99 -99999.99
9/22/2021 5:15:00 AM -99999.99 -179968 -99999.99 -99999.99 -99999.99 -99999.99
9/22/2021 5:20:00 AM -99999.99 -179968 -99999.99 -99999.99 -99999.99 -99999.99
9/22/2021 5:25:00 AM -99999.99 -179968 -99999.99 -99999.99 -99999.99 -99999.99
9/22/2021 5:30:00 AM -99999.99 -179968 -99999.99 -99999.99 -99999.99 -99999.99
9/22/2021 5:35:00 AM -99999.99 -179968 -99999.99 -99999.99 -99999.99 -99999.99
9/22/2021 5:40:00 AM -99999.99 -179968 -99999.99 -99999.99 -99999.99 -99999.99
9/22/2021 5:45:00 AM -99999.99 -179968 -99999.99 -99999.99 -99999.99 -99999.99
9/22/2021 5:50:00 AM -99999.99 -179968 -99999.99 -99999.99 -99999.99 -99999.99
9/22/2021 5:55:00 AM -99999.99 -179968 -99999.99 -99999.99 -99999.99 -99999.99
9/22/2021 6:00:00 AM -99999.99 -179968 -99999.99 -99999.99 -99999.99 -99999.99
9/22/2021 6:05:00 AM -99999.99 -179968 -99999.99 -99999.99 -99999.99 -99999.99
9/22/2021 6:10:00 AM -99999.99 -179968 -99999.99 -99999.99 -99999.99 -99999.99
9/22/2021 6:15:00 AM -99999.99 -179968 -99999.99 -99999.99 -99999.99 -99999.99
9/22/2021 6:20:00 AM -99999.99 -179968 -99999.99 -99999.99 -99999.99 -99999.99
9/22/2021 6:25:00 AM -99999.99 -179968 -99999.99 -99999.99 -99999.99 -99999.99
9/22/2021 6:30:00 AM -99999.99 -179968 -99999.99 -99999.99 -99999.99 -99999.99
9/22/2021 6:35:00 AM -99999.99 -179968 -99999.99 -99999.99 -99999.99 -99999.99
9/22/2021 6:40:00 AM -99999.99 -179968 -99999.99 -99999.99 -99999.99 -99999.99
9/22/2021 6:45:00 AM -99999.99 -179968 -99999.99 -99999.99 -99999.99 -99999.99
9/22/2021 6:50:00 AM -99999.99 -179968 -99999.99 -99999.99 -99999.99 -99999.99
9/22/2021 6:55:00 AM -99999.99 -179968 -99999.99 -99999.99 -99999.99 -99999.99
9/22/2021 7:00:00 AM -99999.99 -179968 -99999.99 -99999.99 -99999.99 -99999.99
9/22/2021 7:05:00 AM -99999.99 -179968 -99999.99 -99999.99 -99999.99 -99999.99
9/22/2021 7:10:00 AM -99999.99 -179968 -99999.99 -99999.99 -99999.99 -99999.99
9/22/2021 7:15:00 AM -99999.99 -179968 -99999.99 -99999.99 -99999.99 -99999.99
9/22/2021 7:20:00 AM -99999.99 -179968 -99999.99 -99999.99 -99999.99 -99999.99
9/22/2021 7:25:00 AM -99999.99 -179968 -99999.99 -99999.99 -99999.99 -99999.99
9/22/2021 7:30:00 AM -99999.99 -179968 -99999.99 -99999.99 -99999.99 -99999.99
9/22/2021 7:35:00 AM -99999.99 -179968 -99999.99 -99999.99 -99999.99 -99999.99
9/22/2021 7:40:00 AM -99999.99 -179968 -99999.99 -99999.99 -99999.99 -99999.99
9/22/2021 7:45:00 AM -99999.99 -179968 -99999.99 -99999.99 -99999.99 -99999.99
9/22/2021 7:50:00 AM -99999.99 -179968 -99999.99 -99999.99 -99999.99 -99999.99
9/22/2021 7:55:00 AM -99999.99 -179968 -99999.99 -99999.99 -99999.99 -99999.99
9/22/2021 8:00:00 AM -99999.99 -179968 -99999.99 -99999.99 -99999.99 -99999.99
9/22/2021 8:05:00 AM -99999.99 -179968 -99999.99 -99999.99 -99999.99 -99999.99
9/22/2021 8:10:00 AM -99999.99 -179968 -99999.99 -99999.99 -99999.99 -99999.99
9/22/2021 8:15:00 AM -99999.99 -179968 -99999.99 -99999.99 -99999.99 -99999.99
9/22/2021 8:20:00 AM -99999.99 -179968 -99999.99 -99999.99 -99999.99 -99999.99
9/22/2021 8:25:00 AM -99999.99 -179968 -99999.99 -99999.99 -99999.99 -99999.99
9/22/2021 8:30:00 AM -99999.99 -179968 -99999.99 -99999.99 -99999.99 -99999.99
9/22/2021 8:35:00 AM -99999.99 -179968 -99999.99 -99999.99 -99999.99 -99999.99
9/22/2021 8:40:00 AM -99999.99 -179968 -99999.99 -99999.99 -99999.99 -99999.99
9/22/2021 8:45:00 AM -99999.99 -179968 -99999.99 -99999.99 -99999.99 -99999.99
9/22/2021 8:50:00 AM -99999.99 -179968 -99999.99 -99999.99 -99999.99 -99999.99
9/22/2021 8:55:00 AM -99999.99 -179968 -99999.99 -99999.99 -99999.99 -99999.99
9/22/2021 9:00:00 AM -99999.99 -179968 -99999.99 -99999.99 -99999.99 -99999.99
9/22/2021 9:05:00 AM -99999.99 -179968 -99999.99 -99999.99 -99999.99 -99999.99
9/22/2021 9:10:00 AM -99999.99 -179968 -99999.99 -99999.99 -99999.99 -99999.99
9/22/2021 9:15:00 AM -99999.99 -179968 -99999.99 -99999.99 -99999.99 -99999.99
9/22/2021 9:20:00 AM -99999.99 -179968 -99999.99 -99999.99 -99999.99 -99999.99
9/22/2021 9:25:00 AM -99999.99 -179968 -99999.99 -99999.99 -99999.99 -99999.99
9/22/2021 9:30:00 AM -99999.99 -179968 -99999.99 -99999.99 -99999.99 -99999.99
9/22/2021 9:35:00 AM -99999.99 -179968 -99999.99 -99999.99 -99999.99 -99999.99
9/22/2021 9:40:00 AM -99999.99 -179968 -99999.99 -99999.99 -99999.99 -99999.99
9/22/2021 9:45:00 AM -99999.99 -179968 -99999.99 -99999.99 -99999.99 -99999.99
9/22/2021 9:50:00 AM -99999.99 -179968 -99999.99 -99999.99 -99999.99 -99999.99
9/22/2021 9:55:00 AM -99999.99 -179968 -99999.99 -99999.99 -99999.99 -99999.99
9/22/2021 10:00:00 AM -99999.99 -179968 -99999.99 -99999.99 -99999.99 -99999.99
9/22/2021 10:05:00 AM -99999.99 -179968 -99999.99 -99999.99 -99999.99 -99999.99
9/22/2021 10:10:00 AM -99999.99 -179968 -99999.99 -99999.99 -99999.99 -99999.99
9/22/2021 10:15:00 AM -99999.99 -179968 -99999.99 -99999.99 -99999.99 -99999.99
9/22/2021 10:20:00 AM -99999.99 -179968 -99999.99 -99999.99 -99999.99 -99999.99
9/22/2021 10:25:00 AM -99999.99 -179968 -99999.99 -99999.99 -99999.99 -99999.99
9/22/2021 10:30:00 AM -99999.99 -179968 -99999.99 -99999.99 -99999.99 -99999.99
9/22/2021 10:35:00 AM -99999.99 -179968 -99999.99 -99999.99 -99999.99 -99999.99
9/22/2021 10:40:00 AM -99999.99 -179968 -99999.99 -99999.99 -99999.99 -99999.99
9/22/2021 10:45:00 AM -99999.99 -179968 -99999.99 -99999.99 -99999.99 -99999.99
9/22/2021 10:50:00 AM -99999.99 -179968 -99999.99 -99999.99 -99999.99 -99999.99
9/22/2021 10:55:00 AM -99999.99 -179968 -99999.99 -99999.99 -99999.99 -99999.99
9/22/2021 11:00:00 AM -99999.99 -179968 -99999.99 -99999.99 -99999.99 -99999.99
9/22/2021 11:05:00 AM -99999.99 -179968 -99999.99 -99999.99 -99999.99 -99999.99
9/22/2021 11:10:00 AM -99999.99 -179968 -99999.99 -99999.99 -99999.99 -99999.99
9/22/2021 11:15:00 AM -99999.99 -179968 -99999.99 -99999.99 -99999.99 -99999.99
9/22/2021 11:20:00 AM -99999.99 -179968 -99999.99 -99999.99 -99999.99 -99999.99
9/22/2021 11:25:00 AM -99999.99 -179968 -99999.99 -99999.99 -99999.99 -99999.99
9/22/2021 11:30:00 AM -99999.99 -179968 -99999.99 -99999.99 -99999.99 -99999.99
9/22/2021 11:35:00 AM -99999.99 -179968 -99999.99 -99999.99 -99999.99 -99999.99
9/22/2021 11:40:00 AM -99999.99 -179968 -99999.99 -99999.99 -99999.99 -99999.99
9/22/2021 11:45:00 AM -99999.99 -179968 -99999.99 -99999.99 -99999.99 -99999.99
9/22/2021 11:50:00 AM -99999.99 -179968 -99999.99 -99999.99 -99999.99 -99999.99
9/22/2021 11:55:00 AM -99999.99 -179968 -99999.99 -99999.99 -99999.99 -99999.99
9/22/2021 12:00:00 PM -99999.99 -179968 -99999.99 -99999.99 -99999.99 -99999.99
9/22/2021 12:05:00 PM -99999.99 -179968 -99999.99 -99999.99 -99999.99 -99999.99
9/22/2021 12:10:00 PM -99999.99 -179968 -99999.99 -99999.99 -99999.99 -99999.99
9/22/2021 12:15:00 PM -99999.99 -179968 -99999.99 -99999.99 -99999.99 -99999.99
9/22/2021 12:20:00 PM -99999.99 -179968 -99999.99 -99999.99 -99999.99 -99999.99
9/22/2021 12:25:00 PM -99999.99 -179968 -99999.99 -99999.99 -99999.99 -99999.99
9/22/2021 12:30:00 PM -99999.99 -179968 -99999.99 -99999.99 -99999.99 -99999.99
9/22/2021 12:35:00 PM -99999.99 -179968 -99999.99 -99999.99 -99999.99 -99999.99
9/22/2021 12:40:00 PM -99999.99 -179968 -99999.99 -99999.99 -99999.99 -99999.99
9/22/2021 12:45:00 PM -99999.99 -179968 -99999.99 -99999.99 -99999.99 -99999.99
9/22/2021 12:50:00 PM -99999.99 -179968 -99999.99 -99999.99 -99999.99 -99999.99
9/22/2021 12:55:00 PM -99999.99 -179968 -99999.99 -99999.99 -99999.99 -99999.99
9/22/2021 1:00:00 PM -99999.99 -179968 -99999.99 -99999.99 -99999.99 -99999.99
9/22/2021 1:05:00 PM -99999.99 -179968 -99999.99 -99999.99 -99999.99 -99999.99
9/22/2021 1:10:00 PM -99999.99 -179968 -99999.99 -99999.99 -99999.99 -99999.99
9/22/2021 1:15:00 PM -99999.99 -179968 -99999.99 -99999.99 -99999.99 -99999.99
9/22/2021 1:20:00 PM -99999.99 -179968 -99999.99 -99999.99 -99999.99 -99999.99
9/22/2021 1:25:00 PM -99999.99 -179968 -99999.99 -99999.99 -99999.99 -99999.99
9/22/2021 1:30:00 PM -99999.99 -179968 -99999.99 -99999.99 -99999.99 -99999.99
9/22/2021 1:35:00 PM -99999.99 -179968 -99999.99 -99999.99 -99999.99 -99999.99
9/22/2021 1:40:00 PM -99999.99 -179968 -99999.99 -99999.99 -99999.99 -99999.99
9/22/2021 1:45:00 PM -99999.99 -179968 -99999.99 -99999.99 -99999.99 -99999.99
9/22/2021 1:50:00 PM -99999.99 -179968 -99999.99 -99999.99 -99999.99 -99999.99
9/22/2021 1:55:00 PM -99999.99 -179968 -99999.99 -99999.99 -99999.99 -99999.99
9/22/2021 2:00:00 PM -99999.99 -179968 -99999.99 -99999.99 -99999.99 -99999.99
9/22/2021 2:05:00 PM -99999.99 -179968 -99999.99 -99999.99 -99999.99 -99999.99
9/22/2021 2:10:00 PM -99999.99 -179968 -99999.99 -99999.99 -99999.99 -99999.99
9/22/2021 2:15:00 PM -99999.99 -179968 -99999.99 -99999.99 -99999.99 -99999.99
9/22/2021 2:20:00 PM -99999.99 -179968 -99999.99 -99999.99 -99999.99 -99999.99
9/22/2021 2:25:00 PM -99999.99 -179968 -99999.99 -99999.99 -99999.99 -99999.99
9/22/2021 2:30:00 PM -99999.99 -179968 -99999.99 -99999.99 -99999.99 -99999.99
9/22/2021 2:35:00 PM -99999.99 -179968 -99999.99 -99999.99 -99999.99 -99999.99
9/22/2021 2:40:00 PM -99999.99 -179968 -99999.99 -99999.99 -99999.99 -99999.99
9/22/2021 2:45:00 PM -99999.99 -179968 -99999.99 -99999.99 -99999.99 -99999.99
9/22/2021 2:50:00 PM -99999.99 -179968 -99999.99 -99999.99 -99999.99 -99999.99
9/22/2021 2:55:00 PM -99999.99 -179968 -99999.99 -99999.99 -99999.99 -99999.99
9/22/2021 3:00:00 PM -99999.99 -179968 -99999.99 -99999.99 -99999.99 -99999.99
9/22/2021 3:05:00 PM -99999.99 -179968 -99999.99 -99999.99 -99999.99 -99999.99
9/22/2021 3:10:00 PM -99999.99 -179968 -99999.99 -99999.99 -99999.99 -99999.99
9/22/2021 3:15:00 PM -99999.99 -179968 -99999.99 -99999.99 -99999.99 -99999.99
9/22/2021 3:20:00 PM -99999.99 -179968 -99999.99 -99999.99 -99999.99 -99999.99
9/22/2021 3:25:00 PM -99999.99 -179968 -99999.99 -99999.99 -99999.99 -99999.99
9/22/2021 3:30:00 PM -99999.99 -179968 -99999.99 -99999.99 -99999.99 -99999.99
9/22/2021 3:35:00 PM -99999.99 -179968 -99999.99 -99999.99 -99999.99 -99999.99
9/22/2021 3:40:00 PM -99999.99 -179968 -99999.99 -99999.99 -99999.99 -99999.99
9/22/2021 3:45:00 PM -99999.99 -179968 -99999.99 -99999.99 -99999.99 -99999.99
9/22/2021 3:50:00 PM -99999.99 -179968 -99999.99 -99999.99 -99999.99 -99999.99
9/22/2021 3:55:00 PM -99999.99 -179968 -99999.99 -99999.99 -99999.99 -99999.99
9/22/2021 4:00:00 PM -99999.99 -179968 -99999.99 -99999.99 -99999.99 -99999.99
9/22/2021 4:05:00 PM -99999.99 -179968 -99999.99 -99999.99 -99999.99 -99999.99
9/22/2021 4:10:00 PM -99999.99 -179968 -99999.99 -99999.99 -99999.99 -99999.99
9/22/2021 4:15:00 PM -99999.99 -179968 -99999.99 -99999.99 -99999.99 -99999.99
9/22/2021 4:20:00 PM -99999.99 -179968 -99999.99 -99999.99 -99999.99 -99999.99
9/22/2021 4:25:00 PM -99999.99 -179968 -99999.99 -99999.99 -99999.99 -99999.99
9/22/2021 4:30:00 PM -99999.99 -179968 -99999.99 -99999.99 -99999.99 -99999.99
9/22/2021 4:35:00 PM -99999.99 -179968 -99999.99 -99999.99 -99999.99 -99999.99
9/22/2021 4:40:00 PM -99999.99 -179968 -99999.99 -99999.99 -99999.99 -99999.99
9/22/2021 4:45:00 PM -99999.99 -179968 -99999.99 -99999.99 -99999.99 -99999.99
9/22/2021 4:50:00 PM -99999.99 -179968 -99999.99 -99999.99 -99999.99 -99999.99
9/22/2021 4:55:00 PM -99999.99 -179968 -99999.99 -99999.99 -99999.99 -99999.99
9/22/2021 5:00:00 PM -99999.99 -179968 -99999.99 -99999.99 -99999.99 -99999.99
9/22/2021 5:05:00 PM -99999.99 -179968 -99999.99 -99999.99 -99999.99 -99999.99
9/22/2021 5:10:00 PM -99999.99 -179968 -99999.99 -99999.99 -99999.99 -99999.99
9/22/2021 5:15:00 PM -99999.99 -179968 -99999.99 -99999.99 -99999.99 -99999.99
9/22/2021 5:20:00 PM -99999.99 -179968 -99999.99 -99999.99 -99999.99 -99999.99
9/22/2021 5:25:00 PM -99999.99 -179968 -99999.99 -99999.99 -99999.99 -99999.99
9/22/2021 5:30:00 PM -99999.99 -179968 -99999.99 -99999.99 -99999.99 -99999.99
9/22/2021 5:35:00 PM -99999.99 -179968 -99999.99 -99999.99 -99999.99 -99999.99
9/22/2021 5:40:00 PM -99999.99 -179968 -99999.99 -99999.99 -99999.99 -99999.99
9/22/2021 5:45:00 PM -99999.99 -179968 -99999.99 -99999.99 -99999.99 -99999.99
9/22/2021 5:50:00 PM -99999.99 -179968 -99999.99 -99999.99 -99999.99 -99999.99
9/22/2021 5:55:00 PM -99999.99 -179968 -99999.99 -99999.99 -99999.99 -99999.99
9/22/2021 6:00:00 PM -99999.99 -179968 -99999.99 -99999.99 -99999.99 -99999.99
9/22/2021 6:05:00 PM -99999.99 -179968 -99999.99 -99999.99 -99999.99 -99999.99
9/22/2021 6:10:00 PM -99999.99 -179968 -99999.99 -99999.99 -99999.99 -99999.99
9/22/2021 6:15:00 PM -99999.99 -179968 -99999.99 -99999.99 -99999.99 -99999.99
9/22/2021 6:20:00 PM -99999.99 -179968 -99999.99 -99999.99 -99999.99 -99999.99
9/22/2021 6:25:00 PM -99999.99 -179968 -99999.99 -99999.99 -99999.99 -99999.99
9/22/2021 6:30:00 PM -99999.99 -179968 -99999.99 -99999.99 -99999.99 -99999.99
9/22/2021 6:35:00 PM -99999.99 -179968 -99999.99 -99999.99 -99999.99 -99999.99
9/22/2021 6:40:00 PM -99999.99 -179968 -99999.99 -99999.99 -99999.99 -99999.99
9/22/2021 6:45:00 PM -99999.99 -179968 -99999.99 -99999.99 -99999.99 -99999.99
9/22/2021 6:50:00 PM -99999.99 -179968 -99999.99 -99999.99 -99999.99 -99999.99
9/22/2021 6:55:00 PM -99999.99 -179968 -99999.99 -99999.99 -99999.99 -99999.99
9/22/2021 7:00:00 PM -99999.99 -179968 -99999.99 -99999.99 -99999.99 -99999.99
9/22/2021 7:05:00 PM -99999.99 -179968 -99999.99 -99999.99 -99999.99 -99999.99
9/22/2021 7:10:00 PM -99999.99 -179968 -99999.99 -99999.99 -99999.99 -99999.99
9/22/2021 7:15:00 PM -99999.99 -179968 -99999.99 -99999.99 -99999.99 -99999.99
9/22/2021 7:20:00 PM -99999.99 -179968 -99999.99 -99999.99 -99999.99 -99999.99
9/22/2021 7:25:00 PM -99999.99 -179968 -99999.99 -99999.99 -99999.99 -99999.99
9/22/2021 7:30:00 PM -99999.99 -179968 -99999.99 -99999.99 -99999.99 -99999.99
9/22/2021 7:35:00 PM -99999.99 -179968 -99999.99 -99999.99 -99999.99 -99999.99
9/22/2021 7:40:00 PM -99999.99 -179968 -99999.99 -99999.99 -99999.99 -99999.99
9/22/2021 7:45:00 PM -99999.99 -179968 -99999.99 -99999.99 -99999.99 -99999.99
9/22/2021 7:50:00 PM -99999.99 -179968 -99999.99 -99999.99 -99999.99 -99999.99
9/22/2021 7:55:00 PM -99999.99 -179968 -99999.99 -99999.99 -99999.99 -99999.99
9/22/2021 8:00:00 PM -99999.99 -179968 -99999.99 -99999.99 -99999.99 -99999.99
9/22/2021 8:05:00 PM -99999.99 -179968 -99999.99 -99999.99 -99999.99 -99999.99
9/22/2021 8:10:00 PM -99999.99 -179968 -99999.99 -99999.99 -99999.99 -99999.99
9/22/2021 8:15:00 PM -99999.99 -179968 -99999.99 -99999.99 -99999.99 -99999.99
9/22/2021 8:20:00 PM -99999.99 -179968 -99999.99 -99999.99 -99999.99 -99999.99
9/22/2021 8:25:00 PM -99999.99 -179968 -99999.99 -99999.99 -99999.99 -99999.99
9/22/2021 8:30:00 PM -99999.99 -179968 -99999.99 -99999.99 -99999.99 -99999.99
9/22/2021 8:35:00 PM -99999.99 -179968 -99999.99 -99999.99 -99999.99 -99999.99
9/22/2021 8:40:00 PM -99999.99 -179968 -99999.99 -99999.99 -99999.99 -99999.99
9/22/2021 8:45:00 PM -99999.99 -179968 -99999.99 -99999.99 -99999.99 -99999.99
9/22/2021 8:50:00 PM -99999.99 -179968 -99999.99 -99999.99 -99999.99 -99999.99
9/22/2021 8:55:00 PM -99999.99 -179968 -99999.99 -99999.99 -99999.99 -99999.99
9/22/2021 9:00:00 PM -99999.99 -179968 -99999.99 -99999.99 -99999.99 -99999.99
9/22/2021 9:05:00 PM -99999.99 -179968 -99999.99 -99999.99 -99999.99 -99999.99
9/22/2021 9:10:00 PM -99999.99 -179968 -99999.99 -99999.99 -99999.99 -99999.99
9/22/2021 9:15:00 PM -99999.99 -179968 -99999.99 -99999.99 -99999.99 -99999.99
9/22/2021 9:20:00 PM -99999.99 -179968 -99999.99 -99999.99 -99999.99 -99999.99
9/22/2021 9:25:00 PM -99999.99 -179968 -99999.99 -99999.99 -99999.99 -99999.99
9/22/2021 9:30:00 PM -99999.99 -179968 -99999.99 -99999.99 -99999.99 -99999.99
9/22/2021 9:35:00 PM -99999.99 -179968 -99999.99 -99999.99 -99999.99 -99999.99
9/22/2021 9:40:00 PM -99999.99 -179968 -99999.99 -99999.99 -99999.99 -99999.99
9/22/2021 9:45:00 PM -99999.99 -179968 -99999.99 -99999.99 -99999.99 -99999.99
9/22/2021 9:50:00 PM -99999.99 -179968 -99999.99 -99999.99 -99999.99 -99999.99
9/22/2021 9:55:00 PM -99999.99 -179968 -99999.99 -99999.99 -99999.99 -99999.99
9/22/2021 10:00:00 PM -99999.99 -179968 -99999.99 -99999.99 -99999.99 -99999.99
9/22/2021 10:05:00 PM -99999.99 -179968 -99999.99 -99999.99 -99999.99 -99999.99
9/22/2021 10:10:00 PM -99999.99 -179968 -99999.99 -99999.99 -99999.99 -99999.99
9/22/2021 10:15:00 PM -99999.99 -179968 -99999.99 -99999.99 -99999.99 -99999.99
9/22/2021 10:20:00 PM -99999.99 -179968 -99999.99 -99999.99 -99999.99 -99999.99
9/22/2021 10:25:00 PM -99999.99 -179968 -99999.99 -99999.99 -99999.99 -99999.99
9/22/2021 10:30:00 PM -99999.99 -179968 -99999.99 -99999.99 -99999.99 -99999.99
9/22/2021 10:35:00 PM -99999.99 -179968 -99999.99 -99999.99 -99999.99 -99999.99
9/22/2021 10:40:00 PM -99999.99 -179968 -99999.99 -99999.99 -99999.99 -99999.99
9/22/2021 10:45:00 PM -99999.99 -179968 -99999.99 -99999.99 -99999.99 -99999.99
9/22/2021 10:50:00 PM -99999.99 -179968 -99999.99 -99999.99 -99999.99 -99999.99
9/22/2021 10:55:00 PM -99999.99 -179968 -99999.99 -99999.99 -99999.99 -99999.99
9/22/2021 11:00:00 PM -99999.99 -179968 -99999.99 -99999.99 -99999.99 -99999.99
9/22/2021 11:05:00 PM -99999.99 -179968 -99999.99 -99999.99 -99999.99 -99999.99
9/22/2021 11:10:00 PM -99999.99 -179968 -99999.99 -99999.99 -99999.99 -99999.99
9/22/2021 11:15:00 PM -99999.99 -179968 -99999.99 -99999.99 -99999.99 -99999.99
9/22/2021 11:20:00 PM -99999.99 -179968 -99999.99 -99999.99 -99999.99 -99999.99
9/22/2021 11:25:00 PM -99999.99 -179968 -99999.99 -99999.99 -99999.99 -99999.99
9/22/2021 11:30:00 PM -99999.99 -179968 -99999.99 -99999.99 -99999.99 -99999.99
9/22/2021 11:35:00 PM -99999.99 -179968 -99999.99 -99999.99 -99999.99 -99999.99
9/22/2021 11:40:00 PM -99999.99 -179968 -99999.99 -99999.99 -99999.99 -99999.99
9/22/2021 11:45:00 PM -99999.99 -179968 -99999.99 -99999.99 -99999.99 -99999.99
9/22/2021 11:50:00 PM -99999.99 -179968 -99999.99 -99999.99 -99999.99 -99999.99
9/22/2021 11:55:00 PM -99999.99 -179968 -99999.99 -99999.99 -99999.99 -99999.99
9/23/2021 12:00:00 AM -99999.99 -179968 -99999.99 -99999.99 -99999.99 -99999.99
9/23/2021 12:05:00 AM -99999.99 -179968 -99999.99 -99999.99 -99999.99 -99999.99
9/23/2021 12:10:00 AM -99999.99 -179968 -99999.99 -99999.99 -99999.99 -99999.99
9/23/2021 12:15:00 AM -99999.99 -179968 -99999.99 -99999.99 -99999.99 -99999.99
9/23/2021 12:20:00 AM -99999.99 -179968 -99999.99 -99999.99 -99999.99 -99999.99
9/23/2021 12:25:00 AM -99999.99 -179968 -99999.99 -99999.99 -99999.99 -99999.99
9/23/2021 12:30:00 AM -99999.99 -179968 -99999.99 -99999.99 -99999.99 -99999.99
9/23/2021 12:35:00 AM -99999.99 -179968 -99999.99 -99999.99 -99999.99 -99999.99
9/23/2021 12:40:00 AM -99999.99 -179968 -99999.99 -99999.99 -99999.99 -99999.99
9/23/2021 12:45:00 AM -99999.99 -179968 -99999.99 -99999.99 -99999.99 -99999.99
9/23/2021 12:50:00 AM -99999.99 -179968 -99999.99 -99999.99 -99999.99 -99999.99
9/23/2021 12:55:00 AM -99999.99 -179968 -99999.99 -99999.99 -99999.99 -99999.99
9/23/2021 1:00:00 AM -99999.99 -179968 -99999.99 -99999.99 -99999.99 -99999.99
9/23/2021 1:05:00 AM -99999.99 -179968 -99999.99 -99999.99 -99999.99 -99999.99
9/23/2021 1:10:00 AM -99999.99 -179968 -99999.99 -99999.99 -99999.99 -99999.99
9/23/2021 1:15:00 AM -99999.99 -179968 -99999.99 -99999.99 -99999.99 -99999.99
9/23/2021 1:20:00 AM -99999.99 -179968 -99999.99 -99999.99 -99999.99 -99999.99
9/23/2021 1:25:00 AM -99999.99 -179968 -99999.99 -99999.99 -99999.99 -99999.99
9/23/2021 1:30:00 AM -99999.99 -179968 -99999.99 -99999.99 -99999.99 -99999.99
9/23/2021 1:35:00 AM -99999.99 -179968 -99999.99 -99999.99 -99999.99 -99999.99
9/23/2021 1:40:00 AM -99999.99 -179968 -99999.99 -99999.99 -99999.99 -99999.99
9/23/2021 1:45:00 AM -99999.99 -179968 -99999.99 -99999.99 -99999.99 -99999.99
9/23/2021 1:50:00 AM -99999.99 -179968 -99999.99 -99999.99 -99999.99 -99999.99
9/23/2021 1:55:00 AM -99999.99 -179968 -99999.99 -99999.99 -99999.99 -99999.99
9/23/2021 2:00:00 AM -99999.99 -179968 -99999.99 -99999.99 -99999.99 -99999.99
9/23/2021 2:05:00 AM -99999.99 -179968 -99999.99 -99999.99 -99999.99 -99999.99
9/23/2021 2:10:00 AM -99999.99 -179968 -99999.99 -99999.99 -99999.99 -99999.99
9/23/2021 2:15:00 AM -99999.99 -179968 -99999.99 -99999.99 -99999.99 -99999.99
9/23/2021 2:20:00 AM -99999.99 -179968 -99999.99 -99999.99 -99999.99 -99999.99
9/23/2021 2:25:00 AM -99999.99 -179968 -99999.99 -99999.99 -99999.99 -99999.99
9/23/2021 2:30:00 AM -99999.99 -179968 -99999.99 -99999.99 -99999.99 -99999.99
9/23/2021 2:35:00 AM -99999.99 -179968 -99999.99 -99999.99 -99999.99 -99999.99
9/23/2021 2:40:00 AM -99999.99 -179968 -99999.99 -99999.99 -99999.99 -99999.99
9/23/2021 2:45:00 AM -99999.99 -179968 -99999.99 -99999.99 -99999.99 -99999.99
9/23/2021 2:50:00 AM -99999.99 -179968 -99999.99 -99999.99 -99999.99 -99999.99
9/23/2021 2:55:00 AM -99999.99 -179968 -99999.99 -99999.99 -99999.99 -99999.99
9/23/2021 3:00:00 AM -99999.99 -179968 -99999.99 -99999.99 -99999.99 -99999.99
9/23/2021 3:05:00 AM -99999.99 -179968 -99999.99 -99999.99 -99999.99 -99999.99
9/23/2021 3:10:00 AM -99999.99 -179968 -99999.99 -99999.99 -99999.99 -99999.99
9/23/2021 3:15:00 AM -99999.99 -179968 -99999.99 -99999.99 -99999.99 -99999.99
9/23/2021 3:20:00 AM -99999.99 -179968 -99999.99 -99999.99 -99999.99 -99999.99
9/23/2021 3:25:00 AM -99999.99 -179968 -99999.99 -99999.99 -99999.99 -99999.99
9/23/2021 3:30:00 AM -99999.99 -179968 -99999.99 -99999.99 -99999.99 -99999.99
9/23/2021 3:35:00 AM -99999.99 -179968 -99999.99 -99999.99 -99999.99 -99999.99
9/23/2021 3:40:00 AM -99999.99 -179968 -99999.99 -99999.99 -99999.99 -99999.99
9/23/2021 3:45:00 AM -99999.99 -179968 -99999.99 -99999.99 -99999.99 -99999.99
9/23/2021 3:50:00 AM -99999.99 -179968 -99999.99 -99999.99 -99999.99 -99999.99
9/23/2021 3:55:00 AM -99999.99 -179968 -99999.99 -99999.99 -99999.99 -99999.99
9/23/2021 4:00:00 AM -99999.99 -179968 -99999.99 -99999.99 -99999.99 -99999.99
9/23/2021 4:05:00 AM -99999.99 -179968 -99999.99 -99999.99 -99999.99 -99999.99
9/23/2021 4:10:00 AM -99999.99 -179968 -99999.99 -99999.99 -99999.99 -99999.99
9/23/2021 4:15:00 AM -99999.99 -179968 -99999.99 -99999.99 -99999.99 -99999.99
9/23/2021 4:20:00 AM -99999.99 -179968 -99999.99 -99999.99 -99999.99 -99999.99
9/23/2021 4:25:00 AM -99999.99 -179968 -99999.99 -99999.99 -99999.99 -99999.99
9/23/2021 4:30:00 AM -99999.99 -179968 -99999.99 -99999.99 -99999.99 -99999.99
9/23/2021 4:35:00 AM -99999.99 -179968 -99999.99 -99999.99 -99999.99 -99999.99
9/23/2021 4:40:00 AM -99999.99 -179968 -99999.99 -99999.99 -99999.99 -99999.99
9/23/2021 4:45:00 AM -99999.99 -179968 -99999.99 -99999.99 -99999.99 -99999.99
9/23/2021 4:50:00 AM -99999.99 -179968 -99999.99 -99999.99 -99999.99 -99999.99
9/23/2021 4:55:00 AM -99999.99 -179968 -99999.99 -99999.99 -99999.99 -99999.99
9/23/2021 5:00:00 AM -99999.99 -179968 -99999.99 -99999.99 -99999.99 -99999.99
9/23/2021 5:05:00 AM -99999.99 -179968 -99999.99 -99999.99 -99999.99 -99999.99
9/23/2021 5:10:00 AM -99999.99 -179968 -99999.99 -99999.99 -99999.99 -99999.99
9/23/2021 5:15:00 AM -99999.99 -179968 -99999.99 -99999.99 -99999.99 -99999.99
9/23/2021 5:20:00 AM -99999.99 -179968 -99999.99 -99999.99 -99999.99 -99999.99
9/23/2021 5:25:00 AM -99999.99 -179968 -99999.99 -99999.99 -99999.99 -99999.99
9/23/2021 5:30:00 AM -99999.99 -179968 -99999.99 -99999.99 -99999.99 -99999.99
9/23/2021 5:35:00 AM -99999.99 -179968 -99999.99 -99999.99 -99999.99 -99999.99
9/23/2021 5:40:00 AM -99999.99 -179968 -99999.99 -99999.99 -99999.99 -99999.99
9/23/2021 5:45:00 AM -99999.99 -179968 -99999.99 -99999.99 -99999.99 -99999.99
9/23/2021 5:50:00 AM -99999.99 -179968 -99999.99 -99999.99 -99999.99 -99999.99
9/23/2021 5:55:00 AM -99999.99 -179968 -99999.99 -99999.99 -99999.99 -99999.99
9/23/2021 6:00:00 AM -99999.99 -179968 -99999.99 -99999.99 -99999.99 -99999.99
9/23/2021 6:05:00 AM -99999.99 -179968 -99999.99 -99999.99 -99999.99 -99999.99
9/23/2021 6:10:00 AM -99999.99 -179968 -99999.99 -99999.99 -99999.99 -99999.99
9/23/2021 6:15:00 AM -99999.99 -179968 -99999.99 -99999.99 -99999.99 -99999.99
9/23/2021 6:20:00 AM -99999.99 -179968 -99999.99 -99999.99 -99999.99 -99999.99
9/23/2021 6:25:00 AM -99999.99 -179968 -99999.99 -99999.99 -99999.99 -99999.99
9/23/2021 6:30:00 AM -99999.99 -179968 -99999.99 -99999.99 -99999.99 -99999.99
9/23/2021 6:35:00 AM -99999.99 -179968 -99999.99 -99999.99 -99999.99 -99999.99
9/23/2021 6:40:00 AM -99999.99 -179968 -99999.99 -99999.99 -99999.99 -99999.99
9/23/2021 6:45:00 AM -99999.99 -179968 -99999.99 -99999.99 -99999.99 -99999.99
9/23/2021 6:50:00 AM -99999.99 -179968 -99999.99 -99999.99 -99999.99 -99999.99
9/23/2021 6:55:00 AM -99999.99 -179968 -99999.99 -99999.99 -99999.99 -99999.99
9/23/2021 7:00:00 AM -99999.99 -179968 -99999.99 -99999.99 -99999.99 -99999.99
9/23/2021 7:05:00 AM -99999.99 -179968 -99999.99 -99999.99 -99999.99 -99999.99
9/23/2021 7:10:00 AM -99999.99 -179968 -99999.99 -99999.99 -99999.99 -99999.99
9/23/2021 7:15:00 AM -99999.99 -179968 -99999.99 -99999.99 -99999.99 -99999.99
9/23/2021 7:20:00 AM -99999.99 -179968 -99999.99 -99999.99 -99999.99 -99999.99
9/23/2021 7:25:00 AM -99999.99 -179968 -99999.99 -99999.99 -99999.99 -99999.99
9/23/2021 7:30:00 AM -99999.99 -179968 -99999.99 -99999.99 -99999.99 -99999.99
9/23/2021 7:35:00 AM -99999.99 -179968 -99999.99 -99999.99 -99999.99 -99999.99
9/23/2021 7:40:00 AM -99999.99 -179968 -99999.99 -99999.99 -99999.99 -99999.99
9/23/2021 7:45:00 AM -99999.99 -179968 -99999.99 -99999.99 -99999.99 -99999.99
9/23/2021 7:50:00 AM -99999.99 -179968 -99999.99 -99999.99 -99999.99 -99999.99
9/23/2021 7:55:00 AM -99999.99 -179968 -99999.99 -99999.99 -99999.99 -99999.99
9/23/2021 8:00:00 AM -99999.99 -179968 -99999.99 -99999.99 -99999.99 -99999.99
9/23/2021 8:05:00 AM -99999.99 -179968 -99999.99 -99999.99 -99999.99 -99999.99
9/23/2021 8:10:00 AM -99999.99 -179968 -99999.99 -99999.99 -99999.99 -99999.99
9/23/2021 8:15:00 AM -99999.99 -179968 -99999.99 -99999.99 -99999.99 -99999.99
9/23/2021 8:20:00 AM -99999.99 -179968 -99999.99 -99999.99 -99999.99 -99999.99
9/23/2021 8:25:00 AM -99999.99 -179968 -99999.99 -99999.99 -99999.99 -99999.99
9/23/2021 8:30:00 AM -99999.99 -179968 -99999.99 -99999.99 -99999.99 -99999.99
9/23/2021 8:35:00 AM -99999.99 -179968 -99999.99 -99999.99 -99999.99 -99999.99
9/23/2021 8:40:00 AM -99999.99 -179968 -99999.99 -99999.99 -99999.99 -99999.99
9/23/2021 8:45:00 AM -99999.99 -179968 -99999.99 -99999.99 -99999.99 -99999.99
9/23/2021 8:50:00 AM -99999.99 -179968 -99999.99 -99999.99 -99999.99 -99999.99
9/23/2021 8:55:00 AM -99999.99 -179968 -99999.99 -99999.99 -99999.99 -99999.99
9/23/2021 9:00:00 AM -99999.99 -179968 -99999.99 -99999.99 -99999.99 -99999.99
9/23/2021 9:05:00 AM -99999.99 -179968 -99999.99 -99999.99 -99999.99 -99999.99
9/23/2021 9:10:00 AM -99999.99 -179968 -99999.99 -99999.99 -99999.99 -99999.99
9/23/2021 9:15:00 AM -99999.99 -179968 -99999.99 -99999.99 -99999.99 -99999.99
9/23/2021 9:20:00 AM -99999.99 -179968 -99999.99 -99999.99 -99999.99 -99999.99
9/23/2021 9:25:00 AM -99999.99 -179968 -99999.99 -99999.99 -99999.99 -99999.99
9/23/2021 9:30:00 AM -99999.99 -179968 -99999.99 -99999.99 -99999.99 -99999.99
9/23/2021 9:35:00 AM -99999.99 -179968 -99999.99 -99999.99 -99999.99 -99999.99
9/23/2021 9:40:00 AM -99999.99 -179968 -99999.99 -99999.99 -99999.99 -99999.99
9/23/2021 9:45:00 AM -99999.99 -179968 -99999.99 -99999.99 -99999.99 -99999.99
9/23/2021 9:50:00 AM -99999.99 -179968 -99999.99 -99999.99 -99999.99 -99999.99
9/23/2021 9:55:00 AM -99999.99 -179968 -99999.99 -99999.99 -99999.99 -99999.99
9/23/2021 10:00:00 AM -99999.99 -179968 -99999.99 -99999.99 -99999.99 -99999.99
9/23/2021 10:05:00 AM -99999.99 -179968 -99999.99 -99999.99 -99999.99 -99999.99
9/23/2021 10:10:00 AM -99999.99 -179968 -99999.99 -99999.99 -99999.99 -99999.99
9/23/2021 10:15:00 AM -99999.99 -179968 -99999.99 -99999.99 -99999.99 -99999.99
9/23/2021 10:20:00 AM -99999.99 -179968 -99999.99 -99999.99 -99999.99 -99999.99
9/23/2021 10:25:00 AM -99999.99 -179968 -99999.99 -99999.99 -99999.99 -99999.99
9/23/2021 10:30:00 AM -99999.99 -179968 -99999.99 -99999.99 -99999.99 -99999.99
9/23/2021 10:35:00 AM -99999.99 -179968 -99999.99 -99999.99 -99999.99 -99999.99
9/23/2021 10:40:00 AM -99999.99 -179968 -99999.99 -99999.99 -99999.99 -99999.99
9/23/2021 10:45:00 AM -99999.99 -179968 -99999.99 -99999.99 -99999.99 -99999.99
9/23/2021 10:50:00 AM -99999.99 -179968 -99999.99 -99999.99 -99999.99 -99999.99
9/23/2021 10:55:00 AM -99999.99 -179968 -99999.99 -99999.99 -99999.99 -99999.99
9/23/2021 11:00:00 AM -99999.99 -179968 -99999.99 -99999.99 -99999.99 -99999.99
9/23/2021 11:05:00 AM -99999.99 -179968 -99999.99 -99999.99 -99999.99 -99999.99
9/23/2021 11:10:00 AM -99999.99 -179968 -99999.99 -99999.99 -99999.99 -99999.99
9/23/2021 11:15:00 AM -99999.99 -179968 -99999.99 -99999.99 -99999.99 -99999.99
9/23/2021 11:20:00 AM -99999.99 -179968 -99999.99 -99999.99 -99999.99 -99999.99
9/23/2021 11:25:00 AM -99999.99 -179968 -99999.99 -99999.99 -99999.99 -99999.99
9/23/2021 11:30:00 AM -99999.99 -179968 -99999.99 -99999.99 -99999.99 -99999.99
9/23/2021 11:35:00 AM -99999.99 -179968 -99999.99 -99999.99 -99999.99 -99999.99
9/23/2021 11:40:00 AM -99999.99 -179968 -99999.99 -99999.99 -99999.99 -99999.99
9/23/2021 11:45:00 AM -99999.99 -179968 -99999.99 -99999.99 -99999.99 -99999.99
9/23/2021 11:50:00 AM -99999.99 -179968 -99999.99 -99999.99 -99999.99 -99999.99
9/23/2021 11:55:00 AM -99999.99 -179968 -99999.99 -99999.99 -99999.99 -99999.99
9/23/2021 12:00:00 PM -99999.99 -179968 -99999.99 -99999.99 -99999.99 -99999.99
9/23/2021 12:05:00 PM -99999.99 -179968 -99999.99 -99999.99 -99999.99 -99999.99
9/23/2021 12:10:00 PM -99999.99 -179968 -99999.99 -99999.99 -99999.99 -99999.99
9/23/2021 12:15:00 PM -99999.99 -179968 -99999.99 -99999.99 -99999.99 -99999.99
9/23/2021 12:20:00 PM -99999.99 -179968 -99999.99 -99999.99 -99999.99 -99999.99
9/23/2021 12:25:00 PM -99999.99 -179968 -99999.99 -99999.99 -99999.99 -99999.99
9/23/2021 12:30:00 PM -99999.99 -179968 -99999.99 -99999.99 -99999.99 -99999.99
9/23/2021 12:35:00 PM -99999.99 -179968 -99999.99 -99999.99 -99999.99 -99999.99
9/23/2021 12:40:00 PM -99999.99 -179968 -99999.99 -99999.99 -99999.99 -99999.99
9/23/2021 12:45:00 PM -99999.99 -179968 -99999.99 -99999.99 -99999.99 -99999.99
9/23/2021 12:50:00 PM -99999.99 -179968 -99999.99 -99999.99 -99999.99 -99999.99
9/23/2021 12:55:00 PM -99999.99 -179968 -99999.99 -99999.99 -99999.99 -99999.99
9/23/2021 1:00:00 PM -99999.99 -179968 -99999.99 -99999.99 -99999.99 -99999.99
9/23/2021 1:05:00 PM -99999.99 -179968 -99999.99 -99999.99 -99999.99 -99999.99
9/23/2021 1:10:00 PM -99999.99 -179968 -99999.99 -99999.99 -99999.99 -99999.99
9/23/2021 1:15:00 PM -99999.99 -179968 -99999.99 -99999.99 -99999.99 -99999.99
9/23/2021 1:20:00 PM -99999.99 -179968 -99999.99 -99999.99 -99999.99 -99999.99
9/23/2021 1:25:00 PM -99999.99 -179968 -99999.99 -99999.99 -99999.99 -99999.99
9/23/2021 1:30:00 PM -99999.99 -179968 -99999.99 -99999.99 -99999.99 -99999.99
9/23/2021 1:35:00 PM -99999.99 -179968 -99999.99 -99999.99 -99999.99 -99999.99
9/23/2021 1:40:00 PM -99999.99 -179968 -99999.99 -99999.99 -99999.99 -99999.99
9/23/2021 1:45:00 PM -99999.99 -179968 -99999.99 -99999.99 -99999.99 -99999.99
9/23/2021 1:50:00 PM -99999.99 -179968 -99999.99 -99999.99 -99999.99 -99999.99
9/23/2021 1:55:00 PM -99999.99 -179968 -99999.99 -99999.99 -99999.99 -99999.99
9/23/2021 2:00:00 PM -99999.99 -179968 -99999.99 -99999.99 -99999.99 -99999.99
9/23/2021 2:05:00 PM -99999.99 -179968 -99999.99 -99999.99 -99999.99 -99999.99
9/23/2021 2:10:00 PM -99999.99 -179968 -99999.99 -99999.99 -99999.99 -99999.99
9/23/2021 2:15:00 PM -99999.99 -179968 -99999.99 -99999.99 -99999.99 -99999.99
9/23/2021 2:20:00 PM -99999.99 -179968 -99999.99 -99999.99 -99999.99 -99999.99
9/23/2021 2:25:00 PM -99999.99 -179968 -99999.99 -99999.99 -99999.99 -99999.99
9/23/2021 2:30:00 PM -99999.99 -179968 -99999.99 -99999.99 -99999.99 -99999.99
9/23/2021 2:35:00 PM -99999.99 -179968 -99999.99 -99999.99 -99999.99 -99999.99
9/23/2021 2:40:00 PM -99999.99 -179968 -99999.99 -99999.99 -99999.99 -99999.99
9/23/2021 2:45:00 PM -99999.99 -179968 -99999.99 -99999.99 -99999.99 -99999.99
9/23/2021 2:50:00 PM -99999.99 -179968 -99999.99 -99999.99 -99999.99 -99999.99
9/23/2021 2:55:00 PM -99999.99 -179968 -99999.99 -99999.99 -99999.99 -99999.99
9/23/2021 3:00:00 PM -99999.99 -179968 -99999.99 -99999.99 -99999.99 -99999.99
9/23/2021 3:05:00 PM -99999.99 -179968 -99999.99 -99999.99 -99999.99 -99999.99
9/23/2021 3:10:00 PM -99999.99 -179968 -99999.99 -99999.99 -99999.99 -99999.99
9/23/2021 3:15:00 PM -99999.99 -179968 -99999.99 -99999.99 -99999.99 -99999.99
9/23/2021 3:20:00 PM -99999.99 -179968 -99999.99 -99999.99 -99999.99 -99999.99
9/23/2021 3:25:00 PM -99999.99 -179968 -99999.99 -99999.99 -99999.99 -99999.99
9/23/2021 3:30:00 PM -99999.99 -179968 -99999.99 -99999.99 -99999.99 -99999.99
9/23/2021 3:35:00 PM -99999.99 -179968 -99999.99 -99999.99 -99999.99 -99999.99
9/23/2021 3:40:00 PM -99999.99 -179968 -99999.99 -99999.99 -99999.99 -99999.99
9/23/2021 3:45:00 PM -99999.99 -179968 -99999.99 -99999.99 -99999.99 -99999.99
9/23/2021 3:50:00 PM -99999.99 -179968 -99999.99 -99999.99 -99999.99 -99999.99
9/23/2021 3:55:00 PM -99999.99 -179968 -99999.99 -99999.99 -99999.99 -99999.99
9/23/2021 4:00:00 PM -99999.99 -179968 -99999.99 -99999.99 -99999.99 -99999.99
9/23/2021 4:05:00 PM -99999.99 -179968 -99999.99 -99999.99 -99999.99 -99999.99
9/23/2021 4:10:00 PM -99999.99 -179968 -99999.99 -99999.99 -99999.99 -99999.99
9/23/2021 4:15:00 PM -99999.99 -179968 -99999.99 -99999.99 -99999.99 -99999.99
9/23/2021 4:20:00 PM -99999.99 -179968 -99999.99 -99999.99 -99999.99 -99999.99
9/23/2021 4:25:00 PM -99999.99 -179968 -99999.99 -99999.99 -99999.99 -99999.99
9/23/2021 4:30:00 PM -99999.99 -179968 -99999.99 -99999.99 -99999.99 -99999.99
9/23/2021 4:35:00 PM -99999.99 -179968 -99999.99 -99999.99 -99999.99 -99999.99
9/23/2021 4:40:00 PM -99999.99 -179968 -99999.99 -99999.99 -99999.99 -99999.99
9/23/2021 4:45:00 PM -99999.99 -179968 -99999.99 -99999.99 -99999.99 -99999.99
9/23/2021 4:50:00 PM -99999.99 -179968 -99999.99 -99999.99 -99999.99 -99999.99
9/23/2021 4:55:00 PM -99999.99 -179968 -99999.99 -99999.99 -99999.99 -99999.99
9/23/2021 5:00:00 PM -99999.99 -179968 -99999.99 -99999.99 -99999.99 -99999.99
9/23/2021 5:05:00 PM -99999.99 -179968 -99999.99 -99999.99 -99999.99 -99999.99
9/23/2021 5:10:00 PM -99999.99 -179968 -99999.99 -99999.99 -99999.99 -99999.99
9/23/2021 5:15:00 PM -99999.99 -179968 -99999.99 -99999.99 -99999.99 -99999.99
9/23/2021 5:20:00 PM -99999.99 -179968 -99999.99 -99999.99 -99999.99 -99999.99
9/23/2021 5:25:00 PM -99999.99 -179968 -99999.99 -99999.99 -99999.99 -99999.99
9/23/2021 5:30:00 PM -99999.99 -179968 -99999.99 -99999.99 -99999.99 -99999.99
9/23/2021 5:35:00 PM -99999.99 -179968 -99999.99 -99999.99 -99999.99 -99999.99
9/23/2021 5:40:00 PM -99999.99 -179968 -99999.99 -99999.99 -99999.99 -99999.99
9/23/2021 5:45:00 PM -99999.99 -179968 -99999.99 -99999.99 -99999.99 -99999.99
9/23/2021 5:50:00 PM -99999.99 -179968 -99999.99 -99999.99 -99999.99 -99999.99
9/23/2021 5:55:00 PM -99999.99 -179968 -99999.99 -99999.99 -99999.99 -99999.99
9/23/2021 6:00:00 PM -99999.99 -179968 -99999.99 -99999.99 -99999.99 -99999.99
9/23/2021 6:05:00 PM -99999.99 -179968 -99999.99 -99999.99 -99999.99 -99999.99
9/23/2021 6:10:00 PM -99999.99 -179968 -99999.99 -99999.99 -99999.99 -99999.99
9/23/2021 6:15:00 PM -99999.99 -179968 -99999.99 -99999.99 -99999.99 -99999.99
9/23/2021 6:20:00 PM -99999.99 -179968 -99999.99 -99999.99 -99999.99 -99999.99
9/23/2021 6:25:00 PM -99999.99 -179968 -99999.99 -99999.99 -99999.99 -99999.99
9/23/2021 6:30:00 PM -99999.99 -179968 -99999.99 -99999.99 -99999.99 -99999.99
9/23/2021 6:35:00 PM -99999.99 -179968 -99999.99 -99999.99 -99999.99 -99999.99
9/23/2021 6:40:00 PM -99999.99 -179968 -99999.99 -99999.99 -99999.99 -99999.99
9/23/2021 6:45:00 PM -99999.99 -179968 -99999.99 -99999.99 -99999.99 -99999.99
9/23/2021 6:50:00 PM -99999.99 -179968 -99999.99 -99999.99 -99999.99 -99999.99
9/23/2021 6:55:00 PM -99999.99 -179968 -99999.99 -99999.99 -99999.99 -99999.99
9/23/2021 7:00:00 PM -99999.99 -179968 -99999.99 -99999.99 -99999.99 -99999.99
9/23/2021 7:05:00 PM -99999.99 -179968 -99999.99 -99999.99 -99999.99 -99999.99
9/23/2021 7:10:00 PM -99999.99 -179968 -99999.99 -99999.99 -99999.99 -99999.99
9/23/2021 7:15:00 PM -99999.99 -179968 -99999.99 -99999.99 -99999.99 -99999.99
9/23/2021 7:20:00 PM -99999.99 -179968 -99999.99 -99999.99 -99999.99 -99999.99
9/23/2021 7:25:00 PM -99999.99 -179968 -99999.99 -99999.99 -99999.99 -99999.99
9/23/2021 7:30:00 PM -99999.99 -179968 -99999.99 -99999.99 -99999.99 -99999.99
9/23/2021 7:35:00 PM -99999.99 -179968 -99999.99 -99999.99 -99999.99 -99999.99
9/23/2021 7:40:00 PM -99999.99 -179968 -99999.99 -99999.99 -99999.99 -99999.99
9/23/2021 7:45:00 PM -99999.99 -179968 -99999.99 -99999.99 -99999.99 -99999.99
9/23/2021 7:50:00 PM -99999.99 -179968 -99999.99 -99999.99 -99999.99 -99999.99
9/23/2021 7:55:00 PM -99999.99 -179968 -99999.99 -99999.99 -99999.99 -99999.99
9/23/2021 8:00:00 PM -99999.99 -179968 -99999.99 -99999.99 -99999.99 -99999.99
9/23/2021 8:05:00 PM -99999.99 -179968 -99999.99 -99999.99 -99999.99 -99999.99
9/23/2021 8:10:00 PM -99999.99 -179968 -99999.99 -99999.99 -99999.99 -99999.99
9/23/2021 8:15:00 PM -99999.99 -179968 -99999.99 -99999.99 -99999.99 -99999.99
9/23/2021 8:20:00 PM -99999.99 -179968 -99999.99 -99999.99 -99999.99 -99999.99
9/23/2021 8:25:00 PM -99999.99 -179968 -99999.99 -99999.99 -99999.99 -99999.99
9/23/2021 8:30:00 PM -99999.99 -179968 -99999.99 -99999.99 -99999.99 -99999.99
9/23/2021 8:35:00 PM -99999.99 -179968 -99999.99 -99999.99 -99999.99 -99999.99
9/23/2021 8:40:00 PM -99999.99 -179968 -99999.99 -99999.99 -99999.99 -99999.99
9/23/2021 8:45:00 PM -99999.99 -179968 -99999.99 -99999.99 -99999.99 -99999.99
9/23/2021 8:50:00 PM -99999.99 -179968 -99999.99 -99999.99 -99999.99 -99999.99
9/23/2021 8:55:00 PM -99999.99 -179968 -99999.99 -99999.99 -99999.99 -99999.99
9/23/2021 9:00:00 PM -99999.99 -179968 -99999.99 -99999.99 -99999.99 -99999.99
9/23/2021 9:05:00 PM -99999.99 -179968 -99999.99 -99999.99 -99999.99 -99999.99
9/23/2021 9:10:00 PM -99999.99 -179968 -99999.99 -99999.99 -99999.99 -99999.99
9/23/2021 9:15:00 PM -99999.99 -179968 -99999.99 -99999.99 -99999.99 -99999.99
9/23/2021 9:20:00 PM -99999.99 -179968 -99999.99 -99999.99 -99999.99 -99999.99
9/23/2021 9:25:00 PM -99999.99 -179968 -99999.99 -99999.99 -99999.99 -99999.99
9/23/2021 9:30:00 PM -99999.99 -179968 -99999.99 -99999.99 -99999.99 -99999.99
9/23/2021 9:35:00 PM -99999.99 -179968 -99999.99 -99999.99 -99999.99 -99999.99
9/23/2021 9:40:00 PM -99999.99 -179968 -99999.99 -99999.99 -99999.99 -99999.99
9/23/2021 9:45:00 PM -99999.99 -179968 -99999.99 -99999.99 -99999.99 -99999.99
9/23/2021 9:50:00 PM -99999.99 -179968 -99999.99 -99999.99 -99999.99 -99999.99
9/23/2021 9:55:00 PM -99999.99 -179968 -99999.99 -99999.99 -99999.99 -99999.99
9/23/2021 10:00:00 PM -99999.99 -179968 -99999.99 -99999.99 -99999.99 -99999.99
9/23/2021 10:05:00 PM -99999.99 -179968 -99999.99 -99999.99 -99999.99 -99999.99
9/23/2021 10:10:00 PM -99999.99 -179968 -99999.99 -99999.99 -99999.99 -99999.99
9/23/2021 10:15:00 PM -99999.99 -179968 -99999.99 -99999.99 -99999.99 -99999.99
9/23/2021 10:20:00 PM -99999.99 -179968 -99999.99 -99999.99 -99999.99 -99999.99
9/23/2021 10:25:00 PM -99999.99 -179968 -99999.99 -99999.99 -99999.99 -99999.99
9/23/2021 10:30:00 PM -99999.99 -179968 -99999.99 -99999.99 -99999.99 -99999.99
9/23/2021 10:35:00 PM -99999.99 -179968 -99999.99 -99999.99 -99999.99 -99999.99
9/23/2021 10:40:00 PM -99999.99 -179968 -99999.99 -99999.99 -99999.99 -99999.99
9/23/2021 10:45:00 PM -99999.99 -179968 -99999.99 -99999.99 -99999.99 -99999.99
9/23/2021 10:50:00 PM -99999.99 -179968 -99999.99 -99999.99 -99999.99 -99999.99
9/23/2021 10:55:00 PM -99999.99 -179968 -99999.99 -99999.99 -99999.99 -99999.99
9/23/2021 11:00:00 PM -99999.99 -179968 -99999.99 -99999.99 -99999.99 -99999.99
9/23/2021 11:05:00 PM -99999.99 -179968 -99999.99 -99999.99 -99999.99 -99999.99
9/23/2021 11:10:00 PM -99999.99 -179968 -99999.99 -99999.99 -99999.99 -99999.99
9/23/2021 11:15:00 PM -99999.99 -179968 -99999.99 -99999.99 -99999.99 -99999.99
9/23/2021 11:20:00 PM -99999.99 -179968 -99999.99 -99999.99 -99999.99 -99999.99
9/23/2021 11:25:00 PM -99999.99 -179968 -99999.99 -99999.99 -99999.99 -99999.99
9/23/2021 11:30:00 PM -99999.99 -179968 -99999.99 -99999.99 -99999.99 -99999.99
9/23/2021 11:35:00 PM -99999.99 -179968 -99999.99 -99999.99 -99999.99 -99999.99
9/23/2021 11:40:00 PM -99999.99 -179968 -99999.99 -99999.99 -99999.99 -99999.99
9/23/2021 11:45:00 PM -99999.99 -179968 -99999.99 -99999.99 -99999.99 -99999.99
9/23/2021 11:50:00 PM -99999.99 -179968 -99999.99 -99999.99 -99999.99 -99999.99
9/23/2021 11:55:00 PM -99999.99 -179968 -99999.99 -99999.99 -99999.99 -99999.99
9/24/2021 12:00:00 AM -99999.99 -179968 -99999.99 -99999.99 -99999.99 -99999.99
9/24/2021 12:05:00 AM -99999.99 -179968 -99999.99 -99999.99 -99999.99 -99999.99
9/24/2021 12:10:00 AM -99999.99 -179968 -99999.99 -99999.99 -99999.99 -99999.99
9/24/2021 12:15:00 AM -99999.99 -179968 -99999.99 -99999.99 -99999.99 -99999.99
9/24/2021 12:20:00 AM -99999.99 -179968 -99999.99 -99999.99 -99999.99 -99999.99
9/24/2021 12:25:00 AM -99999.99 -179968 -99999.99 -99999.99 -99999.99 -99999.99
9/24/2021 12:30:00 AM -99999.99 -179968 -99999.99 -99999.99 -99999.99 -99999.99
9/24/2021 12:35:00 AM -99999.99 -179968 -99999.99 -99999.99 -99999.99 -99999.99
9/24/2021 12:40:00 AM -99999.99 -179968 -99999.99 -99999.99 -99999.99 -99999.99
9/24/2021 12:45:00 AM -99999.99 -179968 -99999.99 -99999.99 -99999.99 -99999.99
9/24/2021 12:50:00 AM -99999.99 -179968 -99999.99 -99999.99 -99999.99 -99999.99
9/24/2021 12:55:00 AM -99999.99 -179968 -99999.99 -99999.99 -99999.99 -99999.99
9/24/2021 1:00:00 AM -99999.99 -179968 -99999.99 -99999.99 -99999.99 -99999.99
9/24/2021 1:05:00 AM -99999.99 -179968 -99999.99 -99999.99 -99999.99 -99999.99
9/24/2021 1:10:00 AM -99999.99 -179968 -99999.99 -99999.99 -99999.99 -99999.99
9/24/2021 1:15:00 AM -99999.99 -179968 -99999.99 -99999.99 -99999.99 -99999.99
9/24/2021 1:20:00 AM -99999.99 -179968 -99999.99 -99999.99 -99999.99 -99999.99
9/24/2021 1:25:00 AM -99999.99 -179968 -99999.99 -99999.99 -99999.99 -99999.99
9/24/2021 1:30:00 AM -99999.99 -179968 -99999.99 -99999.99 -99999.99 -99999.99
9/24/2021 1:35:00 AM -99999.99 -179968 -99999.99 -99999.99 -99999.99 -99999.99
9/24/2021 1:40:00 AM -99999.99 -179968 -99999.99 -99999.99 -99999.99 -99999.99
9/24/2021 1:45:00 AM -99999.99 -179968 -99999.99 -99999.99 -99999.99 -99999.99
9/24/2021 1:50:00 AM -99999.99 -179968 -99999.99 -99999.99 -99999.99 -99999.99
9/24/2021 1:55:00 AM -99999.99 -179968 -99999.99 -99999.99 -99999.99 -99999.99
9/24/2021 2:00:00 AM -99999.99 -179968 -99999.99 -99999.99 -99999.99 -99999.99
9/24/2021 2:05:00 AM -99999.99 -179968 -99999.99 -99999.99 -99999.99 -99999.99
9/24/2021 2:10:00 AM -99999.99 -179968 -99999.99 -99999.99 -99999.99 -99999.99
9/24/2021 2:15:00 AM -99999.99 -179968 -99999.99 -99999.99 -99999.99 -99999.99
9/24/2021 2:20:00 AM -99999.99 -179968 -99999.99 -99999.99 -99999.99 -99999.99
9/24/2021 2:25:00 AM -99999.99 -179968 -99999.99 -99999.99 -99999.99 -99999.99
9/24/2021 2:30:00 AM -99999.99 -179968 -99999.99 -99999.99 -99999.99 -99999.99
9/24/2021 2:35:00 AM -99999.99 -179968 -99999.99 -99999.99 -99999.99 -99999.99
9/24/2021 2:40:00 AM -99999.99 -179968 -99999.99 -99999.99 -99999.99 -99999.99
9/24/2021 2:45:00 AM -99999.99 -179968 -99999.99 -99999.99 -99999.99 -99999.99
9/24/2021 2:50:00 AM -99999.99 -179968 -99999.99 -99999.99 -99999.99 -99999.99
9/24/2021 2:55:00 AM -99999.99 -179968 -99999.99 -99999.99 -99999.99 -99999.99
9/24/2021 3:00:00 AM -99999.99 -179968 -99999.99 -99999.99 -99999.99 -99999.99
9/24/2021 3:05:00 AM -99999.99 -179968 -99999.99 -99999.99 -99999.99 -99999.99
9/24/2021 3:10:00 AM -99999.99 -179968 -99999.99 -99999.99 -99999.99 -99999.99
9/24/2021 3:15:00 AM -99999.99 -179968 -99999.99 -99999.99 -99999.99 -99999.99
9/24/2021 3:20:00 AM -99999.99 -179968 -99999.99 -99999.99 -99999.99 -99999.99
9/24/2021 3:25:00 AM -99999.99 -179968 -99999.99 -99999.99 -99999.99 -99999.99
9/24/2021 3:30:00 AM -99999.99 -179968 -99999.99 -99999.99 -99999.99 -99999.99
9/24/2021 3:35:00 AM -99999.99 -179968 -99999.99 -99999.99 -99999.99 -99999.99
9/24/2021 3:40:00 AM -99999.99 -179968 -99999.99 -99999.99 -99999.99 -99999.99
9/24/2021 3:45:00 AM -99999.99 -179968 -99999.99 -99999.99 -99999.99 -99999.99
9/24/2021 3:50:00 AM -99999.99 -179968 -99999.99 -99999.99 -99999.99 -99999.99
9/24/2021 3:55:00 AM -99999.99 -179968 -99999.99 -99999.99 -99999.99 -99999.99
9/24/2021 4:00:00 AM -99999.99 -179968 -99999.99 -99999.99 -99999.99 -99999.99
9/24/2021 4:05:00 AM -99999.99 -179968 -99999.99 -99999.99 -99999.99 -99999.99
9/24/2021 4:10:00 AM -99999.99 -179968 -99999.99 -99999.99 -99999.99 -99999.99
9/24/2021 4:15:00 AM -99999.99 -179968 -99999.99 -99999.99 -99999.99 -99999.99
9/24/2021 4:20:00 AM -99999.99 -179968 -99999.99 -99999.99 -99999.99 -99999.99
9/24/2021 4:25:00 AM -99999.99 -179968 -99999.99 -99999.99 -99999.99 -99999.99
9/24/2021 4:30:00 AM -99999.99 -179968 -99999.99 -99999.99 -99999.99 -99999.99
9/24/2021 4:35:00 AM -99999.99 -179968 -99999.99 -99999.99 -99999.99 -99999.99
9/24/2021 4:40:00 AM -99999.99 -179968 -99999.99 -99999.99 -99999.99 -99999.99
9/24/2021 4:45:00 AM -99999.99 -179968 -99999.99 -99999.99 -99999.99 -99999.99
9/24/2021 4:50:00 AM -99999.99 -179968 -99999.99 -99999.99 -99999.99 -99999.99
9/24/2021 4:55:00 AM -99999.99 -179968 -99999.99 -99999.99 -99999.99 -99999.99
9/24/2021 5:00:00 AM -99999.99 -179968 -99999.99 -99999.99 -99999.99 -99999.99
9/24/2021 5:05:00 AM -99999.99 -179968 -99999.99 -99999.99 -99999.99 -99999.99
9/24/2021 5:10:00 AM -99999.99 -179968 -99999.99 -99999.99 -99999.99 -99999.99
9/24/2021 5:15:00 AM -99999.99 -179968 -99999.99 -99999.99 -99999.99 -99999.99
9/24/2021 5:20:00 AM -99999.99 -179968 -99999.99 -99999.99 -99999.99 -99999.99
9/24/2021 5:25:00 AM -99999.99 -179968 -99999.99 -99999.99 -99999.99 -99999.99
9/24/2021 5:30:00 AM -99999.99 -179968 -99999.99 -99999.99 -99999.99 -99999.99
9/24/2021 5:35:00 AM -99999.99 -179968 -99999.99 -99999.99 -99999.99 -99999.99
9/24/2021 5:40:00 AM -99999.99 -179968 -99999.99 -99999.99 -99999.99 -99999.99
9/24/2021 5:45:00 AM -99999.99 -179968 -99999.99 -99999.99 -99999.99 -99999.99
9/24/2021 5:50:00 AM -99999.99 -179968 -99999.99 -99999.99 -99999.99 -99999.99
9/24/2021 5:55:00 AM -99999.99 -179968 -99999.99 -99999.99 -99999.99 -99999.99
9/24/2021 6:00:00 AM -99999.99 -179968 -99999.99 -99999.99 -99999.99 -99999.99
9/24/2021 6:05:00 AM -99999.99 -179968 -99999.99 -99999.99 -99999.99 -99999.99
9/24/2021 6:10:00 AM -99999.99 -179968 -99999.99 -99999.99 -99999.99 -99999.99
9/24/2021 6:15:00 AM -99999.99 -179968 -99999.99 -99999.99 -99999.99 -99999.99
9/24/2021 6:20:00 AM -99999.99 -179968 -99999.99 -99999.99 -99999.99 -99999.99
9/24/2021 6:25:00 AM -99999.99 -179968 -99999.99 -99999.99 -99999.99 -99999.99
9/24/2021 6:30:00 AM -99999.99 -179968 -99999.99 -99999.99 -99999.99 -99999.99
9/24/2021 6:35:00 AM -99999.99 -179968 -99999.99 -99999.99 -99999.99 -99999.99
9/24/2021 6:40:00 AM -99999.99 -179968 -99999.99 -99999.99 -99999.99 -99999.99
9/24/2021 6:45:00 AM -99999.99 -179968 -99999.99 -99999.99 -99999.99 -99999.99
9/24/2021 6:50:00 AM -99999.99 -179968 -99999.99 -99999.99 -99999.99 -99999.99
9/24/2021 6:55:00 AM -99999.99 -179968 -99999.99 -99999.99 -99999.99 -99999.99
9/24/2021 7:00:00 AM -99999.99 -179968 -99999.99 -99999.99 -99999.99 -99999.99
9/24/2021 7:05:00 AM -99999.99 -179968 -99999.99 -99999.99 -99999.99 -99999.99
9/24/2021 7:10:00 AM -99999.99 -179968 -99999.99 -99999.99 -99999.99 -99999.99
9/24/2021 7:15:00 AM -99999.99 -179968 -99999.99 -99999.99 -99999.99 -99999.99
9/24/2021 7:20:00 AM -99999.99 -179968 -99999.99 -99999.99 -99999.99 -99999.99
9/24/2021 7:25:00 AM -99999.99 -179968 -99999.99 -99999.99 -99999.99 -99999.99
9/24/2021 7:30:00 AM -99999.99 -179968 -99999.99 -99999.99 -99999.99 -99999.99
9/24/2021 7:35:00 AM -99999.99 -179968 -99999.99 -99999.99 -99999.99 -99999.99
9/24/2021 7:40:00 AM -99999.99 -179968 -99999.99 -99999.99 -99999.99 -99999.99
9/24/2021 7:45:00 AM -99999.99 -179968 -99999.99 -99999.99 -99999.99 -99999.99
9/24/2021 7:50:00 AM -99999.99 -179968 -99999.99 -99999.99 -99999.99 -99999.99
9/24/2021 7:55:00 AM -99999.99 -179968 -99999.99 -99999.99 -99999.99 -99999.99
9/24/2021 8:00:00 AM -99999.99 -179968 -99999.99 -99999.99 -99999.99 -99999.99
9/24/2021 8:05:00 AM -99999.99 -179968 -99999.99 -99999.99 -99999.99 -99999.99
9/24/2021 8:10:00 AM -99999.99 -179968 -99999.99 -99999.99 -99999.99 -99999.99
9/24/2021 8:15:00 AM -99999.99 -179968 -99999.99 -99999.99 -99999.99 -99999.99
9/24/2021 8:20:00 AM -99999.99 -179968 -99999.99 -99999.99 -99999.99 -99999.99
9/24/2021 8:25:00 AM -99999.99 -179968 -99999.99 -99999.99 -99999.99 -99999.99
9/24/2021 8:30:00 AM -99999.99 -179968 -99999.99 -99999.99 -99999.99 -99999.99
9/24/2021 8:35:00 AM -99999.99 -179968 -99999.99 -99999.99 -99999.99 -99999.99
9/24/2021 8:40:00 AM -99999.99 -179968 -99999.99 -99999.99 -99999.99 -99999.99
9/24/2021 8:45:00 AM -99999.99 -179968 -99999.99 -99999.99 -99999.99 -99999.99
9/24/2021 8:50:00 AM -99999.99 -179968 -99999.99 -99999.99 -99999.99 -99999.99
9/24/2021 8:55:00 AM -99999.99 -179968 -99999.99 -99999.99 -99999.99 -99999.99
9/24/2021 9:00:00 AM -99999.99 -179968 -99999.99 -99999.99 -99999.99 -99999.99
9/24/2021 9:05:00 AM -99999.99 -179968 -99999.99 -99999.99 -99999.99 -99999.99
9/24/2021 9:10:00 AM -99999.99 -179968 -99999.99 -99999.99 -99999.99 -99999.99
9/24/2021 9:15:00 AM -99999.99 -179968 -99999.99 -99999.99 -99999.99 -99999.99
9/24/2021 9:20:00 AM -99999.99 -179968 -99999.99 -99999.99 -99999.99 -99999.99
9/24/2021 9:25:00 AM -99999.99 -179968 -99999.99 -99999.99 -99999.99 -99999.99
9/24/2021 9:30:00 AM -99999.99 -179968 -99999.99 -99999.99 -99999.99 -99999.99
9/24/2021 9:35:00 AM -99999.99 -179968 -99999.99 -99999.99 -99999.99 -99999.99
9/24/2021 9:40:00 AM -99999.99 -179968 -99999.99 -99999.99 -99999.99 -99999.99
9/24/2021 9:45:00 AM -99999.99 -179968 -99999.99 -99999.99 -99999.99 -99999.99
9/24/2021 9:50:00 AM -99999.99 -179968 -99999.99 -99999.99 -99999.99 -99999.99
9/24/2021 9:55:00 AM -99999.99 -179968 -99999.99 -99999.99 -99999.99 -99999.99
9/24/2021 10:00:00 AM -99999.99 -179968 -99999.99 -99999.99 -99999.99 -99999.99
9/24/2021 10:05:00 AM -99999.99 -179968 -99999.99 -99999.99 -99999.99 -99999.99
9/24/2021 10:10:00 AM -99999.99 -179968 -99999.99 -99999.99 -99999.99 -99999.99
9/24/2021 10:15:00 AM -99999.99 -179968 -99999.99 -99999.99 -99999.99 -99999.99
9/24/2021 10:20:00 AM -99999.99 -179968 -99999.99 -99999.99 -99999.99 -99999.99
9/24/2021 10:25:00 AM -99999.99 -179968 -99999.99 -99999.99 -99999.99 -99999.99
9/24/2021 10:30:00 AM -99999.99 -179968 -99999.99 -99999.99 -99999.99 -99999.99
9/24/2021 10:35:00 AM -99999.99 -179968 -99999.99 -99999.99 -99999.99 -99999.99
9/24/2021 10:40:00 AM -99999.99 -179968 -99999.99 -99999.99 -99999.99 -99999.99
9/24/2021 10:45:00 AM -99999.99 -179968 -99999.99 -99999.99 -99999.99 -99999.99
9/24/2021 10:50:00 AM -99999.99 -179968 -99999.99 -99999.99 -99999.99 -99999.99
9/24/2021 10:55:00 AM -99999.99 -179968 -99999.99 -99999.99 -99999.99 -99999.99
9/24/2021 11:00:00 AM -99999.99 -179968 -99999.99 -99999.99 -99999.99 -99999.99
9/24/2021 11:05:00 AM -99999.99 -179968 -99999.99 -99999.99 -99999.99 -99999.99
9/24/2021 11:10:00 AM -99999.99 -179968 -99999.99 -99999.99 -99999.99 -99999.99
9/24/2021 11:15:00 AM -99999.99 -179968 -99999.99 -99999.99 -99999.99 -99999.99
9/24/2021 11:20:00 AM -99999.99 -179968 -99999.99 -99999.99 -99999.99 -99999.99
9/24/2021 11:25:00 AM -99999.99 -179968 -99999.99 -99999.99 -99999.99 -99999.99
9/24/2021 11:30:00 AM -99999.99 -179968 -99999.99 -99999.99 -99999.99 -99999.99
9/24/2021 11:35:00 AM -99999.99 -179968 -99999.99 -99999.99 -99999.99 -99999.99
9/24/2021 11:40:00 AM -99999.99 -179968 -99999.99 -99999.99 -99999.99 -99999.99
9/24/2021 11:45:00 AM -99999.99 -179968 -99999.99 -99999.99 -99999.99 -99999.99
9/24/2021 11:50:00 AM -99999.99 -179968 -99999.99 -99999.99 -99999.99 -99999.99
9/24/2021 11:55:00 AM -99999.99 -179968 -99999.99 -99999.99 -99999.99 -99999.99
9/24/2021 12:00:00 PM -99999.99 -179968 -99999.99 -99999.99 -99999.99 -99999.99
9/24/2021 12:05:00 PM -99999.99 -179968 -99999.99 -99999.99 -99999.99 -99999.99
9/24/2021 12:10:00 PM -99999.99 -179968 -99999.99 -99999.99 -99999.99 -99999.99
9/24/2021 12:15:00 PM -99999.99 -179968 -99999.99 -99999.99 -99999.99 -99999.99
9/24/2021 12:20:00 PM -99999.99 -179968 -99999.99 -99999.99 -99999.99 -99999.99
9/24/2021 12:25:00 PM -99999.99 -179968 -99999.99 -99999.99 -99999.99 -99999.99
9/24/2021 12:30:00 PM -99999.99 -179968 -99999.99 -99999.99 -99999.99 -99999.99
9/24/2021 12:35:00 PM -99999.99 -179968 -99999.99 -99999.99 -99999.99 -99999.99
9/24/2021 12:40:00 PM -99999.99 -179968 -99999.99 -99999.99 -99999.99 -99999.99
9/24/2021 12:45:00 PM -99999.99 -179968 -99999.99 -99999.99 -99999.99 -99999.99
9/24/2021 12:50:00 PM -99999.99 -179968 -99999.99 -99999.99 -99999.99 -99999.99
9/24/2021 12:55:00 PM -99999.99 -179968 -99999.99 -99999.99 -99999.99 -99999.99
9/24/2021 1:00:00 PM -99999.99 -179968 -99999.99 -99999.99 -99999.99 -99999.99
9/24/2021 1:05:00 PM -99999.99 -179968 -99999.99 -99999.99 -99999.99 -99999.99
9/24/2021 1:10:00 PM -99999.99 -179968 -99999.99 -99999.99 -99999.99 -99999.99
9/24/2021 1:15:00 PM -99999.99 -179968 -99999.99 -99999.99 -99999.99 -99999.99
9/24/2021 1:20:00 PM -99999.99 -179968 -99999.99 -99999.99 -99999.99 -99999.99
9/24/2021 1:25:00 PM -99999.99 -179968 -99999.99 -99999.99 -99999.99 -99999.99
9/24/2021 1:30:00 PM -99999.99 -179968 -99999.99 -99999.99 -99999.99 -99999.99
9/24/2021 1:35:00 PM -99999.99 -179968 -99999.99 -99999.99 -99999.99 -99999.99
9/24/2021 1:40:00 PM -99999.99 -179968 -99999.99 -99999.99 -99999.99 -99999.99
9/24/2021 1:45:00 PM -99999.99 -179968 -99999.99 -99999.99 -99999.99 -99999.99
9/24/2021 1:50:00 PM -99999.99 -179968 -99999.99 -99999.99 -99999.99 -99999.99
9/24/2021 1:55:00 PM -99999.99 -179968 -99999.99 -99999.99 -99999.99 -99999.99
9/24/2021 2:00:00 PM -99999.99 -179968 -99999.99 -99999.99 -99999.99 -99999.99
9/24/2021 2:05:00 PM -99999.99 -179968 -99999.99 -99999.99 -99999.99 -99999.99
9/24/2021 2:10:00 PM -99999.99 -179968 -99999.99 -99999.99 -99999.99 -99999.99
9/24/2021 2:15:00 PM -99999.99 -179968 -99999.99 -99999.99 -99999.99 -99999.99
9/24/2021 2:20:00 PM -99999.99 -179968 -99999.99 -99999.99 -99999.99 -99999.99
9/24/2021 2:25:00 PM -99999.99 -179968 -99999.99 -99999.99 -99999.99 -99999.99
9/24/2021 2:30:00 PM -99999.99 -179968 -99999.99 -99999.99 -99999.99 -99999.99
9/24/2021 2:35:00 PM -99999.99 -179968 -99999.99 -99999.99 -99999.99 -99999.99
9/24/2021 2:40:00 PM -99999.99 -179968 -99999.99 -99999.99 -99999.99 -99999.99
9/24/2021 2:45:00 PM -99999.99 -179968 -99999.99 -99999.99 -99999.99 -99999.99
9/24/2021 2:50:00 PM -99999.99 -179968 -99999.99 -99999.99 -99999.99 -99999.99
9/24/2021 2:55:00 PM -99999.99 -179968 -99999.99 -99999.99 -99999.99 -99999.99
9/24/2021 3:00:00 PM -99999.99 -179968 -99999.99 -99999.99 -99999.99 -99999.99
9/24/2021 3:05:00 PM -99999.99 -179968 -99999.99 -99999.99 -99999.99 -99999.99
9/24/2021 3:10:00 PM -99999.99 -179968 -99999.99 -99999.99 -99999.99 -99999.99
9/24/2021 3:15:00 PM -99999.99 -179968 -99999.99 -99999.99 -99999.99 -99999.99
9/24/2021 3:20:00 PM -99999.99 -179968 -99999.99 -99999.99 -99999.99 -99999.99
9/24/2021 3:25:00 PM -99999.99 -179968 -99999.99 -99999.99 -99999.99 -99999.99
9/24/2021 3:30:00 PM -99999.99 -179968 -99999.99 -99999.99 -99999.99 -99999.99
9/24/2021 3:35:00 PM -99999.99 -179968 -99999.99 -99999.99 -99999.99 -99999.99
9/24/2021 3:40:00 PM -99999.99 -179968 -99999.99 -99999.99 -99999.99 -99999.99
9/24/2021 3:45:00 PM -99999.99 -179968 -99999.99 -99999.99 -99999.99 -99999.99
9/24/2021 3:50:00 PM -99999.99 -179968 -99999.99 -99999.99 -99999.99 -99999.99
9/24/2021 3:55:00 PM -99999.99 -179968 -99999.99 -99999.99 -99999.99 -99999.99
9/24/2021 4:00:00 PM -99999.99 -179968 -99999.99 -99999.99 -99999.99 -99999.99
9/24/2021 4:05:00 PM -99999.99 -179968 -99999.99 -99999.99 -99999.99 -99999.99
9/24/2021 4:10:00 PM -99999.99 -179968 -99999.99 -99999.99 -99999.99 -99999.99
9/24/2021 4:15:00 PM -99999.99 -179968 -99999.99 -99999.99 -99999.99 -99999.99
9/24/2021 4:20:00 PM -99999.99 -179968 -99999.99 -99999.99 -99999.99 -99999.99
9/24/2021 4:25:00 PM -99999.99 -179968 -99999.99 -99999.99 -99999.99 -99999.99
9/24/2021 4:30:00 PM -99999.99 -179968 -99999.99 -99999.99 -99999.99 -99999.99
9/24/2021 4:35:00 PM -99999.99 -179968 -99999.99 -99999.99 -99999.99 -99999.99
9/24/2021 4:40:00 PM -99999.99 -179968 -99999.99 -99999.99 -99999.99 -99999.99
9/24/2021 4:45:00 PM -99999.99 -179968 -99999.99 -99999.99 -99999.99 -99999.99
9/24/2021 4:50:00 PM -99999.99 -179968 -99999.99 -99999.99 -99999.99 -99999.99
9/24/2021 4:55:00 PM -99999.99 -179968 -99999.99 -99999.99 -99999.99 -99999.99
9/24/2021 5:00:00 PM -99999.99 -179968 -99999.99 -99999.99 -99999.99 -99999.99
9/24/2021 5:05:00 PM -99999.99 -179968 -99999.99 -99999.99 -99999.99 -99999.99
9/24/2021 5:10:00 PM -99999.99 -179968 -99999.99 -99999.99 -99999.99 -99999.99
9/24/2021 5:15:00 PM -99999.99 -179968 -99999.99 -99999.99 -99999.99 -99999.99
9/24/2021 5:20:00 PM -99999.99 -179968 -99999.99 -99999.99 -99999.99 -99999.99
9/24/2021 5:25:00 PM -99999.99 -179968 -99999.99 -99999.99 -99999.99 -99999.99
9/24/2021 5:30:00 PM -99999.99 -179968 -99999.99 -99999.99 -99999.99 -99999.99
9/24/2021 5:35:00 PM -99999.99 -179968 -99999.99 -99999.99 -99999.99 -99999.99
9/24/2021 5:40:00 PM -99999.99 -179968 -99999.99 -99999.99 -99999.99 -99999.99
9/24/2021 5:45:00 PM -99999.99 -179968 -99999.99 -99999.99 -99999.99 -99999.99
9/24/2021 5:50:00 PM -99999.99 -179968 -99999.99 -99999.99 -99999.99 -99999.99
9/24/2021 5:55:00 PM -99999.99 -179968 -99999.99 -99999.99 -99999.99 -99999.99
9/24/2021 6:00:00 PM -99999.99 -179968 -99999.99 -99999.99 -99999.99 -99999.99
9/24/2021 6:05:00 PM -99999.99 -179968 -99999.99 -99999.99 -99999.99 -99999.99
9/24/2021 6:10:00 PM -99999.99 -179968 -99999.99 -99999.99 -99999.99 -99999.99
9/24/2021 6:15:00 PM -99999.99 -179968 -99999.99 -99999.99 -99999.99 -99999.99
9/24/2021 6:20:00 PM -99999.99 -179968 -99999.99 -99999.99 -99999.99 -99999.99
9/24/2021 6:25:00 PM -99999.99 -179968 -99999.99 -99999.99 -99999.99 -99999.99
9/24/2021 6:30:00 PM -99999.99 -179968 -99999.99 -99999.99 -99999.99 -99999.99
9/24/2021 6:35:00 PM -99999.99 -179968 -99999.99 -99999.99 -99999.99 -99999.99
9/24/2021 6:40:00 PM -99999.99 -179968 -99999.99 -99999.99 -99999.99 -99999.99
9/24/2021 6:45:00 PM -99999.99 -179968 -99999.99 -99999.99 -99999.99 -99999.99
9/24/2021 6:50:00 PM -99999.99 -179968 -99999.99 -99999.99 -99999.99 -99999.99
9/24/2021 6:55:00 PM -99999.99 -179968 -99999.99 -99999.99 -99999.99 -99999.99
9/24/2021 7:00:00 PM -99999.99 -179968 -99999.99 -99999.99 -99999.99 -99999.99
9/24/2021 7:05:00 PM -99999.99 -179968 -99999.99 -99999.99 -99999.99 -99999.99
9/24/2021 7:10:00 PM -99999.99 -179968 -99999.99 -99999.99 -99999.99 -99999.99
9/24/2021 7:15:00 PM -99999.99 -179968 -99999.99 -99999.99 -99999.99 -99999.99
9/24/2021 7:20:00 PM -99999.99 -179968 -99999.99 -99999.99 -99999.99 -99999.99
9/24/2021 7:25:00 PM -99999.99 -179968 -99999.99 -99999.99 -99999.99 -99999.99
9/24/2021 7:30:00 PM -99999.99 -179968 -99999.99 -99999.99 -99999.99 -99999.99
9/24/2021 7:35:00 PM -99999.99 -179968 -99999.99 -99999.99 -99999.99 -99999.99
9/24/2021 7:40:00 PM -99999.99 -179968 -99999.99 -99999.99 -99999.99 -99999.99
9/24/2021 7:45:00 PM -99999.99 -179968 -99999.99 -99999.99 -99999.99 -99999.99
9/24/2021 7:50:00 PM -99999.99 -179968 -99999.99 -99999.99 -99999.99 -99999.99
9/24/2021 7:55:00 PM -99999.99 -179968 -99999.99 -99999.99 -99999.99 -99999.99
9/24/2021 8:00:00 PM -99999.99 -179968 -99999.99 -99999.99 -99999.99 -99999.99
9/24/2021 8:05:00 PM -99999.99 -179968 -99999.99 -99999.99 -99999.99 -99999.99
9/24/2021 8:10:00 PM -99999.99 -179968 -99999.99 -99999.99 -99999.99 -99999.99
9/24/2021 8:15:00 PM -99999.99 -179968 -99999.99 -99999.99 -99999.99 -99999.99
9/24/2021 8:20:00 PM -99999.99 -179968 -99999.99 -99999.99 -99999.99 -99999.99
9/24/2021 8:25:00 PM -99999.99 -179968 -99999.99 -99999.99 -99999.99 -99999.99
9/24/2021 8:30:00 PM -99999.99 -179968 -99999.99 -99999.99 -99999.99 -99999.99
9/24/2021 8:35:00 PM -99999.99 -179968 -99999.99 -99999.99 -99999.99 -99999.99
9/24/2021 8:40:00 PM -99999.99 -179968 -99999.99 -99999.99 -99999.99 -99999.99
9/24/2021 8:45:00 PM -99999.99 -179968 -99999.99 -99999.99 -99999.99 -99999.99
9/24/2021 8:50:00 PM -99999.99 -179968 -99999.99 -99999.99 -99999.99 -99999.99
9/24/2021 8:55:00 PM -99999.99 -179968 -99999.99 -99999.99 -99999.99 -99999.99
9/24/2021 9:00:00 PM -99999.99 -179968 -99999.99 -99999.99 -99999.99 -99999.99
9/24/2021 9:05:00 PM -99999.99 -179968 -99999.99 -99999.99 -99999.99 -99999.99
9/24/2021 9:10:00 PM -99999.99 -179968 -99999.99 -99999.99 -99999.99 -99999.99
9/24/2021 9:15:00 PM -99999.99 -179968 -99999.99 -99999.99 -99999.99 -99999.99
9/24/2021 9:20:00 PM -99999.99 -179968 -99999.99 -99999.99 -99999.99 -99999.99
9/24/2021 9:25:00 PM -99999.99 -179968 -99999.99 -99999.99 -99999.99 -99999.99
9/24/2021 9:30:00 PM -99999.99 -179968 -99999.99 -99999.99 -99999.99 -99999.99
9/24/2021 9:35:00 PM -99999.99 -179968 -99999.99 -99999.99 -99999.99 -99999.99
9/24/2021 9:40:00 PM -99999.99 -179968 -99999.99 -99999.99 -99999.99 -99999.99
9/24/2021 9:45:00 PM -99999.99 -179968 -99999.99 -99999.99 -99999.99 -99999.99
9/24/2021 9:50:00 PM -99999.99 -179968 -99999.99 -99999.99 -99999.99 -99999.99
9/24/2021 9:55:00 PM -99999.99 -179968 -99999.99 -99999.99 -99999.99 -99999.99
9/24/2021 10:00:00 PM -99999.99 -179968 -99999.99 -99999.99 -99999.99 -99999.99
9/24/2021 10:05:00 PM -99999.99 -179968 -99999.99 -99999.99 -99999.99 -99999.99
9/24/2021 10:10:00 PM -99999.99 -179968 -99999.99 -99999.99 -99999.99 -99999.99
9/24/2021 10:15:00 PM -99999.99 -179968 -99999.99 -99999.99 -99999.99 -99999.99
9/24/2021 10:20:00 PM -99999.99 -179968 -99999.99 -99999.99 -99999.99 -99999.99
9/24/2021 10:25:00 PM -99999.99 -179968 -99999.99 -99999.99 -99999.99 -99999.99
9/24/2021 10:30:00 PM -99999.99 -179968 -99999.99 -99999.99 -99999.99 -99999.99
9/24/2021 10:35:00 PM -99999.99 -179968 -99999.99 -99999.99 -99999.99 -99999.99
9/24/2021 10:40:00 PM -99999.99 -179968 -99999.99 -99999.99 -99999.99 -99999.99
9/24/2021 10:45:00 PM -99999.99 -179968 -99999.99 -99999.99 -99999.99 -99999.99
9/24/2021 10:50:00 PM -99999.99 -179968 -99999.99 -99999.99 -99999.99 -99999.99
9/24/2021 10:55:00 PM -99999.99 -179968 -99999.99 -99999.99 -99999.99 -99999.99
9/24/2021 11:00:00 PM -99999.99 -179968 -99999.99 -99999.99 -99999.99 -99999.99
9/24/2021 11:05:00 PM -99999.99 -179968 -99999.99 -99999.99 -99999.99 -99999.99
9/24/2021 11:10:00 PM -99999.99 -179968 -99999.99 -99999.99 -99999.99 -99999.99
9/24/2021 11:15:00 PM -99999.99 -179968 -99999.99 -99999.99 -99999.99 -99999.99
9/24/2021 11:20:00 PM -99999.99 -179968 -99999.99 -99999.99 -99999.99 -99999.99
9/24/2021 11:25:00 PM -99999.99 -179968 -99999.99 -99999.99 -99999.99 -99999.99
9/24/2021 11:30:00 PM -99999.99 -179968 -99999.99 -99999.99 -99999.99 -99999.99
9/24/2021 11:35:00 PM -99999.99 -179968 -99999.99 -99999.99 -99999.99 -99999.99
9/24/2021 11:40:00 PM -99999.99 -179968 -99999.99 -99999.99 -99999.99 -99999.99
9/24/2021 11:45:00 PM -99999.99 -179968 -99999.99 -99999.99 -99999.99 -99999.99
9/24/2021 11:50:00 PM -99999.99 -179968 -99999.99 -99999.99 -99999.99 -99999.99
9/24/2021 11:55:00 PM -99999.99 -179968 -99999.99 -99999.99 -99999.99 -99999.99
9/25/2021 12:00:00 AM -99999.99 -179968 -99999.99 -99999.99 -99999.99 -99999.99
9/25/2021 12:05:00 AM -99999.99 -179968 -99999.99 -99999.99 -99999.99 -99999.99
9/25/2021 12:10:00 AM -99999.99 -179968 -99999.99 -99999.99 -99999.99 -99999.99
9/25/2021 12:15:00 AM -99999.99 -179968 -99999.99 -99999.99 -99999.99 -99999.99
9/25/2021 12:20:00 AM -99999.99 -179968 -99999.99 -99999.99 -99999.99 -99999.99
9/25/2021 12:25:00 AM -99999.99 -179968 -99999.99 -99999.99 -99999.99 -99999.99
9/25/2021 12:30:00 AM -99999.99 -179968 -99999.99 -99999.99 -99999.99 -99999.99
9/25/2021 12:35:00 AM -99999.99 -179968 -99999.99 -99999.99 -99999.99 -99999.99
9/25/2021 12:40:00 AM -99999.99 -179968 -99999.99 -99999.99 -99999.99 -99999.99
9/25/2021 12:45:00 AM -99999.99 -179968 -99999.99 -99999.99 -99999.99 -99999.99
9/25/2021 12:50:00 AM -99999.99 -179968 -99999.99 -99999.99 -99999.99 -99999.99
9/25/2021 12:55:00 AM -99999.99 -179968 -99999.99 -99999.99 -99999.99 -99999.99
9/25/2021 1:00:00 AM -99999.99 -179968 -99999.99 -99999.99 -99999.99 -99999.99
9/25/2021 1:05:00 AM -99999.99 -179968 -99999.99 -99999.99 -99999.99 -99999.99
9/25/2021 1:10:00 AM -99999.99 -179968 -99999.99 -99999.99 -99999.99 -99999.99
9/25/2021 1:15:00 AM -99999.99 -179968 -99999.99 -99999.99 -99999.99 -99999.99
9/25/2021 1:20:00 AM -99999.99 -179968 -99999.99 -99999.99 -99999.99 -99999.99
9/25/2021 1:25:00 AM -99999.99 -179968 -99999.99 -99999.99 -99999.99 -99999.99
9/25/2021 1:30:00 AM -99999.99 -179968 -99999.99 -99999.99 -99999.99 -99999.99
9/25/2021 1:35:00 AM -99999.99 -179968 -99999.99 -99999.99 -99999.99 -99999.99
9/25/2021 1:40:00 AM -99999.99 -179968 -99999.99 -99999.99 -99999.99 -99999.99
9/25/2021 1:45:00 AM -99999.99 -179968 -99999.99 -99999.99 -99999.99 -99999.99
9/25/2021 1:50:00 AM -99999.99 -179968 -99999.99 -99999.99 -99999.99 -99999.99
9/25/2021 1:55:00 AM -99999.99 -179968 -99999.99 -99999.99 -99999.99 -99999.99
9/25/2021 2:00:00 AM -99999.99 -179968 -99999.99 -99999.99 -99999.99 -99999.99
9/25/2021 2:05:00 AM -99999.99 -179968 -99999.99 -99999.99 -99999.99 -99999.99
9/25/2021 2:10:00 AM -99999.99 -179968 -99999.99 -99999.99 -99999.99 -99999.99
9/25/2021 2:15:00 AM -99999.99 -179968 -99999.99 -99999.99 -99999.99 -99999.99
9/25/2021 2:20:00 AM -99999.99 -179968 -99999.99 -99999.99 -99999.99 -99999.99
9/25/2021 2:25:00 AM -99999.99 -179968 -99999.99 -99999.99 -99999.99 -99999.99
9/25/2021 2:30:00 AM -99999.99 -179968 -99999.99 -99999.99 -99999.99 -99999.99
9/25/2021 2:35:00 AM -99999.99 -179968 -99999.99 -99999.99 -99999.99 -99999.99
9/25/2021 2:40:00 AM -99999.99 -179968 -99999.99 -99999.99 -99999.99 -99999.99
9/25/2021 2:45:00 AM -99999.99 -179968 -99999.99 -99999.99 -99999.99 -99999.99
9/25/2021 2:50:00 AM -99999.99 -179968 -99999.99 -99999.99 -99999.99 -99999.99
9/25/2021 2:55:00 AM -99999.99 -179968 -99999.99 -99999.99 -99999.99 -99999.99
9/25/2021 3:00:00 AM -99999.99 -179968 -99999.99 -99999.99 -99999.99 -99999.99
9/25/2021 3:05:00 AM -99999.99 -179968 -99999.99 -99999.99 -99999.99 -99999.99
9/25/2021 3:10:00 AM -99999.99 -179968 -99999.99 -99999.99 -99999.99 -99999.99
9/25/2021 3:15:00 AM -99999.99 -179968 -99999.99 -99999.99 -99999.99 -99999.99
9/25/2021 3:20:00 AM -99999.99 -179968 -99999.99 -99999.99 -99999.99 -99999.99
9/25/2021 3:25:00 AM -99999.99 -179968 -99999.99 -99999.99 -99999.99 -99999.99
9/25/2021 3:30:00 AM -99999.99 -179968 -99999.99 -99999.99 -99999.99 -99999.99
9/25/2021 3:35:00 AM -99999.99 -179968 -99999.99 -99999.99 -99999.99 -99999.99
9/25/2021 3:40:00 AM -99999.99 -179968 -99999.99 -99999.99 -99999.99 -99999.99
9/25/2021 3:45:00 AM -99999.99 -179968 -99999.99 -99999.99 -99999.99 -99999.99
9/25/2021 3:50:00 AM -99999.99 -179968 -99999.99 -99999.99 -99999.99 -99999.99
9/25/2021 3:55:00 AM -99999.99 -179968 -99999.99 -99999.99 -99999.99 -99999.99
9/25/2021 4:00:00 AM -99999.99 -179968 -99999.99 -99999.99 -99999.99 -99999.99
9/25/2021 4:05:00 AM -99999.99 -179968 -99999.99 -99999.99 -99999.99 -99999.99
9/25/2021 4:10:00 AM -99999.99 -179968 -99999.99 -99999.99 -99999.99 -99999.99
9/25/2021 4:15:00 AM -99999.99 -179968 -99999.99 -99999.99 -99999.99 -99999.99
9/25/2021 4:20:00 AM -99999.99 -179968 -99999.99 -99999.99 -99999.99 -99999.99
9/25/2021 4:25:00 AM -99999.99 -179968 -99999.99 -99999.99 -99999.99 -99999.99
9/25/2021 4:30:00 AM -99999.99 -179968 -99999.99 -99999.99 -99999.99 -99999.99
9/25/2021 4:35:00 AM -99999.99 -179968 -99999.99 -99999.99 -99999.99 -99999.99
9/25/2021 4:40:00 AM -99999.99 -179968 -99999.99 -99999.99 -99999.99 -99999.99
9/25/2021 4:45:00 AM -99999.99 -179968 -99999.99 -99999.99 -99999.99 -99999.99
9/25/2021 4:50:00 AM -99999.99 -179968 -99999.99 -99999.99 -99999.99 -99999.99
9/25/2021 4:55:00 AM -99999.99 -179968 -99999.99 -99999.99 -99999.99 -99999.99
9/25/2021 5:00:00 AM -99999.99 -179968 -99999.99 -99999.99 -99999.99 -99999.99
9/25/2021 5:05:00 AM -99999.99 -179968 -99999.99 -99999.99 -99999.99 -99999.99
9/25/2021 5:10:00 AM -99999.99 -179968 -99999.99 -99999.99 -99999.99 -99999.99
9/25/2021 5:15:00 AM -99999.99 -179968 -99999.99 -99999.99 -99999.99 -99999.99
9/25/2021 5:20:00 AM -99999.99 -179968 -99999.99 -99999.99 -99999.99 -99999.99
9/25/2021 5:25:00 AM -99999.99 -179968 -99999.99 -99999.99 -99999.99 -99999.99
9/25/2021 5:30:00 AM -99999.99 -179968 -99999.99 -99999.99 -99999.99 -99999.99
9/25/2021 5:35:00 AM -99999.99 -179968 -99999.99 -99999.99 -99999.99 -99999.99
9/25/2021 5:40:00 AM -99999.99 -179968 -99999.99 -99999.99 -99999.99 -99999.99
9/25/2021 5:45:00 AM -99999.99 -179968 -99999.99 -99999.99 -99999.99 -99999.99
9/25/2021 5:50:00 AM -99999.99 -179968 -99999.99 -99999.99 -99999.99 -99999.99
9/25/2021 5:55:00 AM -99999.99 -179968 -99999.99 -99999.99 -99999.99 -99999.99
9/25/2021 6:00:00 AM -99999.99 -179968 -99999.99 -99999.99 -99999.99 -99999.99
9/25/2021 6:05:00 AM -99999.99 -179968 -99999.99 -99999.99 -99999.99 -99999.99
9/25/2021 6:10:00 AM -99999.99 -179968 -99999.99 -99999.99 -99999.99 -99999.99
9/25/2021 6:15:00 AM -99999.99 -179968 -99999.99 -99999.99 -99999.99 -99999.99
9/25/2021 6:20:00 AM -99999.99 -179968 -99999.99 -99999.99 -99999.99 -99999.99
9/25/2021 6:25:00 AM -99999.99 -179968 -99999.99 -99999.99 -99999.99 -99999.99
9/25/2021 6:30:00 AM -99999.99 -179968 -99999.99 -99999.99 -99999.99 -99999.99
9/25/2021 6:35:00 AM -99999.99 -179968 -99999.99 -99999.99 -99999.99 -99999.99
9/25/2021 6:40:00 AM -99999.99 -179968 -99999.99 -99999.99 -99999.99 -99999.99
9/25/2021 6:45:00 AM -99999.99 -179968 -99999.99 -99999.99 -99999.99 -99999.99
9/25/2021 6:50:00 AM -99999.99 -179968 -99999.99 -99999.99 -99999.99 -99999.99
9/25/2021 6:55:00 AM -99999.99 -179968 -99999.99 -99999.99 -99999.99 -99999.99
9/25/2021 7:00:00 AM -99999.99 -179968 -99999.99 -99999.99 -99999.99 -99999.99
9/25/2021 7:05:00 AM -99999.99 -179968 -99999.99 -99999.99 -99999.99 -99999.99
9/25/2021 7:10:00 AM -99999.99 -179968 -99999.99 -99999.99 -99999.99 -99999.99
9/25/2021 7:15:00 AM -99999.99 -179968 -99999.99 -99999.99 -99999.99 -99999.99
9/25/2021 7:20:00 AM -99999.99 -179968 -99999.99 -99999.99 -99999.99 -99999.99
9/25/2021 7:25:00 AM -99999.99 -179968 -99999.99 -99999.99 -99999.99 -99999.99
9/25/2021 7:30:00 AM -99999.99 -179968 -99999.99 -99999.99 -99999.99 -99999.99
9/25/2021 7:35:00 AM -99999.99 -179968 -99999.99 -99999.99 -99999.99 -99999.99
9/25/2021 7:40:00 AM -99999.99 -179968 -99999.99 -99999.99 -99999.99 -99999.99
9/25/2021 7:45:00 AM -99999.99 -179968 -99999.99 -99999.99 -99999.99 -99999.99
9/25/2021 7:50:00 AM -99999.99 -179968 -99999.99 -99999.99 -99999.99 -99999.99
9/25/2021 7:55:00 AM -99999.99 -179968 -99999.99 -99999.99 -99999.99 -99999.99
9/25/2021 8:00:00 AM -99999.99 -179968 -99999.99 -99999.99 -99999.99 -99999.99
9/25/2021 8:05:00 AM -99999.99 -179968 -99999.99 -99999.99 -99999.99 -99999.99
9/25/2021 8:10:00 AM -99999.99 -179968 -99999.99 -99999.99 -99999.99 -99999.99
9/25/2021 8:15:00 AM -99999.99 -179968 -99999.99 -99999.99 -99999.99 -99999.99
9/25/2021 8:20:00 AM -99999.99 -179968 -99999.99 -99999.99 -99999.99 -99999.99
9/25/2021 8:25:00 AM -99999.99 -179968 -99999.99 -99999.99 -99999.99 -99999.99
9/25/2021 8:30:00 AM -99999.99 -179968 -99999.99 -99999.99 -99999.99 -99999.99
9/25/2021 8:35:00 AM -99999.99 -179968 -99999.99 -99999.99 -99999.99 -99999.99
9/25/2021 8:40:00 AM -99999.99 -179968 -99999.99 -99999.99 -99999.99 -99999.99
9/25/2021 8:45:00 AM -99999.99 -179968 -99999.99 -99999.99 -99999.99 -99999.99
9/25/2021 8:50:00 AM -99999.99 -179968 -99999.99 -99999.99 -99999.99 -99999.99
9/25/2021 8:55:00 AM -99999.99 -179968 -99999.99 -99999.99 -99999.99 -99999.99
9/25/2021 9:00:00 AM -99999.99 -179968 -99999.99 -99999.99 -99999.99 -99999.99
9/25/2021 9:05:00 AM -99999.99 -179968 -99999.99 -99999.99 -99999.99 -99999.99
9/25/2021 9:10:00 AM -99999.99 -179968 -99999.99 -99999.99 -99999.99 -99999.99
9/25/2021 9:15:00 AM -99999.99 -179968 -99999.99 -99999.99 -99999.99 -99999.99
9/25/2021 9:20:00 AM -99999.99 -179968 -99999.99 -99999.99 -99999.99 -99999.99
9/25/2021 9:25:00 AM -99999.99 -179968 -99999.99 -99999.99 -99999.99 -99999.99
9/25/2021 9:30:00 AM -99999.99 -179968 -99999.99 -99999.99 -99999.99 -99999.99
9/25/2021 9:35:00 AM -99999.99 -179968 -99999.99 -99999.99 -99999.99 -99999.99
9/25/2021 9:40:00 AM -99999.99 -179968 -99999.99 -99999.99 -99999.99 -99999.99
9/25/2021 9:45:00 AM -99999.99 -179968 -99999.99 -99999.99 -99999.99 -99999.99
9/25/2021 9:50:00 AM -99999.99 -179968 -99999.99 -99999.99 -99999.99 -99999.99
9/25/2021 9:55:00 AM -99999.99 -179968 -99999.99 -99999.99 -99999.99 -99999.99
9/25/2021 10:00:00 AM -99999.99 -179968 -99999.99 -99999.99 -99999.99 -99999.99
9/25/2021 10:05:00 AM -99999.99 -179968 -99999.99 -99999.99 -99999.99 -99999.99
9/25/2021 10:10:00 AM -99999.99 -179968 -99999.99 -99999.99 -99999.99 -99999.99
9/25/2021 10:15:00 AM -99999.99 -179968 -99999.99 -99999.99 -99999.99 -99999.99
9/25/2021 10:20:00 AM -99999.99 -179968 -99999.99 -99999.99 -99999.99 -99999.99
9/25/2021 10:25:00 AM -99999.99 -179968 -99999.99 -99999.99 -99999.99 -99999.99
9/25/2021 10:30:00 AM -99999.99 -179968 -99999.99 -99999.99 -99999.99 -99999.99
9/25/2021 10:35:00 AM -99999.99 -179968 -99999.99 -99999.99 -99999.99 -99999.99
9/25/2021 10:40:00 AM -99999.99 -179968 -99999.99 -99999.99 -99999.99 -99999.99
9/25/2021 10:45:00 AM -99999.99 -179968 -99999.99 -99999.99 -99999.99 -99999.99
9/25/2021 10:50:00 AM -99999.99 -179968 -99999.99 -99999.99 -99999.99 -99999.99
9/25/2021 10:55:00 AM -99999.99 -179968 -99999.99 -99999.99 -99999.99 -99999.99
9/25/2021 11:00:00 AM -99999.99 -179968 -99999.99 -99999.99 -99999.99 -99999.99
9/25/2021 11:05:00 AM -99999.99 -179968 -99999.99 -99999.99 -99999.99 -99999.99
9/25/2021 11:10:00 AM -99999.99 -179968 -99999.99 -99999.99 -99999.99 -99999.99
9/25/2021 11:15:00 AM -99999.99 -179968 -99999.99 -99999.99 -99999.99 -99999.99
9/25/2021 11:20:00 AM -99999.99 -179968 -99999.99 -99999.99 -99999.99 -99999.99
9/25/2021 11:25:00 AM -99999.99 -179968 -99999.99 -99999.99 -99999.99 -99999.99
9/25/2021 11:30:00 AM -99999.99 -179968 -99999.99 -99999.99 -99999.99 -99999.99
9/25/2021 11:35:00 AM -99999.99 -179968 -99999.99 -99999.99 -99999.99 -99999.99
9/25/2021 11:40:00 AM -99999.99 -179968 -99999.99 -99999.99 -99999.99 -99999.99
9/25/2021 11:45:00 AM -99999.99 -179968 -99999.99 -99999.99 -99999.99 -99999.99
9/25/2021 11:50:00 AM -99999.99 -179968 -99999.99 -99999.99 -99999.99 -99999.99
9/25/2021 11:55:00 AM -99999.99 -179968 -99999.99 -99999.99 -99999.99 -99999.99
9/25/2021 12:00:00 PM -99999.99 -179968 -99999.99 -99999.99 -99999.99 -99999.99
9/25/2021 12:05:00 PM -99999.99 -179968 -99999.99 -99999.99 -99999.99 -99999.99
9/25/2021 12:10:00 PM -99999.99 -179968 -99999.99 -99999.99 -99999.99 -99999.99
9/25/2021 12:15:00 PM -99999.99 -179968 -99999.99 -99999.99 -99999.99 -99999.99
9/25/2021 12:20:00 PM -99999.99 -179968 -99999.99 -99999.99 -99999.99 -99999.99
9/25/2021 12:25:00 PM -99999.99 -179968 -99999.99 -99999.99 -99999.99 -99999.99
9/25/2021 12:30:00 PM -99999.99 -179968 -99999.99 -99999.99 -99999.99 -99999.99
9/25/2021 12:35:00 PM -99999.99 -179968 -99999.99 -99999.99 -99999.99 -99999.99
9/25/2021 12:40:00 PM -99999.99 -179968 -99999.99 -99999.99 -99999.99 -99999.99
9/25/2021 12:45:00 PM -99999.99 -179968 -99999.99 -99999.99 -99999.99 -99999.99
9/25/2021 12:50:00 PM -99999.99 -179968 -99999.99 -99999.99 -99999.99 -99999.99
9/25/2021 12:55:00 PM -99999.99 -179968 -99999.99 -99999.99 -99999.99 -99999.99
9/25/2021 1:00:00 PM -99999.99 -179968 -99999.99 -99999.99 -99999.99 -99999.99
9/25/2021 1:05:00 PM -99999.99 -179968 -99999.99 -99999.99 -99999.99 -99999.99
9/25/2021 1:10:00 PM -99999.99 -179968 -99999.99 -99999.99 -99999.99 -99999.99
9/25/2021 1:15:00 PM -99999.99 -179968 -99999.99 -99999.99 -99999.99 -99999.99
9/25/2021 1:20:00 PM -99999.99 -179968 -99999.99 -99999.99 -99999.99 -99999.99
9/25/2021 1:25:00 PM -99999.99 -179968 -99999.99 -99999.99 -99999.99 -99999.99
9/25/2021 1:30:00 PM -99999.99 -179968 -99999.99 -99999.99 -99999.99 -99999.99
9/25/2021 1:35:00 PM -99999.99 -179968 -99999.99 -99999.99 -99999.99 -99999.99
9/25/2021 1:40:00 PM -99999.99 -179968 -99999.99 -99999.99 -99999.99 -99999.99
9/25/2021 1:45:00 PM -99999.99 -179968 -99999.99 -99999.99 -99999.99 -99999.99
9/25/2021 1:50:00 PM -99999.99 -179968 -99999.99 -99999.99 -99999.99 -99999.99
9/25/2021 1:55:00 PM -99999.99 -179968 -99999.99 -99999.99 -99999.99 -99999.99
9/25/2021 2:00:00 PM -99999.99 -179968 -99999.99 -99999.99 -99999.99 -99999.99
9/25/2021 2:05:00 PM -99999.99 -179968 -99999.99 -99999.99 -99999.99 -99999.99
9/25/2021 2:10:00 PM -99999.99 -179968 -99999.99 -99999.99 -99999.99 -99999.99
9/25/2021 2:15:00 PM -99999.99 -179968 -99999.99 -99999.99 -99999.99 -99999.99
9/25/2021 2:20:00 PM -99999.99 -179968 -99999.99 -99999.99 -99999.99 -99999.99
9/25/2021 2:25:00 PM -99999.99 -179968 -99999.99 -99999.99 -99999.99 -99999.99
9/25/2021 2:30:00 PM -99999.99 -179968 -99999.99 -99999.99 -99999.99 -99999.99
9/25/2021 2:35:00 PM -99999.99 -179968 -99999.99 -99999.99 -99999.99 -99999.99
9/25/2021 2:40:00 PM -99999.99 -179968 -99999.99 -99999.99 -99999.99 -99999.99
9/25/2021 2:45:00 PM -99999.99 -179968 -99999.99 -99999.99 -99999.99 -99999.99
9/25/2021 2:50:00 PM -99999.99 -179968 -99999.99 -99999.99 -99999.99 -99999.99
9/25/2021 2:55:00 PM -99999.99 -179968 -99999.99 -99999.99 -99999.99 -99999.99
9/25/2021 3:00:00 PM -99999.99 -179968 -99999.99 -99999.99 -99999.99 -99999.99
9/25/2021 3:05:00 PM -99999.99 -179968 -99999.99 -99999.99 -99999.99 -99999.99
9/25/2021 3:10:00 PM -99999.99 -179968 -99999.99 -99999.99 -99999.99 -99999.99
9/25/2021 3:15:00 PM -99999.99 -179968 -99999.99 -99999.99 -99999.99 -99999.99
9/25/2021 3:20:00 PM -99999.99 -179968 -99999.99 -99999.99 -99999.99 -99999.99
9/25/2021 3:25:00 PM -99999.99 -179968 -99999.99 -99999.99 -99999.99 -99999.99
9/25/2021 3:30:00 PM -99999.99 -179968 -99999.99 -99999.99 -99999.99 -99999.99
9/25/2021 3:35:00 PM -99999.99 -179968 -99999.99 -99999.99 -99999.99 -99999.99
9/25/2021 3:40:00 PM -99999.99 -179968 -99999.99 -99999.99 -99999.99 -99999.99
9/25/2021 3:45:00 PM -99999.99 -179968 -99999.99 -99999.99 -99999.99 -99999.99
9/25/2021 3:50:00 PM -99999.99 -179968 -99999.99 -99999.99 -99999.99 -99999.99
9/25/2021 3:55:00 PM -99999.99 -179968 -99999.99 -99999.99 -99999.99 -99999.99
9/25/2021 4:00:00 PM -99999.99 -179968 -99999.99 -99999.99 -99999.99 -99999.99
9/25/2021 4:05:00 PM -99999.99 -179968 -99999.99 -99999.99 -99999.99 -99999.99
9/25/2021 4:10:00 PM -99999.99 -179968 -99999.99 -99999.99 -99999.99 -99999.99
9/25/2021 4:15:00 PM -99999.99 -179968 -99999.99 -99999.99 -99999.99 -99999.99
9/25/2021 4:20:00 PM -99999.99 -179968 -99999.99 -99999.99 -99999.99 -99999.99
9/25/2021 4:25:00 PM -99999.99 -179968 -99999.99 -99999.99 -99999.99 -99999.99
9/25/2021 4:30:00 PM -99999.99 -179968 -99999.99 -99999.99 -99999.99 -99999.99
9/25/2021 4:35:00 PM -99999.99 -179968 -99999.99 -99999.99 -99999.99 -99999.99
9/25/2021 4:40:00 PM -99999.99 -179968 -99999.99 -99999.99 -99999.99 -99999.99
9/25/2021 4:45:00 PM -99999.99 -179968 -99999.99 -99999.99 -99999.99 -99999.99
9/25/2021 4:50:00 PM -99999.99 -179968 -99999.99 -99999.99 -99999.99 -99999.99
9/25/2021 4:55:00 PM -99999.99 -179968 -99999.99 -99999.99 -99999.99 -99999.99
9/25/2021 5:00:00 PM -99999.99 -179968 -99999.99 -99999.99 -99999.99 -99999.99
9/25/2021 5:05:00 PM -99999.99 -179968 -99999.99 -99999.99 -99999.99 -99999.99
9/25/2021 5:10:00 PM -99999.99 -179968 -99999.99 -99999.99 -99999.99 -99999.99
9/25/2021 5:15:00 PM -99999.99 -179968 -99999.99 -99999.99 -99999.99 -99999.99
9/25/2021 5:20:00 PM -99999.99 -179968 -99999.99 -99999.99 -99999.99 -99999.99
9/25/2021 5:25:00 PM -99999.99 -179968 -99999.99 -99999.99 -99999.99 -99999.99
9/25/2021 5:30:00 PM -99999.99 -179968 -99999.99 -99999.99 -99999.99 -99999.99
9/25/2021 5:35:00 PM -99999.99 -179968 -99999.99 -99999.99 -99999.99 -99999.99
9/25/2021 5:40:00 PM -99999.99 -179968 -99999.99 -99999.99 -99999.99 -99999.99
9/25/2021 5:45:00 PM -99999.99 -179968 -99999.99 -99999.99 -99999.99 -99999.99
9/25/2021 5:50:00 PM -99999.99 -179968 -99999.99 -99999.99 -99999.99 -99999.99
9/25/2021 5:55:00 PM -99999.99 -179968 -99999.99 -99999.99 -99999.99 -99999.99
9/25/2021 6:00:00 PM -99999.99 -179968 -99999.99 -99999.99 -99999.99 -99999.99
9/25/2021 6:05:00 PM -99999.99 -179968 -99999.99 -99999.99 -99999.99 -99999.99
9/25/2021 6:10:00 PM -99999.99 -179968 -99999.99 -99999.99 -99999.99 -99999.99
9/25/2021 6:15:00 PM -99999.99 -179968 -99999.99 -99999.99 -99999.99 -99999.99
9/25/2021 6:20:00 PM -99999.99 -179968 -99999.99 -99999.99 -99999.99 -99999.99
9/25/2021 6:25:00 PM -99999.99 -179968 -99999.99 -99999.99 -99999.99 -99999.99
9/25/2021 6:30:00 PM -99999.99 -179968 -99999.99 -99999.99 -99999.99 -99999.99
9/25/2021 6:35:00 PM -99999.99 -179968 -99999.99 -99999.99 -99999.99 -99999.99
9/25/2021 6:40:00 PM -99999.99 -179968 -99999.99 -99999.99 -99999.99 -99999.99
9/25/2021 6:45:00 PM -99999.99 -179968 -99999.99 -99999.99 -99999.99 -99999.99
9/25/2021 6:50:00 PM -99999.99 -179968 -99999.99 -99999.99 -99999.99 -99999.99
9/25/2021 6:55:00 PM -99999.99 -179968 -99999.99 -99999.99 -99999.99 -99999.99
9/25/2021 7:00:00 PM -99999.99 -179968 -99999.99 -99999.99 -99999.99 -99999.99
9/25/2021 7:05:00 PM -99999.99 -179968 -99999.99 -99999.99 -99999.99 -99999.99
9/25/2021 7:10:00 PM -99999.99 -179968 -99999.99 -99999.99 -99999.99 -99999.99
9/25/2021 7:15:00 PM -99999.99 -179968 -99999.99 -99999.99 -99999.99 -99999.99
9/25/2021 7:20:00 PM -99999.99 -179968 -99999.99 -99999.99 -99999.99 -99999.99
9/25/2021 7:25:00 PM -99999.99 -179968 -99999.99 -99999.99 -99999.99 -99999.99
9/25/2021 7:30:00 PM -99999.99 -179968 -99999.99 -99999.99 -99999.99 -99999.99
9/25/2021 7:35:00 PM -99999.99 -179968 -99999.99 -99999.99 -99999.99 -99999.99
9/25/2021 7:40:00 PM -99999.99 -179968 -99999.99 -99999.99 -99999.99 -99999.99
9/25/2021 7:45:00 PM -99999.99 -179968 -99999.99 -99999.99 -99999.99 -99999.99
9/25/2021 7:50:00 PM -99999.99 -179968 -99999.99 -99999.99 -99999.99 -99999.99
9/25/2021 7:55:00 PM -99999.99 -179968 -99999.99 -99999.99 -99999.99 -99999.99
9/25/2021 8:00:00 PM -99999.99 -179968 -99999.99 -99999.99 -99999.99 -99999.99
9/25/2021 8:05:00 PM -99999.99 -179968 -99999.99 -99999.99 -99999.99 -99999.99
9/25/2021 8:10:00 PM -99999.99 -179968 -99999.99 -99999.99 -99999.99 -99999.99
9/25/2021 8:15:00 PM -99999.99 -179968 -99999.99 -99999.99 -99999.99 -99999.99
9/25/2021 8:20:00 PM -99999.99 -179968 -99999.99 -99999.99 -99999.99 -99999.99
9/25/2021 8:25:00 PM -99999.99 -179968 -99999.99 -99999.99 -99999.99 -99999.99
9/25/2021 8:30:00 PM -99999.99 -179968 -99999.99 -99999.99 -99999.99 -99999.99
9/25/2021 8:35:00 PM -99999.99 -179968 -99999.99 -99999.99 -99999.99 -99999.99
9/25/2021 8:40:00 PM -99999.99 -179968 -99999.99 -99999.99 -99999.99 -99999.99
9/25/2021 8:45:00 PM -99999.99 -179968 -99999.99 -99999.99 -99999.99 -99999.99
9/25/2021 8:50:00 PM -99999.99 -179968 -99999.99 -99999.99 -99999.99 -99999.99
9/25/2021 8:55:00 PM -99999.99 -179968 -99999.99 -99999.99 -99999.99 -99999.99
9/25/2021 9:00:00 PM -99999.99 -179968 -99999.99 -99999.99 -99999.99 -99999.99
9/25/2021 9:05:00 PM -99999.99 -179968 -99999.99 -99999.99 -99999.99 -99999.99
9/25/2021 9:10:00 PM -99999.99 -179968 -99999.99 -99999.99 -99999.99 -99999.99
9/25/2021 9:15:00 PM -99999.99 -179968 -99999.99 -99999.99 -99999.99 -99999.99
9/25/2021 9:20:00 PM -99999.99 -179968 -99999.99 -99999.99 -99999.99 -99999.99
9/25/2021 9:25:00 PM -99999.99 -179968 -99999.99 -99999.99 -99999.99 -99999.99
9/25/2021 9:30:00 PM -99999.99 -179968 -99999.99 -99999.99 -99999.99 -99999.99
9/25/2021 9:35:00 PM -99999.99 -179968 -99999.99 -99999.99 -99999.99 -99999.99
9/25/2021 9:40:00 PM -99999.99 -179968 -99999.99 -99999.99 -99999.99 -99999.99
9/25/2021 9:45:00 PM -99999.99 -179968 -99999.99 -99999.99 -99999.99 -99999.99
9/25/2021 9:50:00 PM -99999.99 -179968 -99999.99 -99999.99 -99999.99 -99999.99
9/25/2021 9:55:00 PM -99999.99 -179968 -99999.99 -99999.99 -99999.99 -99999.99
9/25/2021 10:00:00 PM -99999.99 -179968 -99999.99 -99999.99 -99999.99 -99999.99
9/25/2021 10:05:00 PM -99999.99 -179968 -99999.99 -99999.99 -99999.99 -99999.99
9/25/2021 10:10:00 PM -99999.99 -179968 -99999.99 -99999.99 -99999.99 -99999.99
9/25/2021 10:15:00 PM -99999.99 -179968 -99999.99 -99999.99 -99999.99 -99999.99
9/25/2021 10:20:00 PM -99999.99 -179968 -99999.99 -99999.99 -99999.99 -99999.99
9/25/2021 10:25:00 PM -99999.99 -179968 -99999.99 -99999.99 -99999.99 -99999.99
9/25/2021 10:30:00 PM -99999.99 -179968 -99999.99 -99999.99 -99999.99 -99999.99
9/25/2021 10:35:00 PM -99999.99 -179968 -99999.99 -99999.99 -99999.99 -99999.99
9/25/2021 10:40:00 PM -99999.99 -179968 -99999.99 -99999.99 -99999.99 -99999.99
9/25/2021 10:45:00 PM -99999.99 -179968 -99999.99 -99999.99 -99999.99 -99999.99
9/25/2021 10:50:00 PM -99999.99 -179968 -99999.99 -99999.99 -99999.99 -99999.99
9/25/2021 10:55:00 PM -99999.99 -179968 -99999.99 -99999.99 -99999.99 -99999.99
9/25/2021 11:00:00 PM -99999.99 -179968 -99999.99 -99999.99 -99999.99 -99999.99
9/25/2021 11:05:00 PM -99999.99 -179968 -99999.99 -99999.99 -99999.99 -99999.99
9/25/2021 11:10:00 PM -99999.99 -179968 -99999.99 -99999.99 -99999.99 -99999.99
9/25/2021 11:15:00 PM -99999.99 -179968 -99999.99 -99999.99 -99999.99 -99999.99
9/25/2021 11:20:00 PM -99999.99 -179968 -99999.99 -99999.99 -99999.99 -99999.99
9/25/2021 11:25:00 PM -99999.99 -179968 -99999.99 -99999.99 -99999.99 -99999.99
9/25/2021 11:30:00 PM -99999.99 -179968 -99999.99 -99999.99 -99999.99 -99999.99
9/25/2021 11:35:00 PM -99999.99 -179968 -99999.99 -99999.99 -99999.99 -99999.99
9/25/2021 11:40:00 PM -99999.99 -179968 -99999.99 -99999.99 -99999.99 -99999.99
9/25/2021 11:45:00 PM -99999.99 -179968 -99999.99 -99999.99 -99999.99 -99999.99
9/25/2021 11:50:00 PM -99999.99 -179968 -99999.99 -99999.99 -99999.99 -99999.99
9/25/2021 11:55:00 PM -99999.99 -179968 -99999.99 -99999.99 -99999.99 -99999.99
9/26/2021 12:00:00 AM -99999.99 -179968 -99999.99 -99999.99 -99999.99 -99999.99
9/26/2021 12:05:00 AM -99999.99 -179968 -99999.99 -99999.99 -99999.99 -99999.99
9/26/2021 12:10:00 AM -99999.99 -179968 -99999.99 -99999.99 -99999.99 -99999.99
9/26/2021 12:15:00 AM -99999.99 -179968 -99999.99 -99999.99 -99999.99 -99999.99
9/26/2021 12:20:00 AM -99999.99 -179968 -99999.99 -99999.99 -99999.99 -99999.99
9/26/2021 12:25:00 AM -99999.99 -179968 -99999.99 -99999.99 -99999.99 -99999.99
9/26/2021 12:30:00 AM -99999.99 -179968 -99999.99 -99999.99 -99999.99 -99999.99
9/26/2021 12:35:00 AM -99999.99 -179968 -99999.99 -99999.99 -99999.99 -99999.99
9/26/2021 12:40:00 AM -99999.99 -179968 -99999.99 -99999.99 -99999.99 -99999.99
9/26/2021 12:45:00 AM -99999.99 -179968 -99999.99 -99999.99 -99999.99 -99999.99
9/26/2021 12:50:00 AM -99999.99 -179968 -99999.99 -99999.99 -99999.99 -99999.99
9/26/2021 12:55:00 AM -99999.99 -179968 -99999.99 -99999.99 -99999.99 -99999.99
9/26/2021 1:00:00 AM -99999.99 -179968 -99999.99 -99999.99 -99999.99 -99999.99
9/26/2021 1:05:00 AM -99999.99 -179968 -99999.99 -99999.99 -99999.99 -99999.99
9/26/2021 1:10:00 AM -99999.99 -179968 -99999.99 -99999.99 -99999.99 -99999.99
9/26/2021 1:15:00 AM -99999.99 -179968 -99999.99 -99999.99 -99999.99 -99999.99
9/26/2021 1:20:00 AM -99999.99 -179968 -99999.99 -99999.99 -99999.99 -99999.99
9/26/2021 1:25:00 AM -99999.99 -179968 -99999.99 -99999.99 -99999.99 -99999.99
9/26/2021 1:30:00 AM -99999.99 -179968 -99999.99 -99999.99 -99999.99 -99999.99
9/26/2021 1:35:00 AM -99999.99 -179968 -99999.99 -99999.99 -99999.99 -99999.99
9/26/2021 1:40:00 AM -99999.99 -179968 -99999.99 -99999.99 -99999.99 -99999.99
9/26/2021 1:45:00 AM -99999.99 -179968 -99999.99 -99999.99 -99999.99 -99999.99
9/26/2021 1:50:00 AM -99999.99 -179968 -99999.99 -99999.99 -99999.99 -99999.99
9/26/2021 1:55:00 AM -99999.99 -179968 -99999.99 -99999.99 -99999.99 -99999.99
9/26/2021 2:00:00 AM -99999.99 -179968 -99999.99 -99999.99 -99999.99 -99999.99
9/26/2021 2:05:00 AM -99999.99 -179968 -99999.99 -99999.99 -99999.99 -99999.99
9/26/2021 2:10:00 AM -99999.99 -179968 -99999.99 -99999.99 -99999.99 -99999.99
9/26/2021 2:15:00 AM -99999.99 -179968 -99999.99 -99999.99 -99999.99 -99999.99
9/26/2021 2:20:00 AM -99999.99 -179968 -99999.99 -99999.99 -99999.99 -99999.99
9/26/2021 2:25:00 AM -99999.99 -179968 -99999.99 -99999.99 -99999.99 -99999.99
9/26/2021 2:30:00 AM -99999.99 -179968 -99999.99 -99999.99 -99999.99 -99999.99
9/26/2021 2:35:00 AM -99999.99 -179968 -99999.99 -99999.99 -99999.99 -99999.99
9/26/2021 2:40:00 AM -99999.99 -179968 -99999.99 -99999.99 -99999.99 -99999.99
9/26/2021 2:45:00 AM -99999.99 -179968 -99999.99 -99999.99 -99999.99 -99999.99
9/26/2021 2:50:00 AM -99999.99 -179968 -99999.99 -99999.99 -99999.99 -99999.99
9/26/2021 2:55:00 AM -99999.99 -179968 -99999.99 -99999.99 -99999.99 -99999.99
9/26/2021 3:00:00 AM -99999.99 -179968 -99999.99 -99999.99 -99999.99 -99999.99
9/26/2021 3:05:00 AM -99999.99 -179968 -99999.99 -99999.99 -99999.99 -99999.99
9/26/2021 3:10:00 AM -99999.99 -179968 -99999.99 -99999.99 -99999.99 -99999.99
9/26/2021 3:15:00 AM -99999.99 -179968 -99999.99 -99999.99 -99999.99 -99999.99
9/26/2021 3:20:00 AM -99999.99 -179968 -99999.99 -99999.99 -99999.99 -99999.99
9/26/2021 3:25:00 AM -99999.99 -179968 -99999.99 -99999.99 -99999.99 -99999.99
9/26/2021 3:30:00 AM -99999.99 -179968 -99999.99 -99999.99 -99999.99 -99999.99
9/26/2021 3:35:00 AM -99999.99 -179968 -99999.99 -99999.99 -99999.99 -99999.99
9/26/2021 3:40:00 AM -99999.99 -179968 -99999.99 -99999.99 -99999.99 -99999.99
9/26/2021 3:45:00 AM -99999.99 -179968 -99999.99 -99999.99 -99999.99 -99999.99
9/26/2021 3:50:00 AM -99999.99 -179968 -99999.99 -99999.99 -99999.99 -99999.99
9/26/2021 3:55:00 AM -99999.99 -179968 -99999.99 -99999.99 -99999.99 -99999.99
9/26/2021 4:00:00 AM -99999.99 -179968 -99999.99 -99999.99 -99999.99 -99999.99
9/26/2021 4:05:00 AM -99999.99 -179968 -99999.99 -99999.99 -99999.99 -99999.99
9/26/2021 4:10:00 AM -99999.99 -179968 -99999.99 -99999.99 -99999.99 -99999.99
9/26/2021 4:15:00 AM -99999.99 -179968 -99999.99 -99999.99 -99999.99 -99999.99
9/26/2021 4:20:00 AM -99999.99 -179968 -99999.99 -99999.99 -99999.99 -99999.99
9/26/2021 4:25:00 AM -99999.99 -179968 -99999.99 -99999.99 -99999.99 -99999.99
9/26/2021 4:30:00 AM -99999.99 -179968 -99999.99 -99999.99 -99999.99 -99999.99
9/26/2021 4:35:00 AM -99999.99 -179968 -99999.99 -99999.99 -99999.99 -99999.99
9/26/2021 4:40:00 AM -99999.99 -179968 -99999.99 -99999.99 -99999.99 -99999.99
9/26/2021 4:45:00 AM -99999.99 -179968 -99999.99 -99999.99 -99999.99 -99999.99
9/26/2021 4:50:00 AM -99999.99 -179968 -99999.99 -99999.99 -99999.99 -99999.99
9/26/2021 4:55:00 AM -99999.99 -179968 -99999.99 -99999.99 -99999.99 -99999.99
9/26/2021 5:00:00 AM -99999.99 -179968 -99999.99 -99999.99 -99999.99 -99999.99
9/26/2021 5:05:00 AM -99999.99 -179968 -99999.99 -99999.99 -99999.99 -99999.99
9/26/2021 5:10:00 AM -99999.99 -179968 -99999.99 -99999.99 -99999.99 -99999.99
9/26/2021 5:15:00 AM -99999.99 -179968 -99999.99 -99999.99 -99999.99 -99999.99
9/26/2021 5:20:00 AM -99999.99 -179968 -99999.99 -99999.99 -99999.99 -99999.99
9/26/2021 5:25:00 AM -99999.99 -179968 -99999.99 -99999.99 -99999.99 -99999.99
9/26/2021 5:30:00 AM -99999.99 -179968 -99999.99 -99999.99 -99999.99 -99999.99
9/26/2021 5:35:00 AM -99999.99 -179968 -99999.99 -99999.99 -99999.99 -99999.99
9/26/2021 5:40:00 AM -99999.99 -179968 -99999.99 -99999.99 -99999.99 -99999.99
9/26/2021 5:45:00 AM -99999.99 -179968 -99999.99 -99999.99 -99999.99 -99999.99
9/26/2021 5:50:00 AM -99999.99 -179968 -99999.99 -99999.99 -99999.99 -99999.99
9/26/2021 5:55:00 AM -99999.99 -179968 -99999.99 -99999.99 -99999.99 -99999.99
9/26/2021 6:00:00 AM -99999.99 -179968 -99999.99 -99999.99 -99999.99 -99999.99
9/26/2021 6:05:00 AM -99999.99 -179968 -99999.99 -99999.99 -99999.99 -99999.99
9/26/2021 6:10:00 AM -99999.99 -179968 -99999.99 -99999.99 -99999.99 -99999.99
9/26/2021 6:15:00 AM -99999.99 -179968 -99999.99 -99999.99 -99999.99 -99999.99
9/26/2021 6:20:00 AM -99999.99 -179968 -99999.99 -99999.99 -99999.99 -99999.99
9/26/2021 6:25:00 AM -99999.99 -179968 -99999.99 -99999.99 -99999.99 -99999.99
9/26/2021 6:30:00 AM -99999.99 -179968 -99999.99 -99999.99 -99999.99 -99999.99
9/26/2021 6:35:00 AM -99999.99 -179968 -99999.99 -99999.99 -99999.99 -99999.99
9/26/2021 6:40:00 AM -99999.99 -179968 -99999.99 -99999.99 -99999.99 -99999.99
9/26/2021 6:45:00 AM -99999.99 -179968 -99999.99 -99999.99 -99999.99 -99999.99
9/26/2021 6:50:00 AM -99999.99 -179968 -99999.99 -99999.99 -99999.99 -99999.99
9/26/2021 6:55:00 AM -99999.99 -179968 -99999.99 -99999.99 -99999.99 -99999.99
9/26/2021 7:00:00 AM -99999.99 -179968 -99999.99 -99999.99 -99999.99 -99999.99
9/26/2021 7:05:00 AM -99999.99 -179968 -99999.99 -99999.99 -99999.99 -99999.99
9/26/2021 7:10:00 AM -99999.99 -179968 -99999.99 -99999.99 -99999.99 -99999.99
9/26/2021 7:15:00 AM -99999.99 -179968 -99999.99 -99999.99 -99999.99 -99999.99
9/26/2021 7:20:00 AM -99999.99 -179968 -99999.99 -99999.99 -99999.99 -99999.99
9/26/2021 7:25:00 AM -99999.99 -179968 -99999.99 -99999.99 -99999.99 -99999.99
9/26/2021 7:30:00 AM -99999.99 -179968 -99999.99 -99999.99 -99999.99 -99999.99
9/26/2021 7:35:00 AM -99999.99 -179968 -99999.99 -99999.99 -99999.99 -99999.99
9/26/2021 7:40:00 AM -99999.99 -179968 -99999.99 -99999.99 -99999.99 -99999.99
9/26/2021 7:45:00 AM -99999.99 -179968 -99999.99 -99999.99 -99999.99 -99999.99
9/26/2021 7:50:00 AM -99999.99 -179968 -99999.99 -99999.99 -99999.99 -99999.99
9/26/2021 7:55:00 AM -99999.99 -179968 -99999.99 -99999.99 -99999.99 -99999.99
9/26/2021 8:00:00 AM -99999.99 -179968 -99999.99 -99999.99 -99999.99 -99999.99
9/26/2021 8:05:00 AM -99999.99 -179968 -99999.99 -99999.99 -99999.99 -99999.99
9/26/2021 8:10:00 AM -99999.99 -179968 -99999.99 -99999.99 -99999.99 -99999.99
9/26/2021 8:15:00 AM -99999.99 -179968 -99999.99 -99999.99 -99999.99 -99999.99
9/26/2021 8:20:00 AM -99999.99 -179968 -99999.99 -99999.99 -99999.99 -99999.99
9/26/2021 8:25:00 AM -99999.99 -179968 -99999.99 -99999.99 -99999.99 -99999.99
9/26/2021 8:30:00 AM -99999.99 -179968 -99999.99 -99999.99 -99999.99 -99999.99
9/26/2021 8:35:00 AM -99999.99 -179968 -99999.99 -99999.99 -99999.99 -99999.99
9/26/2021 8:40:00 AM -99999.99 -179968 -99999.99 -99999.99 -99999.99 -99999.99
9/26/2021 8:45:00 AM -99999.99 -179968 -99999.99 -99999.99 -99999.99 -99999.99
9/26/2021 8:50:00 AM -99999.99 -179968 -99999.99 -99999.99 -99999.99 -99999.99
9/26/2021 8:55:00 AM -99999.99 -179968 -99999.99 -99999.99 -99999.99 -99999.99
9/26/2021 9:00:00 AM -99999.99 -179968 -99999.99 -99999.99 -99999.99 -99999.99
9/26/2021 9:05:00 AM -99999.99 -179968 -99999.99 -99999.99 -99999.99 -99999.99
9/26/2021 9:10:00 AM -99999.99 -179968 -99999.99 -99999.99 -99999.99 -99999.99
9/26/2021 9:15:00 AM -99999.99 -179968 -99999.99 -99999.99 -99999.99 -99999.99
9/26/2021 9:20:00 AM -99999.99 -179968 -99999.99 -99999.99 -99999.99 -99999.99
9/26/2021 9:25:00 AM -99999.99 -179968 -99999.99 -99999.99 -99999.99 -99999.99
9/26/2021 9:30:00 AM -99999.99 -179968 -99999.99 -99999.99 -99999.99 -99999.99
9/26/2021 9:35:00 AM -99999.99 -179968 -99999.99 -99999.99 -99999.99 -99999.99
9/26/2021 9:40:00 AM -99999.99 -179968 -99999.99 -99999.99 -99999.99 -99999.99
9/26/2021 9:45:00 AM -99999.99 -179968 -99999.99 -99999.99 -99999.99 -99999.99
9/26/2021 9:50:00 AM -99999.99 -179968 -99999.99 -99999.99 -99999.99 -99999.99
9/26/2021 9:55:00 AM -99999.99 -179968 -99999.99 -99999.99 -99999.99 -99999.99
9/26/2021 10:00:00 AM -99999.99 -179968 -99999.99 -99999.99 -99999.99 -99999.99
9/26/2021 10:05:00 AM -99999.99 -179968 -99999.99 -99999.99 -99999.99 -99999.99
9/26/2021 10:10:00 AM -99999.99 -179968 -99999.99 -99999.99 -99999.99 -99999.99
9/26/2021 10:15:00 AM -99999.99 -179968 -99999.99 -99999.99 -99999.99 -99999.99
9/26/2021 10:20:00 AM -99999.99 -179968 -99999.99 -99999.99 -99999.99 -99999.99
9/26/2021 10:25:00 AM -99999.99 -179968 -99999.99 -99999.99 -99999.99 -99999.99
9/26/2021 10:30:00 AM -99999.99 -179968 -99999.99 -99999.99 -99999.99 -99999.99
9/26/2021 10:35:00 AM -99999.99 -179968 -99999.99 -99999.99 -99999.99 -99999.99
9/26/2021 10:40:00 AM -99999.99 -179968 -99999.99 -99999.99 -99999.99 -99999.99
9/26/2021 10:45:00 AM -99999.99 -179968 -99999.99 -99999.99 -99999.99 -99999.99
9/26/2021 10:50:00 AM -99999.99 -179968 -99999.99 -99999.99 -99999.99 -99999.99
9/26/2021 10:55:00 AM -99999.99 -179968 -99999.99 -99999.99 -99999.99 -99999.99
9/26/2021 11:00:00 AM -99999.99 -179968 -99999.99 -99999.99 -99999.99 -99999.99
9/26/2021 11:05:00 AM -99999.99 -179968 -99999.99 -99999.99 -99999.99 -99999.99
9/26/2021 11:10:00 AM -99999.99 -179968 -99999.99 -99999.99 -99999.99 -99999.99
9/26/2021 11:15:00 AM -99999.99 -179968 -99999.99 -99999.99 -99999.99 -99999.99
9/26/2021 11:20:00 AM -99999.99 -179968 -99999.99 -99999.99 -99999.99 -99999.99
9/26/2021 11:25:00 AM -99999.99 -179968 -99999.99 -99999.99 -99999.99 -99999.99
9/26/2021 11:30:00 AM -99999.99 -179968 -99999.99 -99999.99 -99999.99 -99999.99
9/26/2021 11:35:00 AM -99999.99 -179968 -99999.99 -99999.99 -99999.99 -99999.99
9/26/2021 11:40:00 AM -99999.99 -179968 -99999.99 -99999.99 -99999.99 -99999.99
9/26/2021 11:45:00 AM -99999.99 -179968 -99999.99 -99999.99 -99999.99 -99999.99
9/26/2021 11:50:00 AM -99999.99 -179968 -99999.99 -99999.99 -99999.99 -99999.99
9/26/2021 11:55:00 AM -99999.99 -179968 -99999.99 -99999.99 -99999.99 -99999.99
9/26/2021 12:00:00 PM -99999.99 -179968 -99999.99 -99999.99 -99999.99 -99999.99
9/26/2021 12:05:00 PM -99999.99 -179968 -99999.99 -99999.99 -99999.99 -99999.99
9/26/2021 12:10:00 PM -99999.99 -179968 -99999.99 -99999.99 -99999.99 -99999.99
9/26/2021 12:15:00 PM -99999.99 -179968 -99999.99 -99999.99 -99999.99 -99999.99
9/26/2021 12:20:00 PM -99999.99 -179968 -99999.99 -99999.99 -99999.99 -99999.99
9/26/2021 12:25:00 PM -99999.99 -179968 -99999.99 -99999.99 -99999.99 -99999.99
9/26/2021 12:30:00 PM -99999.99 -179968 -99999.99 -99999.99 -99999.99 -99999.99
9/26/2021 12:35:00 PM -99999.99 -179968 -99999.99 -99999.99 -99999.99 -99999.99
9/26/2021 12:40:00 PM -99999.99 -179968 -99999.99 -99999.99 -99999.99 -99999.99
9/26/2021 12:45:00 PM -99999.99 -179968 -99999.99 -99999.99 -99999.99 -99999.99
9/26/2021 12:50:00 PM -99999.99 -179968 -99999.99 -99999.99 -99999.99 -99999.99
9/26/2021 12:55:00 PM -99999.99 -179968 -99999.99 -99999.99 -99999.99 -99999.99
9/26/2021 1:00:00 PM -99999.99 -179968 -99999.99 -99999.99 -99999.99 -99999.99
9/26/2021 1:05:00 PM -99999.99 -179968 -99999.99 -99999.99 -99999.99 -99999.99
9/26/2021 1:10:00 PM -99999.99 -179968 -99999.99 -99999.99 -99999.99 -99999.99
9/26/2021 1:15:00 PM -99999.99 -179968 -99999.99 -99999.99 -99999.99 -99999.99
9/26/2021 1:20:00 PM -99999.99 -179968 -99999.99 -99999.99 -99999.99 -99999.99
9/26/2021 1:25:00 PM -99999.99 -179968 -99999.99 -99999.99 -99999.99 -99999.99
9/26/2021 1:30:00 PM -99999.99 -179968 -99999.99 -99999.99 -99999.99 -99999.99
9/26/2021 1:35:00 PM -99999.99 -179968 -99999.99 -99999.99 -99999.99 -99999.99
9/26/2021 1:40:00 PM -99999.99 -179968 -99999.99 -99999.99 -99999.99 -99999.99
9/26/2021 1:45:00 PM -99999.99 -179968 -99999.99 -99999.99 -99999.99 -99999.99
9/26/2021 1:50:00 PM -99999.99 -179968 -99999.99 -99999.99 -99999.99 -99999.99
9/26/2021 1:55:00 PM -99999.99 -179968 -99999.99 -99999.99 -99999.99 -99999.99
9/26/2021 2:00:00 PM -99999.99 -179968 -99999.99 -99999.99 -99999.99 -99999.99
9/26/2021 2:05:00 PM -99999.99 -179968 -99999.99 -99999.99 -99999.99 -99999.99
9/26/2021 2:10:00 PM -99999.99 -179968 -99999.99 -99999.99 -99999.99 -99999.99
9/26/2021 2:15:00 PM -99999.99 -179968 -99999.99 -99999.99 -99999.99 -99999.99
9/26/2021 2:20:00 PM -99999.99 -179968 -99999.99 -99999.99 -99999.99 -99999.99
9/26/2021 2:25:00 PM -99999.99 -179968 -99999.99 -99999.99 -99999.99 -99999.99
9/26/2021 2:30:00 PM -99999.99 -179968 -99999.99 -99999.99 -99999.99 -99999.99
9/26/2021 2:35:00 PM -99999.99 -179968 -99999.99 -99999.99 -99999.99 -99999.99
9/26/2021 2:40:00 PM -99999.99 -179968 -99999.99 -99999.99 -99999.99 -99999.99
9/26/2021 2:45:00 PM -99999.99 -179968 -99999.99 -99999.99 -99999.99 -99999.99
9/26/2021 2:50:00 PM -99999.99 -179968 -99999.99 -99999.99 -99999.99 -99999.99
9/26/2021 2:55:00 PM -99999.99 -179968 -99999.99 -99999.99 -99999.99 -99999.99
9/26/2021 3:00:00 PM -99999.99 -179968 -99999.99 -99999.99 -99999.99 -99999.99
9/26/2021 3:05:00 PM -99999.99 -179968 -99999.99 -99999.99 -99999.99 -99999.99
9/26/2021 3:10:00 PM -99999.99 -179968 -99999.99 -99999.99 -99999.99 -99999.99
9/26/2021 3:15:00 PM -99999.99 -179968 -99999.99 -99999.99 -99999.99 -99999.99
9/26/2021 3:20:00 PM -99999.99 -179968 -99999.99 -99999.99 -99999.99 -99999.99
9/26/2021 3:25:00 PM -99999.99 -179968 -99999.99 -99999.99 -99999.99 -99999.99
9/26/2021 3:30:00 PM -99999.99 -179968 -99999.99 -99999.99 -99999.99 -99999.99
9/26/2021 3:35:00 PM -99999.99 -179968 -99999.99 -99999.99 -99999.99 -99999.99
9/26/2021 3:40:00 PM -99999.99 -179968 -99999.99 -99999.99 -99999.99 -99999.99
9/26/2021 3:45:00 PM -99999.99 -179968 -99999.99 -99999.99 -99999.99 -99999.99
9/26/2021 3:50:00 PM -99999.99 -179968 -99999.99 -99999.99 -99999.99 -99999.99
9/26/2021 3:55:00 PM -99999.99 -179968 -99999.99 -99999.99 -99999.99 -99999.99
9/26/2021 4:00:00 PM -99999.99 -179968 -99999.99 -99999.99 -99999.99 -99999.99
9/26/2021 4:05:00 PM -99999.99 -179968 -99999.99 -99999.99 -99999.99 -99999.99
9/26/2021 4:10:00 PM -99999.99 -179968 -99999.99 -99999.99 -99999.99 -99999.99
9/26/2021 4:15:00 PM -99999.99 -179968 -99999.99 -99999.99 -99999.99 -99999.99
9/26/2021 4:20:00 PM -99999.99 -179968 -99999.99 -99999.99 -99999.99 -99999.99
9/26/2021 4:25:00 PM -99999.99 -179968 -99999.99 -99999.99 -99999.99 -99999.99
9/26/2021 4:30:00 PM -99999.99 -179968 -99999.99 -99999.99 -99999.99 -99999.99
9/26/2021 4:35:00 PM -99999.99 -179968 -99999.99 -99999.99 -99999.99 -99999.99
9/26/2021 4:40:00 PM -99999.99 -179968 -99999.99 -99999.99 -99999.99 -99999.99
9/26/2021 4:45:00 PM -99999.99 -179968 -99999.99 -99999.99 -99999.99 -99999.99
9/26/2021 4:50:00 PM -99999.99 -179968 -99999.99 -99999.99 -99999.99 -99999.99
9/26/2021 4:55:00 PM -99999.99 -179968 -99999.99 -99999.99 -99999.99 -99999.99
9/26/2021 5:00:00 PM -99999.99 -179968 -99999.99 -99999.99 -99999.99 -99999.99
9/26/2021 5:05:00 PM -99999.99 -179968 -99999.99 -99999.99 -99999.99 -99999.99
9/26/2021 5:10:00 PM -99999.99 -179968 -99999.99 -99999.99 -99999.99 -99999.99
9/26/2021 5:15:00 PM -99999.99 -179968 -99999.99 -99999.99 -99999.99 -99999.99
9/26/2021 5:20:00 PM -99999.99 -179968 -99999.99 -99999.99 -99999.99 -99999.99
9/26/2021 5:25:00 PM -99999.99 -179968 -99999.99 -99999.99 -99999.99 -99999.99
9/26/2021 5:30:00 PM -99999.99 -179968 -99999.99 -99999.99 -99999.99 -99999.99
9/26/2021 5:35:00 PM -99999.99 -179968 -99999.99 -99999.99 -99999.99 -99999.99
9/26/2021 5:40:00 PM -99999.99 -179968 -99999.99 -99999.99 -99999.99 -99999.99
9/26/2021 5:45:00 PM -99999.99 -179968 -99999.99 -99999.99 -99999.99 -99999.99
9/26/2021 5:50:00 PM -99999.99 -179968 -99999.99 -99999.99 -99999.99 -99999.99
9/26/2021 5:55:00 PM -99999.99 -179968 -99999.99 -99999.99 -99999.99 -99999.99
9/26/2021 6:00:00 PM -99999.99 -179968 -99999.99 -99999.99 -99999.99 -99999.99
9/26/2021 6:05:00 PM -99999.99 -179968 -99999.99 -99999.99 -99999.99 -99999.99
9/26/2021 6:10:00 PM -99999.99 -179968 -99999.99 -99999.99 -99999.99 -99999.99
9/26/2021 6:15:00 PM -99999.99 -179968 -99999.99 -99999.99 -99999.99 -99999.99
9/26/2021 6:20:00 PM -99999.99 -179968 -99999.99 -99999.99 -99999.99 -99999.99
9/26/2021 6:25:00 PM -99999.99 -179968 -99999.99 -99999.99 -99999.99 -99999.99
9/26/2021 6:30:00 PM -99999.99 -179968 -99999.99 -99999.99 -99999.99 -99999.99
9/26/2021 6:35:00 PM -99999.99 -179968 -99999.99 -99999.99 -99999.99 -99999.99
9/26/2021 6:40:00 PM -99999.99 -179968 -99999.99 -99999.99 -99999.99 -99999.99
9/26/2021 6:45:00 PM -99999.99 -179968 -99999.99 -99999.99 -99999.99 -99999.99
9/26/2021 6:50:00 PM -99999.99 -179968 -99999.99 -99999.99 -99999.99 -99999.99
9/26/2021 6:55:00 PM -99999.99 -179968 -99999.99 -99999.99 -99999.99 -99999.99
9/26/2021 7:00:00 PM -99999.99 -179968 -99999.99 -99999.99 -99999.99 -99999.99
9/26/2021 7:05:00 PM -99999.99 -179968 -99999.99 -99999.99 -99999.99 -99999.99
9/26/2021 7:10:00 PM -99999.99 -179968 -99999.99 -99999.99 -99999.99 -99999.99
9/26/2021 7:15:00 PM -99999.99 -179968 -99999.99 -99999.99 -99999.99 -99999.99
9/26/2021 7:20:00 PM -99999.99 -179968 -99999.99 -99999.99 -99999.99 -99999.99
9/26/2021 7:25:00 PM -99999.99 -179968 -99999.99 -99999.99 -99999.99 -99999.99
9/26/2021 7:30:00 PM -99999.99 -179968 -99999.99 -99999.99 -99999.99 -99999.99
9/26/2021 7:35:00 PM -99999.99 -179968 -99999.99 -99999.99 -99999.99 -99999.99
9/26/2021 7:40:00 PM -99999.99 -179968 -99999.99 -99999.99 -99999.99 -99999.99
9/26/2021 7:45:00 PM -99999.99 -179968 -99999.99 -99999.99 -99999.99 -99999.99
9/26/2021 7:50:00 PM -99999.99 -179968 -99999.99 -99999.99 -99999.99 -99999.99
9/26/2021 7:55:00 PM -99999.99 -179968 -99999.99 -99999.99 -99999.99 -99999.99
9/26/2021 8:00:00 PM -99999.99 -179968 -99999.99 -99999.99 -99999.99 -99999.99
9/26/2021 8:05:00 PM -99999.99 -179968 -99999.99 -99999.99 -99999.99 -99999.99
9/26/2021 8:10:00 PM -99999.99 -179968 -99999.99 -99999.99 -99999.99 -99999.99
9/26/2021 8:15:00 PM -99999.99 -179968 -99999.99 -99999.99 -99999.99 -99999.99
9/26/2021 8:20:00 PM -99999.99 -179968 -99999.99 -99999.99 -99999.99 -99999.99
9/26/2021 8:25:00 PM -99999.99 -179968 -99999.99 -99999.99 -99999.99 -99999.99
9/26/2021 8:30:00 PM -99999.99 -179968 -99999.99 -99999.99 -99999.99 -99999.99
9/26/2021 8:35:00 PM -99999.99 -179968 -99999.99 -99999.99 -99999.99 -99999.99
9/26/2021 8:40:00 PM -99999.99 -179968 -99999.99 -99999.99 -99999.99 -99999.99
9/26/2021 8:45:00 PM -99999.99 -179968 -99999.99 -99999.99 -99999.99 -99999.99
9/26/2021 8:50:00 PM -99999.99 -179968 -99999.99 -99999.99 -99999.99 -99999.99
9/26/2021 8:55:00 PM -99999.99 -179968 -99999.99 -99999.99 -99999.99 -99999.99
9/26/2021 9:00:00 PM -99999.99 -179968 -99999.99 -99999.99 -99999.99 -99999.99
9/26/2021 9:05:00 PM -99999.99 -179968 -99999.99 -99999.99 -99999.99 -99999.99
9/26/2021 9:10:00 PM -99999.99 -179968 -99999.99 -99999.99 -99999.99 -99999.99
9/26/2021 9:15:00 PM -99999.99 -179968 -99999.99 -99999.99 -99999.99 -99999.99
9/26/2021 9:20:00 PM -99999.99 -179968 -99999.99 -99999.99 -99999.99 -99999.99
9/26/2021 9:25:00 PM -99999.99 -179968 -99999.99 -99999.99 -99999.99 -99999.99
9/26/2021 9:30:00 PM -99999.99 -179968 -99999.99 -99999.99 -99999.99 -99999.99
9/26/2021 9:35:00 PM -99999.99 -179968 -99999.99 -99999.99 -99999.99 -99999.99
9/26/2021 9:40:00 PM -99999.99 -179968 -99999.99 -99999.99 -99999.99 -99999.99
9/26/2021 9:45:00 PM -99999.99 -179968 -99999.99 -99999.99 -99999.99 -99999.99
9/26/2021 9:50:00 PM -99999.99 -179968 -99999.99 -99999.99 -99999.99 -99999.99
9/26/2021 9:55:00 PM -99999.99 -179968 -99999.99 -99999.99 -99999.99 -99999.99
9/26/2021 10:00:00 PM -99999.99 -179968 -99999.99 -99999.99 -99999.99 -99999.99
9/26/2021 10:05:00 PM -99999.99 -179968 -99999.99 -99999.99 -99999.99 -99999.99
9/26/2021 10:10:00 PM -99999.99 -179968 -99999.99 -99999.99 -99999.99 -99999.99
9/26/2021 10:15:00 PM -99999.99 -179968 -99999.99 -99999.99 -99999.99 -99999.99
9/26/2021 10:20:00 PM -99999.99 -179968 -99999.99 -99999.99 -99999.99 -99999.99
9/26/2021 10:25:00 PM -99999.99 -179968 -99999.99 -99999.99 -99999.99 -99999.99
9/26/2021 10:30:00 PM -99999.99 -179968 -99999.99 -99999.99 -99999.99 -99999.99
9/26/2021 10:35:00 PM -99999.99 -179968 -99999.99 -99999.99 -99999.99 -99999.99
9/26/2021 10:40:00 PM -99999.99 -179968 -99999.99 -99999.99 -99999.99 -99999.99
9/26/2021 10:45:00 PM -99999.99 -179968 -99999.99 -99999.99 -99999.99 -99999.99
9/26/2021 10:50:00 PM -99999.99 -179968 -99999.99 -99999.99 -99999.99 -99999.99
9/26/2021 10:55:00 PM -99999.99 -179968 -99999.99 -99999.99 -99999.99 -99999.99
9/26/2021 11:00:00 PM -99999.99 -179968 -99999.99 -99999.99 -99999.99 -99999.99
9/26/2021 11:05:00 PM -99999.99 -179968 -99999.99 -99999.99 -99999.99 -99999.99
9/26/2021 11:10:00 PM -99999.99 -179968 -99999.99 -99999.99 -99999.99 -99999.99
9/26/2021 11:15:00 PM -99999.99 -179968 -99999.99 -99999.99 -99999.99 -99999.99
9/26/2021 11:20:00 PM -99999.99 -179968 -99999.99 -99999.99 -99999.99 -99999.99
9/26/2021 11:25:00 PM -99999.99 -179968 -99999.99 -99999.99 -99999.99 -99999.99
9/26/2021 11:30:00 PM -99999.99 -179968 -99999.99 -99999.99 -99999.99 -99999.99
9/26/2021 11:35:00 PM -99999.99 -179968 -99999.99 -99999.99 -99999.99 -99999.99
9/26/2021 11:40:00 PM -99999.99 -179968 -99999.99 -99999.99 -99999.99 -99999.99
9/26/2021 11:45:00 PM -99999.99 -179968 -99999.99 -99999.99 -99999.99 -99999.99
9/26/2021 11:50:00 PM -99999.99 -179968 -99999.99 -99999.99 -99999.99 -99999.99
9/26/2021 11:55:00 PM -99999.99 -179968 -99999.99 -99999.99 -99999.99 -99999.99
9/27/2021 12:00:00 AM -99999.99 -179968 -99999.99 -99999.99 -99999.99 -99999.99
9/27/2021 12:05:00 AM -99999.99 -179968 -99999.99 -99999.99 -99999.99 -99999.99
9/27/2021 12:10:00 AM -99999.99 -179968 -99999.99 -99999.99 -99999.99 -99999.99
9/27/2021 12:15:00 AM -99999.99 -179968 -99999.99 -99999.99 -99999.99 -99999.99
9/27/2021 12:20:00 AM -99999.99 -179968 -99999.99 -99999.99 -99999.99 -99999.99
9/27/2021 12:25:00 AM -99999.99 -179968 -99999.99 -99999.99 -99999.99 -99999.99
9/27/2021 12:30:00 AM -99999.99 -179968 -99999.99 -99999.99 -99999.99 -99999.99
9/27/2021 12:35:00 AM -99999.99 -179968 -99999.99 -99999.99 -99999.99 -99999.99
9/27/2021 12:40:00 AM -99999.99 -179968 -99999.99 -99999.99 -99999.99 -99999.99
9/27/2021 12:45:00 AM -99999.99 -179968 -99999.99 -99999.99 -99999.99 -99999.99
9/27/2021 12:50:00 AM -99999.99 -179968 -99999.99 -99999.99 -99999.99 -99999.99
9/27/2021 12:55:00 AM -99999.99 -179968 -99999.99 -99999.99 -99999.99 -99999.99
9/27/2021 1:00:00 AM -99999.99 -179968 -99999.99 -99999.99 -99999.99 -99999.99
9/27/2021 1:05:00 AM -99999.99 -179968 -99999.99 -99999.99 -99999.99 -99999.99
9/27/2021 1:10:00 AM -99999.99 -179968 -99999.99 -99999.99 -99999.99 -99999.99
9/27/2021 1:15:00 AM -99999.99 -179968 -99999.99 -99999.99 -99999.99 -99999.99
9/27/2021 1:20:00 AM -99999.99 -179968 -99999.99 -99999.99 -99999.99 -99999.99
9/27/2021 1:25:00 AM -99999.99 -179968 -99999.99 -99999.99 -99999.99 -99999.99
9/27/2021 1:30:00 AM -99999.99 -179968 -99999.99 -99999.99 -99999.99 -99999.99
9/27/2021 1:35:00 AM -99999.99 -179968 -99999.99 -99999.99 -99999.99 -99999.99
9/27/2021 1:40:00 AM -99999.99 -179968 -99999.99 -99999.99 -99999.99 -99999.99
9/27/2021 1:45:00 AM -99999.99 -179968 -99999.99 -99999.99 -99999.99 -99999.99
9/27/2021 1:50:00 AM -99999.99 -179968 -99999.99 -99999.99 -99999.99 -99999.99
9/27/2021 1:55:00 AM -99999.99 -179968 -99999.99 -99999.99 -99999.99 -99999.99
9/27/2021 2:00:00 AM -99999.99 -179968 -99999.99 -99999.99 -99999.99 -99999.99
9/27/2021 2:05:00 AM -99999.99 -179968 -99999.99 -99999.99 -99999.99 -99999.99
9/27/2021 2:10:00 AM -99999.99 -179968 -99999.99 -99999.99 -99999.99 -99999.99
9/27/2021 2:15:00 AM -99999.99 -179968 -99999.99 -99999.99 -99999.99 -99999.99
9/27/2021 2:20:00 AM -99999.99 -179968 -99999.99 -99999.99 -99999.99 -99999.99
9/27/2021 2:25:00 AM -99999.99 -179968 -99999.99 -99999.99 -99999.99 -99999.99
9/27/2021 2:30:00 AM -99999.99 -179968 -99999.99 -99999.99 -99999.99 -99999.99
9/27/2021 2:35:00 AM -99999.99 -179968 -99999.99 -99999.99 -99999.99 -99999.99
9/27/2021 2:40:00 AM -99999.99 -179968 -99999.99 -99999.99 -99999.99 -99999.99
9/27/2021 2:45:00 AM -99999.99 -179968 -99999.99 -99999.99 -99999.99 -99999.99
9/27/2021 2:50:00 AM -99999.99 -179968 -99999.99 -99999.99 -99999.99 -99999.99
9/27/2021 2:55:00 AM -99999.99 -179968 -99999.99 -99999.99 -99999.99 -99999.99
9/27/2021 3:00:00 AM -99999.99 -179968 -99999.99 -99999.99 -99999.99 -99999.99
9/27/2021 3:05:00 AM -99999.99 -179968 -99999.99 -99999.99 -99999.99 -99999.99
9/27/2021 3:10:00 AM -99999.99 -179968 -99999.99 -99999.99 -99999.99 -99999.99
9/27/2021 3:15:00 AM -99999.99 -179968 -99999.99 -99999.99 -99999.99 -99999.99
9/27/2021 3:20:00 AM -99999.99 -179968 -99999.99 -99999.99 -99999.99 -99999.99
9/27/2021 3:25:00 AM -99999.99 -179968 -99999.99 -99999.99 -99999.99 -99999.99
9/27/2021 3:30:00 AM -99999.99 -179968 -99999.99 -99999.99 -99999.99 -99999.99
9/27/2021 3:35:00 AM -99999.99 -179968 -99999.99 -99999.99 -99999.99 -99999.99
9/27/2021 3:40:00 AM -99999.99 -179968 -99999.99 -99999.99 -99999.99 -99999.99
9/27/2021 3:45:00 AM -99999.99 -179968 -99999.99 -99999.99 -99999.99 -99999.99
9/27/2021 3:50:00 AM -99999.99 -179968 -99999.99 -99999.99 -99999.99 -99999.99
9/27/2021 3:55:00 AM -99999.99 -179968 -99999.99 -99999.99 -99999.99 -99999.99
9/27/2021 4:00:00 AM -99999.99 -179968 -99999.99 -99999.99 -99999.99 -99999.99
9/27/2021 4:05:00 AM -99999.99 -179968 -99999.99 -99999.99 -99999.99 -99999.99
9/27/2021 4:10:00 AM -99999.99 -179968 -99999.99 -99999.99 -99999.99 -99999.99
9/27/2021 4:15:00 AM -99999.99 -179968 -99999.99 -99999.99 -99999.99 -99999.99
9/27/2021 4:20:00 AM -99999.99 -179968 -99999.99 -99999.99 -99999.99 -99999.99
9/27/2021 4:25:00 AM -99999.99 -179968 -99999.99 -99999.99 -99999.99 -99999.99
9/27/2021 4:30:00 AM -99999.99 -179968 -99999.99 -99999.99 -99999.99 -99999.99
9/27/2021 4:35:00 AM -99999.99 -179968 -99999.99 -99999.99 -99999.99 -99999.99
9/27/2021 4:40:00 AM -99999.99 -179968 -99999.99 -99999.99 -99999.99 -99999.99
9/27/2021 4:45:00 AM -99999.99 -179968 -99999.99 -99999.99 -99999.99 -99999.99
9/27/2021 4:50:00 AM -99999.99 -179968 -99999.99 -99999.99 -99999.99 -99999.99
9/27/2021 4:55:00 AM -99999.99 -179968 -99999.99 -99999.99 -99999.99 -99999.99
9/27/2021 5:00:00 AM -99999.99 -179968 -99999.99 -99999.99 -99999.99 -99999.99
9/27/2021 5:05:00 AM -99999.99 -179968 -99999.99 -99999.99 -99999.99 -99999.99
9/27/2021 5:10:00 AM -99999.99 -179968 -99999.99 -99999.99 -99999.99 -99999.99
9/27/2021 5:15:00 AM -99999.99 -179968 -99999.99 -99999.99 -99999.99 -99999.99
9/27/2021 5:20:00 AM -99999.99 -179968 -99999.99 -99999.99 -99999.99 -99999.99
9/27/2021 5:25:00 AM -99999.99 -179968 -99999.99 -99999.99 -99999.99 -99999.99
9/27/2021 5:30:00 AM -99999.99 -179968 -99999.99 -99999.99 -99999.99 -99999.99
9/27/2021 5:35:00 AM -99999.99 -179968 -99999.99 -99999.99 -99999.99 -99999.99
9/27/2021 5:40:00 AM -99999.99 -179968 -99999.99 -99999.99 -99999.99 -99999.99
9/27/2021 5:45:00 AM -99999.99 -179968 -99999.99 -99999.99 -99999.99 -99999.99
9/27/2021 5:50:00 AM -99999.99 -179968 -99999.99 -99999.99 -99999.99 -99999.99
9/27/2021 5:55:00 AM -99999.99 -179968 -99999.99 -99999.99 -99999.99 -99999.99
9/27/2021 6:00:00 AM -99999.99 -179968 -99999.99 -99999.99 -99999.99 -99999.99
9/27/2021 6:05:00 AM -99999.99 -179968 -99999.99 -99999.99 -99999.99 -99999.99
9/27/2021 6:10:00 AM -99999.99 -179968 -99999.99 -99999.99 -99999.99 -99999.99
9/27/2021 6:15:00 AM -99999.99 -179968 -99999.99 -99999.99 -99999.99 -99999.99
9/27/2021 6:20:00 AM -99999.99 -179968 -99999.99 -99999.99 -99999.99 -99999.99
9/27/2021 6:25:00 AM -99999.99 -179968 -99999.99 -99999.99 -99999.99 -99999.99
9/27/2021 6:30:00 AM -99999.99 -179968 -99999.99 -99999.99 -99999.99 -99999.99
9/27/2021 6:35:00 AM -99999.99 -179968 -99999.99 -99999.99 -99999.99 -99999.99
9/27/2021 6:40:00 AM -99999.99 -179968 -99999.99 -99999.99 -99999.99 -99999.99
9/27/2021 6:45:00 AM -99999.99 -179968 -99999.99 -99999.99 -99999.99 -99999.99
9/27/2021 6:50:00 AM -99999.99 -179968 -99999.99 -99999.99 -99999.99 -99999.99
9/27/2021 6:55:00 AM -99999.99 -179968 -99999.99 -99999.99 -99999.99 -99999.99
9/27/2021 7:00:00 AM -99999.99 -179968 -99999.99 -99999.99 -99999.99 -99999.99
9/27/2021 7:05:00 AM -99999.99 -179968 -99999.99 -99999.99 -99999.99 -99999.99
9/27/2021 7:10:00 AM -99999.99 -179968 -99999.99 -99999.99 -99999.99 -99999.99
9/27/2021 7:15:00 AM -99999.99 -179968 -99999.99 -99999.99 -99999.99 -99999.99
9/27/2021 7:20:00 AM -99999.99 -179968 -99999.99 -99999.99 -99999.99 -99999.99
9/27/2021 7:25:00 AM -99999.99 -179968 -99999.99 -99999.99 -99999.99 -99999.99
9/27/2021 7:30:00 AM -99999.99 -179968 -99999.99 -99999.99 -99999.99 -99999.99
9/27/2021 7:35:00 AM -99999.99 -179968 -99999.99 -99999.99 -99999.99 -99999.99
9/27/2021 7:40:00 AM -99999.99 -179968 -99999.99 -99999.99 -99999.99 -99999.99
9/27/2021 7:45:00 AM -99999.99 -179968 -99999.99 -99999.99 -99999.99 -99999.99
9/27/2021 7:50:00 AM -99999.99 -179968 -99999.99 -99999.99 -99999.99 -99999.99
9/27/2021 7:55:00 AM -99999.99 -179968 -99999.99 -99999.99 -99999.99 -99999.99
9/27/2021 8:00:00 AM -99999.99 -179968 -99999.99 -99999.99 -99999.99 -99999.99
9/27/2021 8:05:00 AM -99999.99 -179968 -99999.99 -99999.99 -99999.99 -99999.99
9/27/2021 8:10:00 AM -99999.99 -179968 -99999.99 -99999.99 -99999.99 -99999.99
9/27/2021 8:15:00 AM -99999.99 -179968 -99999.99 -99999.99 -99999.99 -99999.99
9/27/2021 8:20:00 AM -99999.99 -179968 -99999.99 -99999.99 -99999.99 -99999.99
9/27/2021 8:25:00 AM -99999.99 -179968 -99999.99 -99999.99 -99999.99 -99999.99
9/27/2021 8:30:00 AM -99999.99 -179968 -99999.99 -99999.99 -99999.99 -99999.99
9/27/2021 8:35:00 AM -99999.99 -179968 -99999.99 -99999.99 -99999.99 -99999.99
9/27/2021 8:40:00 AM -99999.99 -179968 -99999.99 -99999.99 -99999.99 -99999.99
9/27/2021 8:45:00 AM -99999.99 -179968 -99999.99 -99999.99 -99999.99 -99999.99
9/27/2021 8:50:00 AM -99999.99 -179968 -99999.99 -99999.99 -99999.99 -99999.99
9/27/2021 8:55:00 AM -99999.99 -179968 -99999.99 -99999.99 -99999.99 -99999.99
9/27/2021 9:00:00 AM -99999.99 -179968 -99999.99 -99999.99 -99999.99 -99999.99
9/27/2021 9:05:00 AM -99999.99 -179968 -99999.99 -99999.99 -99999.99 -99999.99
9/27/2021 9:10:00 AM -99999.99 -179968 -99999.99 -99999.99 -99999.99 -99999.99
9/27/2021 9:15:00 AM -99999.99 -179968 -99999.99 -99999.99 -99999.99 -99999.99
9/27/2021 9:20:00 AM -99999.99 -179968 -99999.99 -99999.99 -99999.99 -99999.99
9/27/2021 9:25:00 AM -99999.99 -179968 -99999.99 -99999.99 -99999.99 -99999.99
9/27/2021 9:30:00 AM -99999.99 -179968 -99999.99 -99999.99 -99999.99 -99999.99
9/27/2021 9:35:00 AM -99999.99 -179968 -99999.99 -99999.99 -99999.99 -99999.99
9/27/2021 9:40:00 AM -99999.99 -179968 -99999.99 -99999.99 -99999.99 -99999.99
9/27/2021 9:45:00 AM -99999.99 -179968 -99999.99 -99999.99 -99999.99 -99999.99
9/27/2021 9:50:00 AM -99999.99 -179968 -99999.99 -99999.99 -99999.99 -99999.99
9/27/2021 9:55:00 AM -99999.99 -179968 -99999.99 -99999.99 -99999.99 -99999.99
9/27/2021 10:00:00 AM -99999.99 -179968 -99999.99 -99999.99 -99999.99 -99999.99
9/27/2021 10:05:00 AM -99999.99 -179968 -99999.99 -99999.99 -99999.99 -99999.99
9/27/2021 10:10:00 AM -99999.99 -179968 -99999.99 -99999.99 -99999.99 -99999.99
9/27/2021 10:15:00 AM -99999.99 -179968 -99999.99 -99999.99 -99999.99 -99999.99
9/27/2021 10:20:00 AM -99999.99 -179968 -99999.99 -99999.99 -99999.99 -99999.99
9/27/2021 10:25:00 AM -99999.99 -179968 -99999.99 -99999.99 -99999.99 -99999.99
9/27/2021 10:30:00 AM -99999.99 -179968 -99999.99 -99999.99 -99999.99 -99999.99
9/27/2021 10:35:00 AM -99999.99 -179968 -99999.99 -99999.99 -99999.99 -99999.99
9/27/2021 10:40:00 AM -99999.99 -179968 -99999.99 -99999.99 -99999.99 -99999.99
9/27/2021 10:45:00 AM -99999.99 -179968 -99999.99 -99999.99 -99999.99 -99999.99
9/27/2021 10:50:00 AM -99999.99 -179968 -99999.99 -99999.99 -99999.99 -99999.99
9/27/2021 10:55:00 AM -99999.99 -179968 -99999.99 -99999.99 -99999.99 -99999.99
9/27/2021 11:00:00 AM -99999.99 -179968 -99999.99 -99999.99 -99999.99 -99999.99
9/27/2021 11:05:00 AM -99999.99 -179968 -99999.99 -99999.99 -99999.99 -99999.99
9/27/2021 11:10:00 AM -99999.99 -179968 -99999.99 -99999.99 -99999.99 -99999.99
9/27/2021 11:15:00 AM -99999.99 -179968 -99999.99 -99999.99 -99999.99 -99999.99
9/27/2021 11:20:00 AM -99999.99 -179968 -99999.99 -99999.99 -99999.99 -99999.99
9/27/2021 11:25:00 AM -99999.99 -179968 -99999.99 -99999.99 -99999.99 -99999.99
9/27/2021 11:30:00 AM -99999.99 -179968 -99999.99 -99999.99 -99999.99 -99999.99
9/27/2021 11:35:00 AM -99999.99 -179968 -99999.99 -99999.99 -99999.99 -99999.99
9/27/2021 11:40:00 AM -99999.99 -179968 -99999.99 -99999.99 -99999.99 -99999.99
9/27/2021 11:45:00 AM -99999.99 -179968 -99999.99 -99999.99 -99999.99 -99999.99
9/27/2021 11:50:00 AM -99999.99 -179968 -99999.99 -99999.99 -99999.99 -99999.99
9/27/2021 11:55:00 AM -99999.99 -179968 -99999.99 -99999.99 -99999.99 -99999.99
9/27/2021 12:00:00 PM -99999.99 -179968 -99999.99 -99999.99 -99999.99 -99999.99
9/27/2021 12:05:00 PM -99999.99 -179968 -99999.99 -99999.99 -99999.99 -99999.99
9/27/2021 12:10:00 PM -99999.99 -179968 -99999.99 -99999.99 -99999.99 -99999.99
9/27/2021 12:15:00 PM -99999.99 -179968 -99999.99 -99999.99 -99999.99 -99999.99
9/27/2021 12:20:00 PM -99999.99 -179968 -99999.99 -99999.99 -99999.99 -99999.99
9/27/2021 12:25:00 PM -99999.99 -179968 -99999.99 -99999.99 -99999.99 -99999.99
9/27/2021 12:30:00 PM -99999.99 -179968 -99999.99 -99999.99 -99999.99 -99999.99
9/27/2021 12:35:00 PM -99999.99 -179968 -99999.99 -99999.99 -99999.99 -99999.99
9/27/2021 12:40:00 PM -99999.99 -179968 -99999.99 -99999.99 -99999.99 -99999.99
9/27/2021 12:45:00 PM -99999.99 -179968 -99999.99 -99999.99 -99999.99 -99999.99
9/27/2021 12:50:00 PM -99999.99 -179968 -99999.99 -99999.99 -99999.99 -99999.99
9/27/2021 12:55:00 PM -99999.99 -179968 -99999.99 -99999.99 -99999.99 -99999.99
9/27/2021 1:00:00 PM -99999.99 -179968 -99999.99 -99999.99 -99999.99 -99999.99
9/27/2021 1:05:00 PM -99999.99 -179968 -99999.99 -99999.99 -99999.99 -99999.99
9/27/2021 1:10:00 PM -99999.99 -179968 -99999.99 -99999.99 -99999.99 -99999.99
9/27/2021 1:15:00 PM -99999.99 -179968 -99999.99 -99999.99 -99999.99 -99999.99
9/27/2021 1:20:00 PM -99999.99 -179968 -99999.99 -99999.99 -99999.99 -99999.99
9/27/2021 1:25:00 PM -99999.99 -179968 -99999.99 -99999.99 -99999.99 -99999.99
9/27/2021 1:30:00 PM -99999.99 -179968 -99999.99 -99999.99 -99999.99 -99999.99
9/27/2021 1:35:00 PM -99999.99 -179968 -99999.99 -99999.99 -99999.99 -99999.99
9/27/2021 1:40:00 PM -99999.99 -179968 -99999.99 -99999.99 -99999.99 -99999.99
9/27/2021 1:45:00 PM -99999.99 -179968 -99999.99 -99999.99 -99999.99 -99999.99
9/27/2021 1:50:00 PM -99999.99 -179968 -99999.99 -99999.99 -99999.99 -99999.99
9/27/2021 1:55:00 PM -99999.99 -179968 -99999.99 -99999.99 -99999.99 -99999.99
9/27/2021 2:00:00 PM -99999.99 -179968 -99999.99 -99999.99 -99999.99 -99999.99
9/27/2021 2:05:00 PM -99999.99 -179968 -99999.99 -99999.99 -99999.99 -99999.99
9/27/2021 2:10:00 PM -99999.99 -179968 -99999.99 -99999.99 -99999.99 -99999.99
9/27/2021 2:15:00 PM -99999.99 -179968 -99999.99 -99999.99 -99999.99 -99999.99
9/27/2021 2:20:00 PM -99999.99 -179968 -99999.99 -99999.99 -99999.99 -99999.99
9/27/2021 2:25:00 PM -99999.99 -179968 -99999.99 -99999.99 -99999.99 -99999.99
9/27/2021 2:30:00 PM -99999.99 -179968 -99999.99 -99999.99 -99999.99 -99999.99
9/27/2021 2:35:00 PM -99999.99 -179968 -99999.99 -99999.99 -99999.99 -99999.99
9/27/2021 2:40:00 PM -99999.99 -179968 -99999.99 -99999.99 -99999.99 -99999.99
9/27/2021 2:45:00 PM -99999.99 -179968 -99999.99 -99999.99 -99999.99 -99999.99
9/27/2021 2:50:00 PM -99999.99 -179968 -99999.99 -99999.99 -99999.99 -99999.99
9/27/2021 2:55:00 PM -99999.99 -179968 -99999.99 -99999.99 -99999.99 -99999.99
9/27/2021 3:00:00 PM -99999.99 -179968 -99999.99 -99999.99 -99999.99 -99999.99
9/27/2021 3:05:00 PM -99999.99 -179968 -99999.99 -99999.99 -99999.99 -99999.99
9/27/2021 3:10:00 PM -99999.99 -179968 -99999.99 -99999.99 -99999.99 -99999.99
9/27/2021 3:15:00 PM -99999.99 -179968 -99999.99 -99999.99 -99999.99 -99999.99
9/27/2021 3:20:00 PM -99999.99 -179968 -99999.99 -99999.99 -99999.99 -99999.99
9/27/2021 3:25:00 PM -99999.99 -179968 -99999.99 -99999.99 -99999.99 -99999.99
9/27/2021 3:30:00 PM -99999.99 -179968 -99999.99 -99999.99 -99999.99 -99999.99
9/27/2021 3:35:00 PM -99999.99 -179968 -99999.99 -99999.99 -99999.99 -99999.99
9/27/2021 3:40:00 PM -99999.99 -179968 -99999.99 -99999.99 -99999.99 -99999.99
9/27/2021 3:45:00 PM -99999.99 -179968 -99999.99 -99999.99 -99999.99 -99999.99
9/27/2021 3:50:00 PM -99999.99 -179968 -99999.99 -99999.99 -99999.99 -99999.99
9/27/2021 3:55:00 PM -99999.99 -179968 -99999.99 -99999.99 -99999.99 -99999.99
9/27/2021 4:00:00 PM -99999.99 -179968 -99999.99 -99999.99 -99999.99 -99999.99
9/27/2021 4:05:00 PM -99999.99 -179968 -99999.99 -99999.99 -99999.99 -99999.99
9/27/2021 4:10:00 PM -99999.99 -179968 -99999.99 -99999.99 -99999.99 -99999.99
9/27/2021 4:15:00 PM -99999.99 -179968 -99999.99 -99999.99 -99999.99 -99999.99
9/27/2021 4:20:00 PM -99999.99 -179968 -99999.99 -99999.99 -99999.99 -99999.99
9/27/2021 4:25:00 PM -99999.99 -179968 -99999.99 -99999.99 -99999.99 -99999.99
9/27/2021 4:30:00 PM -99999.99 -179968 -99999.99 -99999.99 -99999.99 -99999.99
9/27/2021 4:35:00 PM -99999.99 -179968 -99999.99 -99999.99 -99999.99 -99999.99
9/27/2021 4:40:00 PM -99999.99 -179968 -99999.99 -99999.99 -99999.99 -99999.99
9/27/2021 4:45:00 PM -99999.99 -179968 -99999.99 -99999.99 -99999.99 -99999.99
9/27/2021 4:50:00 PM -99999.99 -179968 -99999.99 -99999.99 -99999.99 -99999.99
9/27/2021 4:55:00 PM -99999.99 -179968 -99999.99 -99999.99 -99999.99 -99999.99
9/27/2021 5:00:00 PM -99999.99 -179968 -99999.99 -99999.99 -99999.99 -99999.99
9/27/2021 5:05:00 PM -99999.99 -179968 -99999.99 -99999.99 -99999.99 -99999.99
9/27/2021 5:10:00 PM -99999.99 -179968 -99999.99 -99999.99 -99999.99 -99999.99
9/27/2021 5:15:00 PM -99999.99 -179968 -99999.99 -99999.99 -99999.99 -99999.99
9/27/2021 5:20:00 PM -99999.99 -179968 -99999.99 -99999.99 -99999.99 -99999.99
9/27/2021 5:25:00 PM -99999.99 -179968 -99999.99 -99999.99 -99999.99 -99999.99
9/27/2021 5:30:00 PM -99999.99 -179968 -99999.99 -99999.99 -99999.99 -99999.99
9/27/2021 5:35:00 PM -99999.99 -179968 -99999.99 -99999.99 -99999.99 -99999.99
9/27/2021 5:40:00 PM -99999.99 -179968 -99999.99 -99999.99 -99999.99 -99999.99
9/27/2021 5:45:00 PM -99999.99 -179968 -99999.99 -99999.99 -99999.99 -99999.99
9/27/2021 5:50:00 PM -99999.99 -179968 -99999.99 -99999.99 -99999.99 -99999.99
9/27/2021 5:55:00 PM -99999.99 -179968 -99999.99 -99999.99 -99999.99 -99999.99
9/27/2021 6:00:00 PM -99999.99 -179968 -99999.99 -99999.99 -99999.99 -99999.99
9/27/2021 6:05:00 PM -99999.99 -179968 -99999.99 -99999.99 -99999.99 -99999.99
9/27/2021 6:10:00 PM -99999.99 -179968 -99999.99 -99999.99 -99999.99 -99999.99
9/27/2021 6:15:00 PM -99999.99 -179968 -99999.99 -99999.99 -99999.99 -99999.99
9/27/2021 6:20:00 PM -99999.99 -179968 -99999.99 -99999.99 -99999.99 -99999.99
9/27/2021 6:25:00 PM -99999.99 -179968 -99999.99 -99999.99 -99999.99 -99999.99
9/27/2021 6:30:00 PM -99999.99 -179968 -99999.99 -99999.99 -99999.99 -99999.99
9/27/2021 6:35:00 PM -99999.99 -179968 -99999.99 -99999.99 -99999.99 -99999.99
9/27/2021 6:40:00 PM -99999.99 -179968 -99999.99 -99999.99 -99999.99 -99999.99
9/27/2021 6:45:00 PM -99999.99 -179968 -99999.99 -99999.99 -99999.99 -99999.99
9/27/2021 6:50:00 PM -99999.99 -179968 -99999.99 -99999.99 -99999.99 -99999.99
9/27/2021 6:55:00 PM -99999.99 -179968 -99999.99 -99999.99 -99999.99 -99999.99
9/27/2021 7:00:00 PM -99999.99 -179968 -99999.99 -99999.99 -99999.99 -99999.99
9/27/2021 7:05:00 PM -99999.99 -179968 -99999.99 -99999.99 -99999.99 -99999.99
9/27/2021 7:10:00 PM -99999.99 -179968 -99999.99 -99999.99 -99999.99 -99999.99
9/27/2021 7:15:00 PM -99999.99 -179968 -99999.99 -99999.99 -99999.99 -99999.99
9/27/2021 7:20:00 PM -99999.99 -179968 -99999.99 -99999.99 -99999.99 -99999.99
9/27/2021 7:25:00 PM -99999.99 -179968 -99999.99 -99999.99 -99999.99 -99999.99
9/27/2021 7:30:00 PM -99999.99 -179968 -99999.99 -99999.99 -99999.99 -99999.99
9/27/2021 7:35:00 PM -99999.99 -179968 -99999.99 -99999.99 -99999.99 -99999.99
9/27/2021 7:40:00 PM -99999.99 -179968 -99999.99 -99999.99 -99999.99 -99999.99
9/27/2021 7:45:00 PM -99999.99 -179968 -99999.99 -99999.99 -99999.99 -99999.99
9/27/2021 7:50:00 PM -99999.99 -179968 -99999.99 -99999.99 -99999.99 -99999.99
9/27/2021 7:55:00 PM -99999.99 -179968 -99999.99 -99999.99 -99999.99 -99999.99
9/27/2021 8:00:00 PM -99999.99 -179968 -99999.99 -99999.99 -99999.99 -99999.99
9/27/2021 8:05:00 PM -99999.99 -179968 -99999.99 -99999.99 -99999.99 -99999.99
9/27/2021 8:10:00 PM -99999.99 -179968 -99999.99 -99999.99 -99999.99 -99999.99
9/27/2021 8:15:00 PM -99999.99 -179968 -99999.99 -99999.99 -99999.99 -99999.99
9/27/2021 8:20:00 PM -99999.99 -179968 -99999.99 -99999.99 -99999.99 -99999.99
9/27/2021 8:25:00 PM -99999.99 -179968 -99999.99 -99999.99 -99999.99 -99999.99
9/27/2021 8:30:00 PM -99999.99 -179968 -99999.99 -99999.99 -99999.99 -99999.99
9/27/2021 8:35:00 PM -99999.99 -179968 -99999.99 -99999.99 -99999.99 -99999.99
9/27/2021 8:40:00 PM -99999.99 -179968 -99999.99 -99999.99 -99999.99 -99999.99
9/27/2021 8:45:00 PM -99999.99 -179968 -99999.99 -99999.99 -99999.99 -99999.99
9/27/2021 8:50:00 PM -99999.99 -179968 -99999.99 -99999.99 -99999.99 -99999.99
9/27/2021 8:55:00 PM -99999.99 -179968 -99999.99 -99999.99 -99999.99 -99999.99
9/27/2021 9:00:00 PM -99999.99 -179968 -99999.99 -99999.99 -99999.99 -99999.99
9/27/2021 9:05:00 PM -99999.99 -179968 -99999.99 -99999.99 -99999.99 -99999.99
9/27/2021 9:10:00 PM -99999.99 -179968 -99999.99 -99999.99 -99999.99 -99999.99
9/27/2021 9:15:00 PM -99999.99 -179968 -99999.99 -99999.99 -99999.99 -99999.99
9/27/2021 9:20:00 PM -99999.99 -179968 -99999.99 -99999.99 -99999.99 -99999.99
9/27/2021 9:25:00 PM -99999.99 -179968 -99999.99 -99999.99 -99999.99 -99999.99
9/27/2021 9:30:00 PM -99999.99 -179968 -99999.99 -99999.99 -99999.99 -99999.99
9/27/2021 9:35:00 PM -99999.99 -179968 -99999.99 -99999.99 -99999.99 -99999.99
9/27/2021 9:40:00 PM -99999.99 -179968 -99999.99 -99999.99 -99999.99 -99999.99
9/27/2021 9:45:00 PM -99999.99 -179968 -99999.99 -99999.99 -99999.99 -99999.99
9/27/2021 9:50:00 PM -99999.99 -179968 -99999.99 -99999.99 -99999.99 -99999.99
9/27/2021 9:55:00 PM -99999.99 -179968 -99999.99 -99999.99 -99999.99 -99999.99
9/27/2021 10:00:00 PM -99999.99 -179968 -99999.99 -99999.99 -99999.99 -99999.99
9/27/2021 10:05:00 PM -99999.99 -179968 -99999.99 -99999.99 -99999.99 -99999.99
9/27/2021 10:10:00 PM -99999.99 -179968 -99999.99 -99999.99 -99999.99 -99999.99
9/27/2021 10:15:00 PM -99999.99 -179968 -99999.99 -99999.99 -99999.99 -99999.99
9/27/2021 10:20:00 PM -99999.99 -179968 -99999.99 -99999.99 -99999.99 -99999.99
9/27/2021 10:25:00 PM -99999.99 -179968 -99999.99 -99999.99 -99999.99 -99999.99
9/27/2021 10:30:00 PM -99999.99 -179968 -99999.99 -99999.99 -99999.99 -99999.99
9/27/2021 10:35:00 PM -99999.99 -179968 -99999.99 -99999.99 -99999.99 -99999.99
9/27/2021 10:40:00 PM -99999.99 -179968 -9